<?xml version="1.0" encoding="UTF-8" standalone="no" ?><gpx xmlns="http://www.topografix.com/GPX/1/1" xmlns:gpxx="http://www.garmin.com/xmlschemas/GpxExtensions/v3" xmlns:wptx1="http://www.garmin.com/xmlschemas/WaypointExtension/v1" xmlns:gpxtpx="http://www.garmin.com/xmlschemas/TrackPointExtension/v1" creator="GuideVTT.com" version="1.1" xmlns:xsi="http://www.w3.org/2001/XMLSchema-instance" xsi:schemaLocation="http://www.topografix.com/GPX/1/1 http://www.topografix.com/GPX/1/1/gpx.xsd http://www.garmin.com/xmlschemas/GpxExtensions/v3 http://www8.garmin.com/xmlschemas/GpxExtensionsv3.xsd http://www.garmin.com/xmlschemas/WaypointExtension/v1 http://www8.garmin.com/xmlschemas/WaypointExtensionv1.xsd http://www.garmin.com/xmlschemas/TrackPointExtension/v1 http://www.garmin.com/xmlschemas/TrackPointExtensionv1.xsd">
<metadata><link href="http://www.garmin.com"><text>Garmin International</text></link><time>2013-06-22T15:13:50Z</time></metadata>
<trk><name>vtt_bovonnes.gpx</name><extensions><gpxx:TrackExtension><gpxx:DisplayColor>Cyan</gpxx:DisplayColor></gpxx:TrackExtension></extensions><trkseg>
<trkpt lat="46.24592296779156" lon="7.012484930455685"><ele></ele><time>2013-7-24T0:33:24Z</time></trkpt>
<trkpt lat="46.245831940323114" lon="7.0123309548944235"><ele></ele><time>2013-7-24T0:33:27Z</time></trkpt>
<trkpt lat="46.245754994452" lon="7.012186953797936"><ele></ele><time>2013-7-24T0:33:30Z</time></trkpt>
<trkpt lat="46.2455789744854" lon="7.012002971023321"><ele></ele><time>2013-7-24T0:33:33Z</time></trkpt>
<trkpt lat="46.24543497338891" lon="7.012036917731166"><ele></ele><time>2013-7-24T0:33:36Z</time></trkpt>
<trkpt lat="46.245120987296104" lon="7.012197934091091"><ele></ele><time>2013-7-24T0:33:39Z</time></trkpt>
<trkpt lat="46.24484698288143" lon="7.012329949066043"><ele></ele><time>2013-7-24T0:33:42Z</time></trkpt>
<trkpt lat="46.244521932676435" lon="7.0126669853925705"><ele></ele><time>2013-7-24T0:33:45Z</time></trkpt>
<trkpt lat="46.244216999039054" lon="7.012931937351823"><ele></ele><time>2013-7-24T0:33:48Z</time></trkpt>
<trkpt lat="46.2440299987793" lon="7.01311893761158"><ele></ele><time>2013-7-24T0:33:51Z</time></trkpt>
<trkpt lat="46.24382799491286" lon="7.013366958126426"><ele></ele><time>2013-7-24T0:33:54Z</time></trkpt>
<trkpt lat="46.243596989661455" lon="7.013244917616248"><ele></ele><time>2013-7-24T0:33:57Z</time></trkpt>
<trkpt lat="46.243557929992676" lon="7.013151962310076"><ele></ele><time>2013-7-24T0:34:0Z</time></trkpt>
<trkpt lat="46.24328694306314" lon="7.012484930455685"><ele></ele><time>2013-7-24T0:34:3Z</time></trkpt>
<trkpt lat="46.24294797889888" lon="7.011658977717161"><ele></ele><time>2013-7-24T0:34:6Z</time></trkpt>
<trkpt lat="46.24273097142577" lon="7.011103928089142"><ele></ele><time>2013-7-24T0:34:9Z</time></trkpt>
<trkpt lat="46.24266299419105" lon="7.010892955586314"><ele></ele><time>2013-7-24T0:34:12Z</time></trkpt>
<trkpt lat="46.24264195561409" lon="7.011180957779288"><ele></ele><time>2013-7-24T0:34:15Z</time></trkpt>
<trkpt lat="46.24230399727821" lon="7.0116049982607365"><ele></ele><time>2013-7-24T0:34:18Z</time></trkpt>
<trkpt lat="46.24186897650361" lon="7.0120379235595465"><ele></ele><time>2013-7-24T0:34:21Z</time></trkpt>
<trkpt lat="46.24164895154536" lon="7.012156946584582"><ele></ele><time>2013-7-24T0:34:24Z</time></trkpt>
<trkpt lat="46.241257935762405" lon="7.012126939371228"><ele></ele><time>2013-7-24T0:34:27Z</time></trkpt>
<trkpt lat="46.24101192690432" lon="7.012001965194941"><ele></ele><time>2013-7-24T0:34:30Z</time></trkpt>
<trkpt lat="46.24092391692102" lon="7.011813959106803"><ele></ele><time>2013-7-24T0:34:33Z</time></trkpt>
<trkpt lat="46.24086197465658" lon="7.011595945805311"><ele></ele><time>2013-7-24T0:34:36Z</time></trkpt>
<trkpt lat="46.24074596911669" lon="7.011314984411001"><ele></ele><time>2013-7-24T0:34:39Z</time></trkpt>
<trkpt lat="46.24066198244691" lon="7.011293945834041"><ele></ele><time>2013-7-24T0:34:42Z</time></trkpt>
<trkpt lat="46.240500966086984" lon="7.0113269705325365"><ele></ele><time>2013-7-24T0:34:45Z</time></trkpt>
<trkpt lat="46.240202989429235" lon="7.0113699696958065"><ele></ele><time>2013-7-24T0:34:48Z</time></trkpt>
<trkpt lat="46.24008991755545" lon="7.011186992749572"><ele></ele><time>2013-7-24T0:34:51Z</time></trkpt>
<trkpt lat="46.24002294614911" lon="7.010983983054757"><ele></ele><time>2013-7-24T0:34:54Z</time></trkpt>
<trkpt lat="46.239924961701035" lon="7.010714923962951"><ele></ele><time>2013-7-24T0:34:57Z</time></trkpt>
<trkpt lat="46.2397419847548" lon="7.010605959221721"><ele></ele><time>2013-7-24T0:35:0Z</time></trkpt>
<trkpt lat="46.23954593203962" lon="7.010457934811711"><ele></ele><time>2013-7-24T0:35:3Z</time></trkpt>
<trkpt lat="46.23946496285498" lon="7.010284932330251"><ele></ele><time>2013-7-24T0:35:6Z</time></trkpt>
<trkpt lat="46.239386927336454" lon="7.010060967877507"><ele></ele><time>2013-7-24T0:35:9Z</time></trkpt>
<trkpt lat="46.23928793706" lon="7.009747987613082"><ele></ele><time>2013-7-24T0:35:12Z</time></trkpt>
<trkpt lat="46.23921291902661" lon="7.009548917412758"><ele></ele><time>2013-7-24T0:35:15Z</time></trkpt>
<trkpt lat="46.23915692791343" lon="7.0093979593366385"><ele></ele><time>2013-7-24T0:35:18Z</time></trkpt>
<trkpt lat="46.239107977598906" lon="7.0092689618468285"><ele></ele><time>2013-7-24T0:35:21Z</time></trkpt>
<trkpt lat="46.239063972607255" lon="7.009150944650173"><ele></ele><time>2013-7-24T0:35:24Z</time></trkpt>
<trkpt lat="46.2390149384737" lon="7.009019935503602"><ele></ele><time>2013-7-24T0:35:27Z</time></trkpt>
<trkpt lat="46.238979985937476" lon="7.00892698019743"><ele></ele><time>2013-7-24T0:35:30Z</time></trkpt>
<trkpt lat="46.23890496790409" lon="7.008725982159376"><ele></ele><time>2013-7-24T0:35:33Z</time></trkpt>
<trkpt lat="46.23888292349875" lon="7.008548956364393"><ele></ele><time>2013-7-24T0:35:36Z</time></trkpt>
<trkpt lat="46.23886398039758" lon="7.008378971368074"><ele></ele><time>2013-7-24T0:35:39Z</time></trkpt>
<trkpt lat="46.23890295624733" lon="7.008235976099968"><ele></ele><time>2013-7-24T0:35:42Z</time></trkpt>
<trkpt lat="46.23890396207571" lon="7.008063979446888"><ele></ele><time>2013-7-24T0:35:45Z</time></trkpt>
<trkpt lat="46.23883598484099" lon="7.007973957806826"><ele></ele><time>2013-7-24T0:35:48Z</time></trkpt>
<trkpt lat="46.23874696902931" lon="7.007914949208498"><ele></ele><time>2013-7-24T0:35:51Z</time></trkpt>
<trkpt lat="46.23860598541796" lon="7.007830962538719"><ele></ele><time>2013-7-24T0:35:54Z</time></trkpt>
<trkpt lat="46.23844899237156" lon="7.007751921191812"><ele></ele><time>2013-7-24T0:35:57Z</time></trkpt>
<trkpt lat="46.23834094963968" lon="7.007697941735387"><ele></ele><time>2013-7-24T0:36:0Z</time></trkpt>
<trkpt lat="46.23819292522967" lon="7.007578918710351"><ele></ele><time>2013-7-24T0:36:3Z</time></trkpt>
<trkpt lat="46.23812494799495" lon="7.007430978119373"><ele></ele><time>2013-7-24T0:36:6Z</time></trkpt>
<trkpt lat="46.23806099407375" lon="7.007222939282656"><ele></ele><time>2013-7-24T0:36:9Z</time></trkpt>
<trkpt lat="46.238055964931846" lon="7.0071749947965145"><ele></ele><time>2013-7-24T0:36:12Z</time></trkpt>
<trkpt lat="46.238013971596956" lon="7.006992939859629"><ele></ele><time>2013-7-24T0:36:15Z</time></trkpt>
<trkpt lat="46.237991927191615" lon="7.0069599989801645"><ele></ele><time>2013-7-24T0:36:18Z</time></trkpt>
<trkpt lat="46.23789394274354" lon="7.006980953738093"><ele></ele><time>2013-7-24T0:36:21Z</time></trkpt>
<trkpt lat="46.23789394274354" lon="7.007052954286337"><ele></ele><time>2013-7-24T0:36:24Z</time></trkpt>
<trkpt lat="46.23789394274354" lon="7.00731698423624"><ele></ele><time>2013-7-24T0:36:27Z</time></trkpt>
<trkpt lat="46.23791196383536" lon="7.007537931203842"><ele></ele><time>2013-7-24T0:36:30Z</time></trkpt>
<trkpt lat="46.23798195272684" lon="7.007866920903325"><ele></ele><time>2013-7-24T0:36:33Z</time></trkpt>
<trkpt lat="46.2379979621619" lon="7.008085940033197"><ele></ele><time>2013-7-24T0:36:36Z</time></trkpt>
<trkpt lat="46.23792998492718" lon="7.008310994133353"><ele></ele><time>2013-7-24T0:36:39Z</time></trkpt>
<trkpt lat="46.237814985215664" lon="7.008568989112973"><ele></ele><time>2013-7-24T0:36:42Z</time></trkpt>
<trkpt lat="46.23770099133253" lon="7.008804939687252"><ele></ele><time>2013-7-24T0:36:45Z</time></trkpt>
<trkpt lat="46.23753293417394" lon="7.008991939947009"><ele></ele><time>2013-7-24T0:36:48Z</time></trkpt>
<trkpt lat="46.237322967499495" lon="7.00916594825685"><ele></ele><time>2013-7-24T0:36:51Z</time></trkpt>
<trkpt lat="46.237151976674795" lon="7.0092839654535055"><ele></ele><time>2013-7-24T0:36:54Z</time></trkpt>
<trkpt lat="46.23700696974993" lon="7.009391924366355"><ele></ele><time>2013-7-24T0:36:57Z</time></trkpt>
<trkpt lat="46.23688593506813" lon="7.009500972926617"><ele></ele><time>2013-7-24T0:37:0Z</time></trkpt>
<trkpt lat="46.236594999209046" lon="7.009375998750329"><ele></ele><time>2013-7-24T0:37:3Z</time></trkpt>
<trkpt lat="46.23639198951423" lon="7.009212970733643"><ele></ele><time>2013-7-24T0:37:6Z</time></trkpt>
<trkpt lat="46.23626491986215" lon="7.008954975754023"><ele></ele><time>2013-7-24T0:37:9Z</time></trkpt>
<trkpt lat="46.23615293763578" lon="7.0087179355323315"><ele></ele><time>2013-7-24T0:37:12Z</time></trkpt>
<trkpt lat="46.235945988446474" lon="7.0084139239043"><ele></ele><time>2013-7-24T0:37:15Z</time></trkpt>
<trkpt lat="46.23566594906151" lon="7.008084934204817"><ele></ele><time>2013-7-24T0:37:18Z</time></trkpt>
<trkpt lat="46.23539697378874" lon="7.007766924798489"><ele></ele><time>2013-7-24T0:37:21Z</time></trkpt>
<trkpt lat="46.23505691997707" lon="7.007367946207523"><ele></ele><time>2013-7-24T0:37:24Z</time></trkpt>
<trkpt lat="46.234790962189436" lon="7.007041973993182"><ele></ele><time>2013-7-24T0:37:27Z</time></trkpt>
<trkpt lat="46.234529949724674" lon="7.0067099668085575"><ele></ele><time>2013-7-24T0:37:30Z</time></trkpt>
<trkpt lat="46.23428494669497" lon="7.006518943235278"><ele></ele><time>2013-7-24T0:37:33Z</time></trkpt>
<trkpt lat="46.23411194421351" lon="7.006581975147128"><ele></ele><time>2013-7-24T0:37:36Z</time></trkpt>
<trkpt lat="46.233908934518695" lon="7.006676942110062"><ele></ele><time>2013-7-24T0:37:39Z</time></trkpt>
<trkpt lat="46.233689999207854" lon="7.006778949871659"><ele></ele><time>2013-7-24T0:37:42Z</time></trkpt>
<trkpt lat="46.233499981462955" lon="7.006887998431921"><ele></ele><time>2013-7-24T0:37:45Z</time></trkpt>
<trkpt lat="46.23334592208266" lon="7.007021941244602"><ele></ele><time>2013-7-24T0:37:48Z</time></trkpt>
<trkpt lat="46.2332989834249" lon="7.0071779284626245"><ele></ele><time>2013-7-24T0:37:51Z</time></trkpt>
<trkpt lat="46.23326998203993" lon="7.0074909925460815"><ele></ele><time>2013-7-24T0:37:54Z</time></trkpt>
<trkpt lat="46.23323393985629" lon="7.007666928693652"><ele></ele><time>2013-7-24T0:37:57Z</time></trkpt>
<trkpt lat="46.23321298509836" lon="7.0077139511704445"><ele></ele><time>2013-7-24T0:38:0Z</time></trkpt>
<trkpt lat="46.233116928488016" lon="7.007716968655586"><ele></ele><time>2013-7-24T0:38:3Z</time></trkpt>
<trkpt lat="46.23292992822826" lon="7.007523933425546"><ele></ele><time>2013-7-24T0:38:6Z</time></trkpt>
<trkpt lat="46.232769917696714" lon="7.007600963115692"><ele></ele><time>2013-7-24T0:38:9Z</time></trkpt>
<trkpt lat="46.23254997655749" lon="7.007838925346732"><ele></ele><time>2013-7-24T0:38:12Z</time></trkpt>
<trkpt lat="46.232421984896064" lon="7.008030954748392"><ele></ele><time>2013-7-24T0:38:15Z</time></trkpt>
<trkpt lat="46.232253927737474" lon="7.008235976099968"><ele></ele><time>2013-7-24T0:38:18Z</time></trkpt>
<trkpt lat="46.23215292580426" lon="7.008360950276256"><ele></ele><time>2013-7-24T0:38:21Z</time></trkpt>
<trkpt lat="46.23202895745635" lon="7.008464969694614"><ele></ele><time>2013-7-24T0:38:24Z</time></trkpt>
<trkpt lat="46.23198796994984" lon="7.008487936109304"><ele></ele><time>2013-7-24T0:38:27Z</time></trkpt>
<trkpt lat="46.23191697522998" lon="7.008525989949703"><ele></ele><time>2013-7-24T0:38:30Z</time></trkpt>
<trkpt lat="46.23177791945636" lon="7.008600924164057"><ele></ele><time>2013-7-24T0:38:33Z</time></trkpt>
<trkpt lat="46.23170994222164" lon="7.008643923327327"><ele></ele><time>2013-7-24T0:38:36Z</time></trkpt>
<trkpt lat="46.23164892196655" lon="7.008683988824487"><ele></ele><time>2013-7-24T0:38:39Z</time></trkpt>
<trkpt lat="46.231554960832" lon="7.008782979100943"><ele></ele><time>2013-7-24T0:38:42Z</time></trkpt>
<trkpt lat="46.23148698359728" lon="7.008866965770721"><ele></ele><time>2013-7-24T0:38:45Z</time></trkpt>
<trkpt lat="46.23142093420029" lon="7.008965956047177"><ele></ele><time>2013-7-24T0:38:48Z</time></trkpt>
<trkpt lat="46.23125698417425" lon="7.0092029962688684"><ele></ele><time>2013-7-24T0:38:51Z</time></trkpt>
<trkpt lat="46.23108498752117" lon="7.009382955729961"><ele></ele><time>2013-7-24T0:38:54Z</time></trkpt>
<trkpt lat="46.23081995174289" lon="7.009548917412758"><ele></ele><time>2013-7-24T0:38:57Z</time></trkpt>
<trkpt lat="46.230559945106506" lon="7.009691996499896"><ele></ele><time>2013-7-24T0:39:0Z</time></trkpt>
<trkpt lat="46.230447962880135" lon="7.0098349917680025"><ele></ele><time>2013-7-24T0:39:3Z</time></trkpt>
<trkpt lat="46.23022098094225" lon="7.010179990902543"><ele></ele><time>2013-7-24T0:39:6Z</time></trkpt>
<trkpt lat="46.22998494654894" lon="7.010520966723561"><ele></ele><time>2013-7-24T0:39:9Z</time></trkpt>
<trkpt lat="46.229803981259465" lon="7.010628925636411"><ele></ele><time>2013-7-24T0:39:12Z</time></trkpt>
<trkpt lat="46.2291959580034" lon="7.010785918682814"><ele></ele><time>2013-7-24T0:39:15Z</time></trkpt>
<trkpt lat="46.228795973584056" lon="7.011050954461098"><ele></ele><time>2013-7-24T0:39:18Z</time></trkpt>
<trkpt lat="46.22846094891429" lon="7.0112059358507395"><ele></ele><time>2013-7-24T0:39:21Z</time></trkpt>
<trkpt lat="46.22835894115269" lon="7.011186992749572"><ele></ele><time>2013-7-24T0:39:24Z</time></trkpt>
<trkpt lat="46.22841292060912" lon="7.011416992172599"><ele></ele><time>2013-7-24T0:39:27Z</time></trkpt>
<trkpt lat="46.22842096723616" lon="7.011447921395302"><ele></ele><time>2013-7-24T0:39:30Z</time></trkpt>
<trkpt lat="46.22849992476404" lon="7.0117769949138165"><ele></ele><time>2013-7-24T0:39:33Z</time></trkpt>
<trkpt lat="46.22856496833265" lon="7.012055944651365"><ele></ele><time>2013-7-24T0:39:36Z</time></trkpt>
<trkpt lat="46.228666976094246" lon="7.0122169610112906"><ele></ele><time>2013-7-24T0:39:39Z</time></trkpt>
<trkpt lat="46.228877948597074" lon="7.012358950451016"><ele></ele><time>2013-7-24T0:39:42Z</time></trkpt>
<trkpt lat="46.22908598743379" lon="7.012541927397251"><ele></ele><time>2013-7-24T0:39:45Z</time></trkpt>
<trkpt lat="46.22925798408687" lon="7.012726999819279"><ele></ele><time>2013-7-24T0:39:48Z</time></trkpt>
<trkpt lat="46.22940994799137" lon="7.012995975092053"><ele></ele><time>2013-7-24T0:39:51Z</time></trkpt>
<trkpt lat="46.22956492938101" lon="7.013258999213576"><ele></ele><time>2013-7-24T0:39:54Z</time></trkpt>
<trkpt lat="46.22972393408418" lon="7.013509953394532"><ele></ele><time>2013-7-24T0:39:57Z</time></trkpt>
<trkpt lat="46.22984396293759" lon="7.01369896531105"><ele></ele><time>2013-7-24T0:40:0Z</time></trkpt>
<trkpt lat="46.22996499761939" lon="7.013891916722059"><ele></ele><time>2013-7-24T0:40:3Z</time></trkpt>
<trkpt lat="46.23007697984576" lon="7.0140959322452545"><ele></ele><time>2013-7-24T0:40:6Z</time></trkpt>
<trkpt lat="46.23022198677063" lon="7.014313945546746"><ele></ele><time>2013-7-24T0:40:9Z</time></trkpt>
<trkpt lat="46.23024897649884" lon="7.014354933053255"><ele></ele><time>2013-7-24T0:40:12Z</time></trkpt>
<trkpt lat="46.23030899092555" lon="7.014443948864937"><ele></ele><time>2013-7-24T0:40:15Z</time></trkpt>
<trkpt lat="46.23041594401002" lon="7.014604965224862"><ele></ele><time>2013-7-24T0:40:18Z</time></trkpt>
<trkpt lat="46.230578972026706" lon="7.014848962426186"><ele></ele><time>2013-7-24T0:40:21Z</time></trkpt>
<trkpt lat="46.23079991899431" lon="7.015279959887266"><ele></ele><time>2013-7-24T0:40:24Z</time></trkpt>
<trkpt lat="46.230896981433034" lon="7.015443993732333"><ele></ele><time>2013-7-24T0:40:27Z</time></trkpt>
<trkpt lat="46.23095892369747" lon="7.01552496291697"><ele></ele><time>2013-7-24T0:40:30Z</time></trkpt>
<trkpt lat="46.23080394230783" lon="7.015615990385413"><ele></ele><time>2013-7-24T0:40:33Z</time></trkpt>
<trkpt lat="46.230706963688135" lon="7.015729984268546"><ele></ele><time>2013-7-24T0:40:36Z</time></trkpt>
<trkpt lat="46.23058894649148" lon="7.015894940122962"><ele></ele><time>2013-7-24T0:40:39Z</time></trkpt>
<trkpt lat="46.23045994900167" lon="7.0160829462111"><ele></ele><time>2013-7-24T0:40:42Z</time></trkpt>
<trkpt lat="46.23034696094692" lon="7.016167938709259"><ele></ele><time>2013-7-24T0:40:45Z</time></trkpt>
<trkpt lat="46.23018292710185" lon="7.016179924830794"><ele></ele><time>2013-7-24T0:40:48Z</time></trkpt>
<trkpt lat="46.2299679312855" lon="7.016128962859511"><ele></ele><time>2013-7-24T0:40:51Z</time></trkpt>
<trkpt lat="46.22976793907583" lon="7.0160529389977455"><ele></ele><time>2013-7-24T0:40:54Z</time></trkpt>
<trkpt lat="46.22959594242275" lon="7.016075989231467"><ele></ele><time>2013-7-24T0:40:57Z</time></trkpt>
<trkpt lat="46.22939192689955" lon="7.016372960060835"><ele></ele><time>2013-7-24T0:41:0Z</time></trkpt>
<trkpt lat="46.22929394245148" lon="7.016559960320592"><ele></ele><time>2013-7-24T0:41:3Z</time></trkpt>
<trkpt lat="46.229242980480194" lon="7.016710918396711"><ele></ele><time>2013-7-24T0:41:6Z</time></trkpt>
<trkpt lat="46.22914792969823" lon="7.016994981095195"><ele></ele><time>2013-7-24T0:41:9Z</time></trkpt>
<trkpt lat="46.229070983827114" lon="7.01724199578166"><ele></ele><time>2013-7-24T0:41:12Z</time></trkpt>
<trkpt lat="46.228986997157335" lon="7.0175449177622795"><ele></ele><time>2013-7-24T0:41:15Z</time></trkpt>
<trkpt lat="46.22890896163881" lon="7.017787992954254"><ele></ele><time>2013-7-24T0:41:18Z</time></trkpt>
<trkpt lat="46.22882899828255" lon="7.017957977950573"><ele></ele><time>2013-7-24T0:41:21Z</time></trkpt>
<trkpt lat="46.22869497165084" lon="7.018252937123179"><ele></ele><time>2013-7-24T0:41:24Z</time></trkpt>
<trkpt lat="46.22849598526955" lon="7.018686952069402"><ele></ele><time>2013-7-24T0:41:27Z</time></trkpt>
<trkpt lat="46.22844594530761" lon="7.018995992839336"><ele></ele><time>2013-7-24T0:41:30Z</time></trkpt>
<trkpt lat="46.22848198749125" lon="7.019145945087075"><ele></ele><time>2013-7-24T0:41:33Z</time></trkpt>
<trkpt lat="46.22863696888089" lon="7.019709963351488"><ele></ele><time>2013-7-24T0:41:36Z</time></trkpt>
<trkpt lat="46.22871299274266" lon="7.020060997456312"><ele></ele><time>2013-7-24T0:41:39Z</time></trkpt>
<trkpt lat="46.22876898385584" lon="7.020361991599202"><ele></ele><time>2013-7-24T0:41:42Z</time></trkpt>
<trkpt lat="46.228812988847494" lon="7.020567934960127"><ele></ele><time>2013-7-24T0:41:45Z</time></trkpt>
<trkpt lat="46.22888599522412" lon="7.020943947136402"><ele></ele><time>2013-7-24T0:41:48Z</time></trkpt>
<trkpt lat="46.22900694608688" lon="7.021219963207841"><ele></ele><time>2013-7-24T0:41:51Z</time></trkpt>
<trkpt lat="46.22917097993195" lon="7.021575942635536"><ele></ele><time>2013-7-24T0:41:54Z</time></trkpt>
<trkpt lat="46.22938396409154" lon="7.02203493565321"><ele></ele><time>2013-7-24T0:41:57Z</time></trkpt>
<trkpt lat="46.22958295047283" lon="7.022480936720967"><ele></ele><time>2013-7-24T0:42:0Z</time></trkpt>
<trkpt lat="46.22968596406281" lon="7.022910928353667"><ele></ele><time>2013-7-24T0:42:3Z</time></trkpt>
<trkpt lat="46.22969392687082" lon="7.02298192307353"><ele></ele><time>2013-7-24T0:42:6Z</time></trkpt>
<trkpt lat="46.22972493991256" lon="7.023178981617093"><ele></ele><time>2013-7-24T0:42:9Z</time></trkpt>
<trkpt lat="46.229846980422735" lon="7.023525992408395"><ele></ele><time>2013-7-24T0:42:12Z</time></trkpt>
<trkpt lat="46.229974972084165" lon="7.023982973769307"><ele></ele><time>2013-7-24T0:42:15Z</time></trkpt>
<trkpt lat="46.23009198345244" lon="7.024364937096834"><ele></ele><time>2013-7-24T0:42:18Z</time></trkpt>
<trkpt lat="46.230234978720546" lon="7.024711947888136"><ele></ele><time>2013-7-24T0:42:21Z</time></trkpt>
<trkpt lat="46.230318965390325" lon="7.025227937847376"><ele></ele><time>2013-7-24T0:42:24Z</time></trkpt>
<trkpt lat="46.23026791960001" lon="7.025894969701767"><ele></ele><time>2013-7-24T0:42:27Z</time></trkpt>
<trkpt lat="46.230252999812365" lon="7.025995971634984"><ele></ele><time>2013-7-24T0:42:30Z</time></trkpt>
<trkpt lat="46.23005292378366" lon="7.026241980493069"><ele></ele><time>2013-7-24T0:42:33Z</time></trkpt>
<trkpt lat="46.229846980422735" lon="7.026400985196233"><ele></ele><time>2013-7-24T0:42:36Z</time></trkpt>
<trkpt lat="46.22993599623442" lon="7.026597959920764"><ele></ele><time>2013-7-24T0:42:39Z</time></trkpt>
<trkpt lat="46.22995292767882" lon="7.026627967134118"><ele></ele><time>2013-7-24T0:42:42Z</time></trkpt>
<trkpt lat="46.23001595959067" lon="7.02671991661191"><ele></ele><time>2013-7-24T0:42:45Z</time></trkpt>
<trkpt lat="46.229889979586005" lon="7.026886967942119"><ele></ele><time>2013-7-24T0:42:48Z</time></trkpt>
<trkpt lat="46.22976793907583" lon="7.027096934616566"><ele></ele><time>2013-7-24T0:42:51Z</time></trkpt>
<trkpt lat="46.22966995462775" lon="7.027183938771486"><ele></ele><time>2013-7-24T0:42:54Z</time></trkpt>
<trkpt lat="46.22952897101641" lon="7.027215957641602"><ele></ele><time>2013-7-24T0:42:57Z</time></trkpt>
<trkpt lat="46.229376923292875" lon="7.027215957641602"><ele></ele><time>2013-7-24T0:43:0Z</time></trkpt>
<trkpt lat="46.229181960225105" lon="7.027203971520066"><ele></ele><time>2013-7-24T0:43:3Z</time></trkpt>
<trkpt lat="46.22880494222045" lon="7.027179999276996"><ele></ele><time>2013-7-24T0:43:6Z</time></trkpt>
<trkpt lat="46.22857192531228" lon="7.027188967913389"><ele></ele><time>2013-7-24T0:43:9Z</time></trkpt>
<trkpt lat="46.2282809894532" lon="7.027242947369814"><ele></ele><time>2013-7-24T0:43:12Z</time></trkpt>
<trkpt lat="46.228080997243524" lon="7.027304973453283"><ele></ele><time>2013-7-24T0:43:15Z</time></trkpt>
<trkpt lat="46.22785493731499" lon="7.027469929307699"><ele></ele><time>2013-7-24T0:43:18Z</time></trkpt>
<trkpt lat="46.22770699672401" lon="7.027647960931063"><ele></ele><time>2013-7-24T0:43:21Z</time></trkpt>
<trkpt lat="46.22756391763687" lon="7.027823980897665"><ele></ele><time>2013-7-24T0:43:24Z</time></trkpt>
<trkpt lat="46.22738697566092" lon="7.027919953688979"><ele></ele><time>2013-7-24T0:43:27Z</time></trkpt>
<trkpt lat="46.227243980392814" lon="7.027991954237223"><ele></ele><time>2013-7-24T0:43:30Z</time></trkpt>
<trkpt lat="46.227137949317694" lon="7.028048951178789"><ele></ele><time>2013-7-24T0:43:33Z</time></trkpt>
<trkpt lat="46.22706695459783" lon="7.028087927028537"><ele></ele><time>2013-7-24T0:43:36Z</time></trkpt>
<trkpt lat="46.22696092352271" lon="7.02826495282352"><ele></ele><time>2013-7-24T0:43:39Z</time></trkpt>
<trkpt lat="46.22691297903657" lon="7.028404930606484"><ele></ele><time>2013-7-24T0:43:42Z</time></trkpt>
<trkpt lat="46.22682597488165" lon="7.028560917824507"><ele></ele><time>2013-7-24T0:43:45Z</time></trkpt>
<trkpt lat="46.226707957684994" lon="7.028724951669574"><ele></ele><time>2013-7-24T0:43:48Z</time></trkpt>
<trkpt lat="46.22652196325362" lon="7.028917986899614"><ele></ele><time>2013-7-24T0:43:51Z</time></trkpt>
<trkpt lat="46.22637192718685" lon="7.02908193692565"><ele></ele><time>2013-7-24T0:43:54Z</time></trkpt>
<trkpt lat="46.22618299908936" lon="7.029280923306942"><ele></ele><time>2013-7-24T0:43:57Z</time></trkpt>
<trkpt lat="46.22598694637418" lon="7.029509916901588"><ele></ele><time>2013-7-24T0:44:0Z</time></trkpt>
<trkpt lat="46.22590497136116" lon="7.029655929654837"><ele></ele><time>2013-7-24T0:44:3Z</time></trkpt>
<trkpt lat="46.225890973582864" lon="7.029679985716939"><ele></ele><time>2013-7-24T0:44:6Z</time></trkpt>
<trkpt lat="46.22571495361626" lon="7.029507989063859"><ele></ele><time>2013-7-24T0:44:9Z</time></trkpt>
<trkpt lat="46.22543298639357" lon="7.029189979657531"><ele></ele><time>2013-7-24T0:44:12Z</time></trkpt>
<trkpt lat="46.22534397058189" lon="7.029088977724314"><ele></ele><time>2013-7-24T0:44:15Z</time></trkpt>
<trkpt lat="46.22517993673682" lon="7.028902983292937"><ele></ele><time>2013-7-24T0:44:18Z</time></trkpt>
<trkpt lat="46.224864944815636" lon="7.028473997488618"><ele></ele><time>2013-7-24T0:44:21Z</time></trkpt>
<trkpt lat="46.224736953154206" lon="7.028164956718683"><ele></ele><time>2013-7-24T0:44:24Z</time></trkpt>
<trkpt lat="46.22470795176923" lon="7.0280959736555815"><ele></ele><time>2013-7-24T0:44:27Z</time></trkpt>
<trkpt lat="46.22465397231281" lon="7.027823980897665"><ele></ele><time>2013-7-24T0:44:30Z</time></trkpt>
<trkpt lat="46.22460996732116" lon="7.027627928182483"><ele></ele><time>2013-7-24T0:44:33Z</time></trkpt>
<trkpt lat="46.224520951509476" lon="7.027365993708372"><ele></ele><time>2013-7-24T0:44:36Z</time></trkpt>
<trkpt lat="46.22437695041299" lon="7.026855954900384"><ele></ele><time>2013-7-24T0:44:39Z</time></trkpt>
<trkpt lat="46.22427293099463" lon="7.026619920507073"><ele></ele><time>2013-7-24T0:44:42Z</time></trkpt>
<trkpt lat="46.22391393408179" lon="7.026343988254666"><ele></ele><time>2013-7-24T0:44:45Z</time></trkpt>
<trkpt lat="46.22376297600567" lon="7.0261609274894"><ele></ele><time>2013-7-24T0:44:48Z</time></trkpt>
<trkpt lat="46.2235579546541" lon="7.0258609391748905"><ele></ele><time>2013-7-24T0:44:51Z</time></trkpt>
<trkpt lat="46.223383946344256" lon="7.025529937818646"><ele></ele><time>2013-7-24T0:44:54Z</time></trkpt>
<trkpt lat="46.22322393581271" lon="7.025229949504137"><ele></ele><time>2013-7-24T0:44:57Z</time></trkpt>
<trkpt lat="46.22278992086649" lon="7.024874975904822"><ele></ele><time>2013-7-24T0:45:0Z</time></trkpt>
<trkpt lat="46.22255899943411" lon="7.024636929854751"><ele></ele><time>2013-7-24T0:45:3Z</time></trkpt>
<trkpt lat="46.22236294671893" lon="7.024384969845414"><ele></ele><time>2013-7-24T0:45:6Z</time></trkpt>
<trkpt lat="46.2223179358989" lon="7.0243339240550995"><ele></ele><time>2013-7-24T0:45:9Z</time></trkpt>
<trkpt lat="46.222154991701245" lon="7.024062937125564"><ele></ele><time>2013-7-24T0:45:12Z</time></trkpt>
<trkpt lat="46.22205197811127" lon="7.023745933547616"><ele></ele><time>2013-7-24T0:45:15Z</time></trkpt>
<trkpt lat="46.22195499949157" lon="7.023396994918585"><ele></ele><time>2013-7-24T0:45:18Z</time></trkpt>
<trkpt lat="46.22190395370126" lon="7.023123996332288"><ele></ele><time>2013-7-24T0:45:21Z</time></trkpt>
<trkpt lat="46.22170697897673" lon="7.022761981934309"><ele></ele><time>2013-7-24T0:45:24Z</time></trkpt>
<trkpt lat="46.221468932926655" lon="7.022370966151357"><ele></ele><time>2013-7-24T0:45:27Z</time></trkpt>
<trkpt lat="46.221402967348695" lon="7.022268958389759"><ele></ele><time>2013-7-24T0:45:30Z</time></trkpt>
<trkpt lat="46.22117296792567" lon="7.021834943443537"><ele></ele><time>2013-7-24T0:45:33Z</time></trkpt>
<trkpt lat="46.22106492519379" lon="7.021464966237545"><ele></ele><time>2013-7-24T0:45:36Z</time></trkpt>
<trkpt lat="46.220454974099994" lon="7.020624931901693"><ele></ele><time>2013-7-24T0:45:39Z</time></trkpt>
<trkpt lat="46.22022698633373" lon="7.020055968314409"><ele></ele><time>2013-7-24T0:45:42Z</time></trkpt>
<trkpt lat="46.2200469430536" lon="7.019749945029616"><ele></ele><time>2013-7-24T0:45:45Z</time></trkpt>
<trkpt lat="46.21984292753041" lon="7.019438976421952"><ele></ele><time>2013-7-24T0:45:48Z</time></trkpt>
<trkpt lat="46.2198019400239" lon="7.019345937296748"><ele></ele><time>2013-7-24T0:45:51Z</time></trkpt>
<trkpt lat="46.21971191838384" lon="7.019006973132491"><ele></ele><time>2013-7-24T0:45:54Z</time></trkpt>
<trkpt lat="46.21949398890138" lon="7.018684940412641"><ele></ele><time>2013-7-24T0:45:57Z</time></trkpt>
<trkpt lat="46.21928997337818" lon="7.018417976796627"><ele></ele><time>2013-7-24T0:46:0Z</time></trkpt>
<trkpt lat="46.219164999201894" lon="7.018348993733525"><ele></ele><time>2013-7-24T0:46:3Z</time></trkpt>
<trkpt lat="46.21897799894214" lon="7.018336923792958"><ele></ele><time>2013-7-24T0:46:6Z</time></trkpt>
<trkpt lat="46.21885294094682" lon="7.018346982076764"><ele></ele><time>2013-7-24T0:46:9Z</time></trkpt>
<trkpt lat="46.21879192069173" lon="7.018352933228016"><ele></ele><time>2013-7-24T0:46:12Z</time></trkpt>
<trkpt lat="46.21864699758589" lon="7.0183539390563965"><ele></ele><time>2013-7-24T0:46:15Z</time></trkpt>
<trkpt lat="46.21851992793381" lon="7.0183459762483835"><ele></ele><time>2013-7-24T0:46:18Z</time></trkpt>
<trkpt lat="46.218351954594254" lon="7.018281938508153"><ele></ele><time>2013-7-24T0:46:21Z</time></trkpt>
<trkpt lat="46.21822999790311" lon="7.018194934353232"><ele></ele><time>2013-7-24T0:46:24Z</time></trkpt>
<trkpt lat="46.218198984861374" lon="7.018152941018343"><ele></ele><time>2013-7-24T0:46:27Z</time></trkpt>
<trkpt lat="46.21812597848475" lon="7.018039952963591"><ele></ele><time>2013-7-24T0:46:30Z</time></trkpt>
<trkpt lat="46.21803897432983" lon="7.017899975180626"><ele></ele><time>2013-7-24T0:46:33Z</time></trkpt>
<trkpt lat="46.217940989881754" lon="7.0177369471639395"><ele></ele><time>2013-7-24T0:46:36Z</time></trkpt>
<trkpt lat="46.21788592077792" lon="7.017644997686148"><ele></ele><time>2013-7-24T0:46:39Z</time></trkpt>
<trkpt lat="46.217791959643364" lon="7.0174209494143724"><ele></ele><time>2013-7-24T0:46:42Z</time></trkpt>
<trkpt lat="46.21766799129546" lon="7.017195979133248"><ele></ele><time>2013-7-24T0:46:45Z</time></trkpt>
<trkpt lat="46.217560954391956" lon="7.017001938074827"><ele></ele><time>2013-7-24T0:46:48Z</time></trkpt>
<trkpt lat="46.21748493053019" lon="7.016867995262146"><ele></ele><time>2013-7-24T0:46:51Z</time></trkpt>
<trkpt lat="46.21741997078061" lon="7.016751989722252"><ele></ele><time>2013-7-24T0:46:54Z</time></trkpt>
<trkpt lat="46.217299941927195" lon="7.016539927572012"><ele></ele><time>2013-7-24T0:46:57Z</time></trkpt>
<trkpt lat="46.21719893999398" lon="7.016406990587711"><ele></ele><time>2013-7-24T0:47:0Z</time></trkpt>
<trkpt lat="46.21709994971752" lon="7.016238933429122"><ele></ele><time>2013-7-24T0:47:3Z</time></trkpt>
<trkpt lat="46.217023925855756" lon="7.016066936776042"><ele></ele><time>2013-7-24T0:47:6Z</time></trkpt>
<trkpt lat="46.21694999746978" lon="7.015920924022794"><ele></ele><time>2013-7-24T0:47:9Z</time></trkpt>
<trkpt lat="46.21687397360802" lon="7.015830986201763"><ele></ele><time>2013-7-24T0:47:12Z</time></trkpt>
<trkpt lat="46.21684396639466" lon="7.015800978988409"><ele></ele><time>2013-7-24T0:47:15Z</time></trkpt>
<trkpt lat="46.21677598915994" lon="7.015800978988409"><ele></ele><time>2013-7-24T0:47:18Z</time></trkpt>
<trkpt lat="46.21669292449951" lon="7.015836937353015"><ele></ele><time>2013-7-24T0:47:21Z</time></trkpt>
<trkpt lat="46.216589994728565" lon="7.015915978699923"><ele></ele><time>2013-7-24T0:47:24Z</time></trkpt>
<trkpt lat="46.21648798696697" lon="7.016090992838144"><ele></ele><time>2013-7-24T0:47:27Z</time></trkpt>
<trkpt lat="46.21640391647816" lon="7.016285955905914"><ele></ele><time>2013-7-24T0:47:30Z</time></trkpt>
<trkpt lat="46.216335939243436" lon="7.016429957002401"><ele></ele><time>2013-7-24T0:47:33Z</time></trkpt>
<trkpt lat="46.216270979493856" lon="7.016522996127605"><ele></ele><time>2013-7-24T0:47:36Z</time></trkpt>
<trkpt lat="46.21608599089086" lon="7.016554931178689"><ele></ele><time>2013-7-24T0:47:39Z</time></trkpt>
<trkpt lat="46.21595699340105" lon="7.016480918973684"><ele></ele><time>2013-7-24T0:47:42Z</time></trkpt>
<trkpt lat="46.21586596593261" lon="7.0163889694958925"><ele></ele><time>2013-7-24T0:47:45Z</time></trkpt>
<trkpt lat="46.2157229706645" lon="7.016241950914264"><ele></ele><time>2013-7-24T0:47:48Z</time></trkpt>
<trkpt lat="46.215624986216426" lon="7.0161389373242855"><ele></ele><time>2013-7-24T0:47:51Z</time></trkpt>
<trkpt lat="46.21550294570625" lon="7.016010945662856"><ele></ele><time>2013-7-24T0:47:54Z</time></trkpt>
<trkpt lat="46.215343941003084" lon="7.015853952616453"><ele></ele><time>2013-7-24T0:47:57Z</time></trkpt>
<trkpt lat="46.215196922421455" lon="7.015724955126643"><ele></ele><time>2013-7-24T0:48:0Z</time></trkpt>
<trkpt lat="46.215062979608774" lon="7.015606937929988"><ele></ele><time>2013-7-24T0:48:3Z</time></trkpt>
<trkpt lat="46.21492794714868" lon="7.015533931553364"><ele></ele><time>2013-7-24T0:48:6Z</time></trkpt>
<trkpt lat="46.21485494077206" lon="7.015493949875236"><ele></ele><time>2013-7-24T0:48:9Z</time></trkpt>
<trkpt lat="46.214740946888924" lon="7.0154789462685585"><ele></ele><time>2013-7-24T0:48:12Z</time></trkpt>
<trkpt lat="46.21449393220246" lon="7.0154639426618814"><ele></ele><time>2013-7-24T0:48:15Z</time></trkpt>
<trkpt lat="46.21425798162818" lon="7.015409963205457"><ele></ele><time>2013-7-24T0:48:18Z</time></trkpt>
<trkpt lat="46.21410895138979" lon="7.0153419859707355"><ele></ele><time>2013-7-24T0:48:21Z</time></trkpt>
<trkpt lat="46.2138959672302" lon="7.015104945749044"><ele></ele><time>2013-7-24T0:48:24Z</time></trkpt>
<trkpt lat="46.21377996169031" lon="7.014866983518004"><ele></ele><time>2013-7-24T0:48:27Z</time></trkpt>
<trkpt lat="46.21363596059382" lon="7.014903947710991"><ele></ele><time>2013-7-24T0:48:30Z</time></trkpt>
<trkpt lat="46.21348592452705" lon="7.014963962137699"><ele></ele><time>2013-7-24T0:48:33Z</time></trkpt>
<trkpt lat="46.21335399337113" lon="7.015009978786111"><ele></ele><time>2013-7-24T0:48:36Z</time></trkpt>
<trkpt lat="46.21325299143791" lon="7.015041997656226"><ele></ele><time>2013-7-24T0:48:39Z</time></trkpt>
<trkpt lat="46.21316598728299" lon="7.015069993212819"><ele></ele><time>2013-7-24T0:48:42Z</time></trkpt>
<trkpt lat="46.21306196786463" lon="7.015103939920664"><ele></ele><time>2013-7-24T0:48:45Z</time></trkpt>
<trkpt lat="46.21298996731639" lon="7.015126990154386"><ele></ele><time>2013-7-24T0:48:48Z</time></trkpt>
<trkpt lat="46.21288997121155" lon="7.015158925205469"><ele></ele><time>2013-7-24T0:48:51Z</time></trkpt>
<trkpt lat="46.21277094818652" lon="7.015258921310306"><ele></ele><time>2013-7-24T0:48:54Z</time></trkpt>
<trkpt lat="46.212720992043614" lon="7.015324970707297"><ele></ele><time>2013-7-24T0:48:57Z</time></trkpt>
<trkpt lat="46.21262191794813" lon="7.0153929479420185"><ele></ele><time>2013-7-24T0:49:0Z</time></trkpt>
<trkpt lat="46.21252099983394" lon="7.0153929479420185"><ele></ele><time>2013-7-24T0:49:3Z</time></trkpt>
<trkpt lat="46.212465930730104" lon="7.0153929479420185"><ele></ele><time>2013-7-24T0:49:6Z</time></trkpt>
<trkpt lat="46.2123919185251" lon="7.0153929479420185"><ele></ele><time>2013-7-24T0:49:9Z</time></trkpt>
<trkpt lat="46.21228898875415" lon="7.015365958213806"><ele></ele><time>2013-7-24T0:49:12Z</time></trkpt>
<trkpt lat="46.21219494380057" lon="7.0153299998492"><ele></ele><time>2013-7-24T0:49:15Z</time></trkpt>
<trkpt lat="46.212103916332126" lon="7.015294963493943"><ele></ele><time>2013-7-24T0:49:18Z</time></trkpt>
<trkpt lat="46.2119999807328" lon="7.015276942402124"><ele></ele><time>2013-7-24T0:49:21Z</time></trkpt>
<trkpt lat="46.211907947435975" lon="7.01526596210897"><ele></ele><time>2013-7-24T0:49:24Z</time></trkpt>
<trkpt lat="46.2118149921298" lon="7.015335951000452"><ele></ele><time>2013-7-24T0:49:27Z</time></trkpt>
<trkpt lat="46.21174592524767" lon="7.015490932390094"><ele></ele><time>2013-7-24T0:49:30Z</time></trkpt>
<trkpt lat="46.211777944117785" lon="7.01578295789659"><ele></ele><time>2013-7-24T0:49:33Z</time></trkpt>
<trkpt lat="46.21189193800092" lon="7.016048999503255"><ele></ele><time>2013-7-24T0:49:36Z</time></trkpt>
<trkpt lat="46.21197994798422" lon="7.01625494286418"><ele></ele><time>2013-7-24T0:49:39Z</time></trkpt>
<trkpt lat="46.21205396018922" lon="7.01642693951726"><ele></ele><time>2013-7-24T0:49:42Z</time></trkpt>
<trkpt lat="46.21215093880892" lon="7.016652999445796"><ele></ele><time>2013-7-24T0:49:45Z</time></trkpt>
<trkpt lat="46.21226292103529" lon="7.016913928091526"><ele></ele><time>2013-7-24T0:49:48Z</time></trkpt>
<trkpt lat="46.21233492158353" lon="7.017082991078496"><ele></ele><time>2013-7-24T0:49:51Z</time></trkpt>
<trkpt lat="46.212402982637286" lon="7.0172409899532795"><ele></ele><time>2013-7-24T0:49:54Z</time></trkpt>
<trkpt lat="46.21247196570039" lon="7.0173499546945095"><ele></ele><time>2013-7-24T0:49:57Z</time></trkpt>
<trkpt lat="46.21253692544997" lon="7.017453974112868"><ele></ele><time>2013-7-24T0:50:0Z</time></trkpt>
<trkpt lat="46.21262694709003" lon="7.017596969380975"><ele></ele><time>2013-7-24T0:50:3Z</time></trkpt>
<trkpt lat="46.212702970951796" lon="7.017704928293824"><ele></ele><time>2013-7-24T0:50:6Z</time></trkpt>
<trkpt lat="46.21273498982191" lon="7.017750944942236"><ele></ele><time>2013-7-24T0:50:9Z</time></trkpt>
<trkpt lat="46.212849989533424" lon="7.017928976565599"><ele></ele><time>2013-7-24T0:50:12Z</time></trkpt>
<trkpt lat="46.21292693540454" lon="7.018073983490467"><ele></ele><time>2013-7-24T0:50:15Z</time></trkpt>
<trkpt lat="46.21297194622457" lon="7.018268946558237"><ele></ele><time>2013-7-24T0:50:18Z</time></trkpt>
<trkpt lat="46.212959960103035" lon="7.01846893876791"><ele></ele><time>2013-7-24T0:50:21Z</time></trkpt>
<trkpt lat="46.21296398341656" lon="7.018563989549875"><ele></ele><time>2013-7-24T0:50:24Z</time></trkpt>
<trkpt lat="46.21288695372641" lon="7.018738919869065"><ele></ele><time>2013-7-24T0:50:27Z</time></trkpt>
<trkpt lat="46.21286398731172" lon="7.018771944567561"><ele></ele><time>2013-7-24T0:50:30Z</time></trkpt>
<trkpt lat="46.21281595900655" lon="7.018839921802282"><ele></ele><time>2013-7-24T0:50:33Z</time></trkpt>
<trkpt lat="46.21287094429135" lon="7.0188959967345"><ele></ele><time>2013-7-24T0:50:36Z</time></trkpt>
<trkpt lat="46.21296892873943" lon="7.018886944279075"><ele></ele><time>2013-7-24T0:50:39Z</time></trkpt>
<trkpt lat="46.21303799562156" lon="7.018858948722482"><ele></ele><time>2013-7-24T0:50:42Z</time></trkpt>
<trkpt lat="46.21314394287765" lon="7.018745960667729"><ele></ele><time>2013-7-24T0:50:45Z</time></trkpt>
<trkpt lat="46.213195994496346" lon="7.018578993156552"><ele></ele><time>2013-7-24T0:50:48Z</time></trkpt>
<trkpt lat="46.213239999487996" lon="7.018444966524839"><ele></ele><time>2013-7-24T0:50:51Z</time></trkpt>
<trkpt lat="46.21329791843891" lon="7.018329966813326"><ele></ele><time>2013-7-24T0:50:54Z</time></trkpt>
<trkpt lat="46.21331694535911" lon="7.0183399412781"><ele></ele><time>2013-7-24T0:50:57Z</time></trkpt>
<trkpt lat="46.213409984484315" lon="7.018332984298468"><ele></ele><time>2013-7-24T0:51:0Z</time></trkpt>
<trkpt lat="46.213538981974125" lon="7.018499951809645"><ele></ele><time>2013-7-24T0:51:3Z</time></trkpt>
<trkpt lat="46.21367795392871" lon="7.018724922090769"><ele></ele><time>2013-7-24T0:51:6Z</time></trkpt>
<trkpt lat="46.21398498304188" lon="7.018982917070389"><ele></ele><time>2013-7-24T0:51:9Z</time></trkpt>
<trkpt lat="46.214247923344374" lon="7.019163966178894"><ele></ele><time>2013-7-24T0:51:12Z</time></trkpt>
<trkpt lat="46.214507929980755" lon="7.0193929597735405"><ele></ele><time>2013-7-24T0:51:15Z</time></trkpt>
<trkpt lat="46.214592922478914" lon="7.0194559916853905"><ele></ele><time>2013-7-24T0:51:18Z</time></trkpt>
<trkpt lat="46.214590994641185" lon="7.019437970593572"><ele></ele><time>2013-7-24T0:51:21Z</time></trkpt>
<trkpt lat="46.21447599492967" lon="7.019380973652005"><ele></ele><time>2013-7-24T0:51:24Z</time></trkpt>
<trkpt lat="46.21431799605489" lon="7.019232949241996"><ele></ele><time>2013-7-24T0:51:27Z</time></trkpt>
<trkpt lat="46.21411196887493" lon="7.01909095980227"><ele></ele><time>2013-7-24T0:51:30Z</time></trkpt>
<trkpt lat="46.21393997222185" lon="7.018959950655699"><ele></ele><time>2013-7-24T0:51:33Z</time></trkpt>
<trkpt lat="46.21389496140182" lon="7.018932960927486"><ele></ele><time>2013-7-24T0:51:36Z</time></trkpt>
<trkpt lat="46.21387694031" lon="7.018974954262376"><ele></ele><time>2013-7-24T0:51:39Z</time></trkpt>
<trkpt lat="46.21398598887026" lon="7.018897924572229"><ele></ele><time>2013-7-24T0:51:42Z</time></trkpt>
<trkpt lat="46.2141689658165" lon="7.018799940124154"><ele></ele><time>2013-7-24T0:51:45Z</time></trkpt>
<trkpt lat="46.214291928336024" lon="7.018698938190937"><ele></ele><time>2013-7-24T0:51:48Z</time></trkpt>
<trkpt lat="46.21431992389262" lon="7.018631966784596"><ele></ele><time>2013-7-24T0:51:51Z</time></trkpt>
<trkpt lat="46.21432897634804" lon="7.018521996214986"><ele></ele><time>2013-7-24T0:51:54Z</time></trkpt>
<trkpt lat="46.21430299244821" lon="7.018549991771579"><ele></ele><time>2013-7-24T0:51:57Z</time></trkpt>
<trkpt lat="46.21429595164955" lon="7.018575975671411"><ele></ele><time>2013-7-24T0:52:0Z</time></trkpt>
<trkpt lat="46.21427591890097" lon="7.018632972612977"><ele></ele><time>2013-7-24T0:52:3Z</time></trkpt>
<trkpt lat="46.21436493471265" lon="7.018679995089769"><ele></ele><time>2013-7-24T0:52:6Z</time></trkpt>
<trkpt lat="46.214378932490945" lon="7.018713941797614"><ele></ele><time>2013-7-24T0:52:9Z</time></trkpt>
<trkpt lat="46.21440793387592" lon="7.0187909714877605"><ele></ele><time>2013-7-24T0:52:12Z</time></trkpt>
<trkpt lat="46.21424197219312" lon="7.0188999362289906"><ele></ele><time>2013-7-24T0:52:15Z</time></trkpt>
<trkpt lat="46.213970985263586" lon="7.018913934007287"><ele></ele><time>2013-7-24T0:52:18Z</time></trkpt>
<trkpt lat="46.21392094530165" lon="7.0188819989562035"><ele></ele><time>2013-7-24T0:52:21Z</time></trkpt>
<trkpt lat="46.21374794282019" lon="7.018699944019318"><ele></ele><time>2013-7-24T0:52:24Z</time></trkpt>
<trkpt lat="46.21365197002888" lon="7.018514955416322"><ele></ele><time>2013-7-24T0:52:27Z</time></trkpt>
<trkpt lat="46.2135539855808" lon="7.0183969382196665"><ele></ele><time>2013-7-24T0:52:30Z</time></trkpt>
<trkpt lat="46.21346899308264" lon="7.018364919349551"><ele></ele><time>2013-7-24T0:52:33Z</time></trkpt>
<trkpt lat="46.21337394230068" lon="7.01842593960464"><ele></ele><time>2013-7-24T0:52:36Z</time></trkpt>
<trkpt lat="46.213235976174474" lon="7.018594918772578"><ele></ele><time>2013-7-24T0:52:39Z</time></trkpt>
<trkpt lat="46.21316196396947" lon="7.018733974546194"><ele></ele><time>2013-7-24T0:52:42Z</time></trkpt>
<trkpt lat="46.21295099146664" lon="7.01885593123734"><ele></ele><time>2013-7-24T0:52:45Z</time></trkpt>
<trkpt lat="46.21268796734512" lon="7.018859954550862"><ele></ele><time>2013-7-24T0:52:48Z</time></trkpt>
<trkpt lat="46.2126059923321" lon="7.018864983692765"><ele></ele><time>2013-7-24T0:52:51Z</time></trkpt>
<trkpt lat="46.212464924901724" lon="7.018853919580579"><ele></ele><time>2013-7-24T0:52:54Z</time></trkpt>
<trkpt lat="46.212362917140126" lon="7.01878996565938"><ele></ele><time>2013-7-24T0:52:57Z</time></trkpt>
<trkpt lat="46.21225495822728" lon="7.018734980374575"><ele></ele><time>2013-7-24T0:53:0Z</time></trkpt>
<trkpt lat="46.21219997294247" lon="7.018698938190937"><ele></ele><time>2013-7-24T0:53:3Z</time></trkpt>
<trkpt lat="46.212117997929454" lon="7.018610928207636"><ele></ele><time>2013-7-24T0:53:6Z</time></trkpt>
<trkpt lat="46.21202898211777" lon="7.018501963466406"><ele></ele><time>2013-7-24T0:53:9Z</time></trkpt>
<trkpt lat="46.211932925507426" lon="7.018391992896795"><ele></ele><time>2013-7-24T0:53:12Z</time></trkpt>
<trkpt lat="46.211821949109435" lon="7.0184399373829365"><ele></ele><time>2013-7-24T0:53:15Z</time></trkpt>
<trkpt lat="46.21172497048974" lon="7.0183689426630735"><ele></ele><time>2013-7-24T0:53:18Z</time></trkpt>
<trkpt lat="46.211649952456355" lon="7.018322926014662"><ele></ele><time>2013-7-24T0:53:21Z</time></trkpt>
<trkpt lat="46.211581975221634" lon="7.018280932679772"><ele></ele><time>2013-7-24T0:53:24Z</time></trkpt>
<trkpt lat="46.211501928046346" lon="7.018231982365251"><ele></ele><time>2013-7-24T0:53:27Z</time></trkpt>
<trkpt lat="46.21146194636822" lon="7.018207926303148"><ele></ele><time>2013-7-24T0:53:30Z</time></trkpt>
<trkpt lat="46.21139497496188" lon="7.018165932968259"><ele></ele><time>2013-7-24T0:53:33Z</time></trkpt>
<trkpt lat="46.21133697219193" lon="7.018131986260414"><ele></ele><time>2013-7-24T0:53:36Z</time></trkpt>
<trkpt lat="46.21124695055187" lon="7.018083957955241"><ele></ele><time>2013-7-24T0:53:39Z</time></trkpt>
<trkpt lat="46.21116698719561" lon="7.018039952963591"><ele></ele><time>2013-7-24T0:53:42Z</time></trkpt>
<trkpt lat="46.21112499386072" lon="7.018016986548901"><ele></ele><time>2013-7-24T0:53:45Z</time></trkpt>
<trkpt lat="46.21110596694052" lon="7.018006928265095"><ele></ele><time>2013-7-24T0:53:48Z</time></trkpt>
<trkpt lat="46.2110189627856" lon="7.017959989607334"><ele></ele><time>2013-7-24T0:53:51Z</time></trkpt>
<trkpt lat="46.21091293171048" lon="7.017901986837387"><ele></ele><time>2013-7-24T0:53:54Z</time></trkpt>
<trkpt lat="46.21085291728377" lon="7.017869967967272"><ele></ele><time>2013-7-24T0:53:57Z</time></trkpt>
<trkpt lat="46.210748981684446" lon="7.017807941883802"><ele></ele><time>2013-7-24T0:54:0Z</time></trkpt>
<trkpt lat="46.21065594255924" lon="7.017732923850417"><ele></ele><time>2013-7-24T0:54:3Z</time></trkpt>
<trkpt lat="46.210599951446056" lon="7.017683973535895"><ele></ele><time>2013-7-24T0:54:6Z</time></trkpt>
<trkpt lat="46.2105199880898" lon="7.017594957724214"><ele></ele><time>2013-7-24T0:54:9Z</time></trkpt>
<trkpt lat="46.210450921207666" lon="7.0174989849328995"><ele></ele><time>2013-7-24T0:54:12Z</time></trkpt>
<trkpt lat="46.2103799264878" lon="7.017398988828063"><ele></ele><time>2013-7-24T0:54:15Z</time></trkpt>
<trkpt lat="46.21031194925308" lon="7.017303938046098"><ele></ele><time>2013-7-24T0:54:18Z</time></trkpt>
<trkpt lat="46.21025696396828" lon="7.0172289200127125"><ele></ele><time>2013-7-24T0:54:21Z</time></trkpt>
<trkpt lat="46.21021899394691" lon="7.017176952213049"><ele></ele><time>2013-7-24T0:54:24Z</time></trkpt>
<trkpt lat="46.210126960650086" lon="7.017041919752955"><ele></ele><time>2013-7-24T0:54:27Z</time></trkpt>
<trkpt lat="46.2100849673152" lon="7.016977965831757"><ele></ele><time>2013-7-24T0:54:30Z</time></trkpt>
<trkpt lat="46.210039956495166" lon="7.016907976940274"><ele></ele><time>2013-7-24T0:54:33Z</time></trkpt>
<trkpt lat="46.2099829595536" lon="7.016820972785354"><ele></ele><time>2013-7-24T0:54:36Z</time></trkpt>
<trkpt lat="46.20992193929851" lon="7.01672793366015"><ele></ele><time>2013-7-24T0:54:39Z</time></trkpt>
<trkpt lat="46.20986393652856" lon="7.016638917848468"><ele></ele><time>2013-7-24T0:54:42Z</time></trkpt>
<trkpt lat="46.20977492071688" lon="7.016597930341959"><ele></ele><time>2013-7-24T0:54:45Z</time></trkpt>
<trkpt lat="46.209693951532245" lon="7.01657697558403"><ele></ele><time>2013-7-24T0:54:48Z</time></trkpt>
<trkpt lat="46.209609964862466" lon="7.01655593700707"><ele></ele><time>2013-7-24T0:54:51Z</time></trkpt>
<trkpt lat="46.20951793156564" lon="7.016546968370676"><ele></ele><time>2013-7-24T0:54:54Z</time></trkpt>
<trkpt lat="46.20942095294595" lon="7.0165409334003925"><ele></ele><time>2013-7-24T0:54:57Z</time></trkpt>
<trkpt lat="46.20933797210455" lon="7.016535988077521"><ele></ele><time>2013-7-24T0:55:0Z</time></trkpt>
<trkpt lat="46.2092249840498" lon="7.01653397642076"><ele></ele><time>2013-7-24T0:55:3Z</time></trkpt>
<trkpt lat="46.20921492576599" lon="7.016534982249141"><ele></ele><time>2013-7-24T0:55:6Z</time></trkpt>
<trkpt lat="46.209200927987695" lon="7.0165379997342825"><ele></ele><time>2013-7-24T0:55:9Z</time></trkpt>
<trkpt lat="46.20849693194032" lon="7.017044937238097"><ele></ele><time>2013-7-24T0:55:12Z</time></trkpt>
<trkpt lat="46.209115935489535" lon="7.016551997512579"><ele></ele><time>2013-7-24T0:55:15Z</time></trkpt>
<trkpt lat="46.2090019416064" lon="7.016570940613747"><ele></ele><time>2013-7-24T0:55:18Z</time></trkpt>
<trkpt lat="46.20888895355165" lon="7.016600947827101"><ele></ele><time>2013-7-24T0:55:21Z</time></trkpt>
<trkpt lat="46.208769930526614" lon="7.016632966697216"><ele></ele><time>2013-7-24T0:55:24Z</time></trkpt>
<trkpt lat="46.208637999370694" lon="7.016733968630433"><ele></ele><time>2013-7-24T0:55:27Z</time></trkpt>
<trkpt lat="46.20860698632896" lon="7.016774956136942"><ele></ele><time>2013-7-24T0:55:30Z</time></trkpt>
<trkpt lat="46.208554934710264" lon="7.0168619602918625"><ele></ele><time>2013-7-24T0:55:33Z</time></trkpt>
<trkpt lat="46.208532974123955" lon="7.016897918656468"><ele></ele><time>2013-7-24T0:55:36Z</time></trkpt>
<trkpt lat="46.20849693194032" lon="7.017021970823407"><ele></ele><time>2013-7-24T0:55:39Z</time></trkpt>
<trkpt lat="46.20849693194032" lon="7.017044937238097"><ele></ele><time>2013-7-24T0:55:42Z</time></trkpt>
<trkpt lat="46.20849693194032" lon="7.017044937238097"><ele></ele><time>2013-7-24T0:55:45Z</time></trkpt>
<trkpt lat="46.20849693194032" lon="7.017044937238097"><ele></ele><time>2013-7-24T0:55:48Z</time></trkpt>
<trkpt lat="46.208381932228804" lon="7.01728499494493"><ele></ele><time>2013-7-24T0:55:51Z</time></trkpt>
<trkpt lat="46.208405988290906" lon="7.017226992174983"><ele></ele><time>2013-7-24T0:55:54Z</time></trkpt>
<trkpt lat="46.20843197219074" lon="7.017174940556288"><ele></ele><time>2013-7-24T0:55:57Z</time></trkpt>
<trkpt lat="46.20849399827421" lon="7.0170489605516195"><ele></ele><time>2013-7-24T0:56:0Z</time></trkpt>
<trkpt lat="46.20849693194032" lon="7.017044937238097"><ele></ele><time>2013-7-24T0:56:3Z</time></trkpt>
<trkpt lat="46.20878292247653" lon="7.016628943383694"><ele></ele><time>2013-7-24T0:56:6Z</time></trkpt>
<trkpt lat="46.209072936326265" lon="7.016558954492211"><ele></ele><time>2013-7-24T0:56:9Z</time></trkpt>
<trkpt lat="46.20929991826415" lon="7.01653297059238"><ele></ele><time>2013-7-24T0:56:12Z</time></trkpt>
<trkpt lat="46.20978699065745" lon="7.016600947827101"><ele></ele><time>2013-7-24T0:56:15Z</time></trkpt>
<trkpt lat="46.20987491682172" lon="7.016655933111906"><ele></ele><time>2013-7-24T0:56:18Z</time></trkpt>
<trkpt lat="46.21009795926511" lon="7.016997998580337"><ele></ele><time>2013-7-24T0:56:21Z</time></trkpt>
<trkpt lat="46.21017498895526" lon="7.017116937786341"><ele></ele><time>2013-7-24T0:56:24Z</time></trkpt>
<trkpt lat="46.21019795536995" lon="7.017147950828075"><ele></ele><time>2013-7-24T0:56:27Z</time></trkpt>
<trkpt lat="46.210298957303166" lon="7.017285916954279"><ele></ele><time>2013-7-24T0:56:30Z</time></trkpt>
<trkpt lat="46.210341956466436" lon="7.017345931380987"><ele></ele><time>2013-7-24T0:56:33Z</time></trkpt>
<trkpt lat="46.21069693006575" lon="7.017768966034055"><ele></ele><time>2013-7-24T0:56:36Z</time></trkpt>
<trkpt lat="46.21119095943868" lon="7.0180529449135065"><ele></ele><time>2013-7-24T0:56:39Z</time></trkpt>
<trkpt lat="46.21193996630609" lon="7.018413953483105"><ele></ele><time>2013-7-24T0:56:42Z</time></trkpt>
<trkpt lat="46.21247892268002" lon="7.018813937902451"><ele></ele><time>2013-7-24T0:56:45Z</time></trkpt>
<trkpt lat="46.212840937078" lon="7.018843945115805"><ele></ele><time>2013-7-24T0:56:48Z</time></trkpt>
<trkpt lat="46.213044952601194" lon="7.018641941249371"><ele></ele><time>2013-7-24T0:56:51Z</time></trkpt>
<trkpt lat="46.213153917342424" lon="7.018351927399635"><ele></ele><time>2013-7-24T0:56:54Z</time></trkpt>
<trkpt lat="46.213069930672646" lon="7.017914978787303"><ele></ele><time>2013-7-24T0:56:57Z</time></trkpt>
<trkpt lat="46.21284294873476" lon="7.017918918281794"><ele></ele><time>2013-7-24T0:57:0Z</time></trkpt>
<trkpt lat="46.21274194680154" lon="7.01776091940701"><ele></ele><time>2013-7-24T0:57:3Z</time></trkpt>
<trkpt lat="46.21224892325699" lon="7.0168819930404425"><ele></ele><time>2013-7-24T0:57:6Z</time></trkpt>
<trkpt lat="46.21194097213447" lon="7.016162993386388"><ele></ele><time>2013-7-24T0:57:9Z</time></trkpt>
<trkpt lat="46.21174693107605" lon="7.0156279765069485"><ele></ele><time>2013-7-24T0:57:12Z</time></trkpt>
<trkpt lat="46.211926974356174" lon="7.015268979594111"><ele></ele><time>2013-7-24T0:57:15Z</time></trkpt>
<trkpt lat="46.21215596795082" lon="7.015314996242523"><ele></ele><time>2013-7-24T0:57:18Z</time></trkpt>
<trkpt lat="46.212400970980525" lon="7.0153929479420185"><ele></ele><time>2013-7-24T0:57:21Z</time></trkpt>
<trkpt lat="46.212917966768146" lon="7.015149956569076"><ele></ele><time>2013-7-24T0:57:24Z</time></trkpt>
<trkpt lat="46.21378499083221" lon="7.014851979911327"><ele></ele><time>2013-7-24T0:57:27Z</time></trkpt>
<trkpt lat="46.21455696411431" lon="7.014526929706335"><ele></ele><time>2013-7-24T0:57:30Z</time></trkpt>
<trkpt lat="46.214762991294265" lon="7.0142959244549274"><ele></ele><time>2013-7-24T0:57:33Z</time></trkpt>
<trkpt lat="46.214783946052194" lon="7.01406198553741"><ele></ele><time>2013-7-24T0:57:36Z</time></trkpt>
<trkpt lat="46.21470792219043" lon="7.013844978064299"><ele></ele><time>2013-7-24T0:57:39Z</time></trkpt>
<trkpt lat="46.214504996314645" lon="7.013630988076329"><ele></ele><time>2013-7-24T0:57:42Z</time></trkpt>
<trkpt lat="46.214373987168074" lon="7.013536943122745"><ele></ele><time>2013-7-24T0:57:45Z</time></trkpt>
<trkpt lat="46.21386696584523" lon="7.01344097033143"><ele></ele><time>2013-7-24T0:57:48Z</time></trkpt>
<trkpt lat="46.21341794729233" lon="7.013467960059643"><ele></ele><time>2013-7-24T0:57:51Z</time></trkpt>
<trkpt lat="46.21329297311604" lon="7.013454968109727"><ele></ele><time>2013-7-24T0:57:54Z</time></trkpt>
<trkpt lat="46.212915955111384" lon="7.013534931465983"><ele></ele><time>2013-7-24T0:57:57Z</time></trkpt>
<trkpt lat="46.21258998289704" lon="7.013919996097684"><ele></ele><time>2013-7-24T0:58:0Z</time></trkpt>
<trkpt lat="46.21223794296384" lon="7.01410498470068"><ele></ele><time>2013-7-24T0:58:3Z</time></trkpt>
<trkpt lat="46.21210793964565" lon="7.014098949730396"><ele></ele><time>2013-7-24T0:58:6Z</time></trkpt>
<trkpt lat="46.2113419175148" lon="7.014004988595843"><ele></ele><time>2013-7-24T0:58:9Z</time></trkpt>
<trkpt lat="46.21078292839229" lon="7.0143029652535915"><ele></ele><time>2013-7-24T0:58:12Z</time></trkpt>
<trkpt lat="46.21064496226609" lon="7.014359962195158"><ele></ele><time>2013-7-24T0:58:15Z</time></trkpt>
<trkpt lat="46.21022494509816" lon="7.014469932764769"><ele></ele><time>2013-7-24T0:58:18Z</time></trkpt>
<trkpt lat="46.20981398038566" lon="7.014412935823202"><ele></ele><time>2013-7-24T0:58:21Z</time></trkpt>
<trkpt lat="46.20961499400437" lon="7.014245968312025"><ele></ele><time>2013-7-24T0:58:24Z</time></trkpt>
<trkpt lat="46.20953796431422" lon="7.0140659250319"><ele></ele><time>2013-7-24T0:58:27Z</time></trkpt>
<trkpt lat="46.209547938779" lon="7.014126945286989"><ele></ele><time>2013-7-24T0:58:30Z</time></trkpt>
<trkpt lat="46.20931198820472" lon="7.014121999964118"><ele></ele><time>2013-7-24T0:58:33Z</time></trkpt>
<trkpt lat="46.20901199989021" lon="7.014294918626547"><ele></ele><time>2013-7-24T0:58:36Z</time></trkpt>
<trkpt lat="46.208488969132304" lon="7.014606976881623"><ele></ele><time>2013-7-24T0:58:39Z</time></trkpt>
<trkpt lat="46.20793794281781" lon="7.014991957694292"><ele></ele><time>2013-7-24T0:58:42Z</time></trkpt>
<trkpt lat="46.20753795839846" lon="7.015271997079253"><ele></ele><time>2013-7-24T0:58:45Z</time></trkpt>
<trkpt lat="46.207134956493974" lon="7.015538960695267"><ele></ele><time>2013-7-24T0:58:48Z</time></trkpt>
<trkpt lat="46.20672198012471" lon="7.01578195206821"><ele></ele><time>2013-7-24T0:58:51Z</time></trkpt>
<trkpt lat="46.206214958801866" lon="7.01610297895968"><ele></ele><time>2013-7-24T0:58:54Z</time></trkpt>
<trkpt lat="46.205937936902046" lon="7.016283944249153"><ele></ele><time>2013-7-24T0:58:57Z</time></trkpt>
<trkpt lat="46.20553191751242" lon="7.016563983634114"><ele></ele><time>2013-7-24T0:59:0Z</time></trkpt>
<trkpt lat="46.20549093000591" lon="7.016587955877185"><ele></ele><time>2013-7-24T0:59:3Z</time></trkpt>
<trkpt lat="46.20522195473313" lon="7.017022976651788"><ele></ele><time>2013-7-24T0:59:6Z</time></trkpt>
<trkpt lat="46.205116929486394" lon="7.017453974112868"><ele></ele><time>2013-7-24T0:59:9Z</time></trkpt>
<trkpt lat="46.20501299388707" lon="7.017875919118524"><ele></ele><time>2013-7-24T0:59:12Z</time></trkpt>
<trkpt lat="46.20479196310043" lon="7.018195940181613"><ele></ele><time>2013-7-24T0:59:15Z</time></trkpt>
<trkpt lat="46.20453296229243" lon="7.018398949876428"><ele></ele><time>2013-7-24T0:59:18Z</time></trkpt>
<trkpt lat="46.20428494177759" lon="7.018621992319822"><ele></ele><time>2013-7-24T0:59:21Z</time></trkpt>
<trkpt lat="46.20407598093152" lon="7.01885593123734"><ele></ele><time>2013-7-24T0:59:24Z</time></trkpt>
<trkpt lat="46.20379191823304" lon="7.019224986433983"><ele></ele><time>2013-7-24T0:59:27Z</time></trkpt>
<trkpt lat="46.203546999022365" lon="7.0195299200713634"><ele></ele><time>2013-7-24T0:59:30Z</time></trkpt>
<trkpt lat="46.203330997377634" lon="7.0196709875017405"><ele></ele><time>2013-7-24T0:59:33Z</time></trkpt>
<trkpt lat="46.20304198935628" lon="7.01984197832644"><ele></ele><time>2013-7-24T0:59:36Z</time></trkpt>
<trkpt lat="46.20278893969953" lon="7.020005928352475"><ele></ele><time>2013-7-24T0:59:39Z</time></trkpt>
<trkpt lat="46.20252893306315" lon="7.020255960524082"><ele></ele><time>2013-7-24T0:59:42Z</time></trkpt>
<trkpt lat="46.20231192559004" lon="7.020501969382167"><ele></ele><time>2013-7-24T0:59:45Z</time></trkpt>
<trkpt lat="46.202087961137295" lon="7.020781924948096"><ele></ele><time>2013-7-24T0:59:48Z</time></trkpt>
<trkpt lat="46.20191294699907" lon="7.020981917157769"><ele></ele><time>2013-7-24T0:59:51Z</time></trkpt>
<trkpt lat="46.20177598670125" lon="7.0211349707096815"><ele></ele><time>2013-7-24T0:59:54Z</time></trkpt>
<trkpt lat="46.201632991433144" lon="7.021293975412846"><ele></ele><time>2013-7-24T0:59:57Z</time></trkpt>
<trkpt lat="46.20145797729492" lon="7.021488938480616"><ele></ele><time>2013-7-24T1:0:0Z</time></trkpt>
<trkpt lat="46.20121699757874" lon="7.021765960380435"><ele></ele><time>2013-7-24T1:0:3Z</time></trkpt>
<trkpt lat="46.201011976227164" lon="7.0220179203897715"><ele></ele><time>2013-7-24T1:0:6Z</time></trkpt>
<trkpt lat="46.20079396292567" lon="7.022286979481578"><ele></ele><time>2013-7-24T1:0:9Z</time></trkpt>
<trkpt lat="46.200648956000805" lon="7.02250893227756"><ele></ele><time>2013-7-24T1:0:12Z</time></trkpt>
<trkpt lat="46.20049397461116" lon="7.022782936692238"><ele></ele><time>2013-7-24T1:0:15Z</time></trkpt>
<trkpt lat="46.20040797628462" lon="7.022967925295234"><ele></ele><time>2013-7-24T1:0:18Z</time></trkpt>
<trkpt lat="46.20033396407962" lon="7.023158948868513"><ele></ele><time>2013-7-24T1:0:21Z</time></trkpt>
<trkpt lat="46.200280990451574" lon="7.023320971056819"><ele></ele><time>2013-7-24T1:0:24Z</time></trkpt>
<trkpt lat="46.20022298768163" lon="7.023638980463147"><ele></ele><time>2013-7-24T1:0:27Z</time></trkpt>
<trkpt lat="46.200177976861596" lon="7.0239039324223995"><ele></ele><time>2013-7-24T1:0:30Z</time></trkpt>
<trkpt lat="46.200071945786476" lon="7.024088921025395"><ele></ele><time>2013-7-24T1:0:33Z</time></trkpt>
<trkpt lat="46.199915958568454" lon="7.024315986782312"><ele></ele><time>2013-7-24T1:0:36Z</time></trkpt>
<trkpt lat="46.19978595525026" lon="7.024509944021702"><ele></ele><time>2013-7-24T1:0:39Z</time></trkpt>
<trkpt lat="46.199658969417214" lon="7.024728963151574"><ele></ele><time>2013-7-24T1:0:42Z</time></trkpt>
<trkpt lat="46.199530977755785" lon="7.024961980059743"><ele></ele><time>2013-7-24T1:0:45Z</time></trkpt>
<trkpt lat="46.19939192198217" lon="7.025213940069079"><ele></ele><time>2013-7-24T1:0:48Z</time></trkpt>
<trkpt lat="46.19924096390605" lon="7.025434970855713"><ele></ele><time>2013-7-24T1:0:51Z</time></trkpt>
<trkpt lat="46.199122946709394" lon="7.02560193836689"><ele></ele><time>2013-7-24T1:0:54Z</time></trkpt>
<trkpt lat="46.198949944227934" lon="7.025775946676731"><ele></ele><time>2013-7-24T1:0:57Z</time></trkpt>
<trkpt lat="46.1987669672817" lon="7.025958923622966"><ele></ele><time>2013-7-24T1:1:0Z</time></trkpt>
<trkpt lat="46.19861994870007" lon="7.026105942204595"><ele></ele><time>2013-7-24T1:1:3Z</time></trkpt>
<trkpt lat="46.19835692457855" lon="7.026278944686055"><ele></ele><time>2013-7-24T1:1:6Z</time></trkpt>
<trkpt lat="46.1981419287622" lon="7.026414982974529"><ele></ele><time>2013-7-24T1:1:9Z</time></trkpt>
<trkpt lat="46.19799893349409" lon="7.026586979627609"><ele></ele><time>2013-7-24T1:1:12Z</time></trkpt>
<trkpt lat="46.197880916297436" lon="7.0267279632389545"><ele></ele><time>2013-7-24T1:1:15Z</time></trkpt>
<trkpt lat="46.197831965982914" lon="7.026786971837282"><ele></ele><time>2013-7-24T1:1:18Z</time></trkpt>
<trkpt lat="46.19771998375654" lon="7.026853943243623"><ele></ele><time>2013-7-24T1:1:21Z</time></trkpt>
<trkpt lat="46.19762996211648" lon="7.0269079227000475"><ele></ele><time>2013-7-24T1:1:24Z</time></trkpt>
<trkpt lat="46.197618981823325" lon="7.026914963498712"><ele></ele><time>2013-7-24T1:1:27Z</time></trkpt>
<trkpt lat="46.197535917162895" lon="7.026963997632265"><ele></ele><time>2013-7-24T1:1:30Z</time></trkpt>
<trkpt lat="46.197426952421665" lon="7.027029963210225"><ele></ele><time>2013-7-24T1:1:33Z</time></trkpt>
<trkpt lat="46.197321927174926" lon="7.027092995122075"><ele></ele><time>2013-7-24T1:1:36Z</time></trkpt>
<trkpt lat="46.19718194939196" lon="7.027176981791854"><ele></ele><time>2013-7-24T1:1:39Z</time></trkpt>
<trkpt lat="46.19705094024539" lon="7.027246970683336"><ele></ele><time>2013-7-24T1:1:42Z</time></trkpt>
<trkpt lat="46.19690492749214" lon="7.027293993160129"><ele></ele><time>2013-7-24T1:1:45Z</time></trkpt>
<trkpt lat="46.19681398384273" lon="7.027322994545102"><ele></ele><time>2013-7-24T1:1:48Z</time></trkpt>
<trkpt lat="46.19672295637429" lon="7.027351995930076"><ele></ele><time>2013-7-24T1:1:51Z</time></trkpt>
<trkpt lat="46.19659597054124" lon="7.027391977608204"><ele></ele><time>2013-7-24T1:1:54Z</time></trkpt>
<trkpt lat="46.19649295695126" lon="7.027424918487668"><ele></ele><time>2013-7-24T1:1:57Z</time></trkpt>
<trkpt lat="46.19636697694659" lon="7.027464983984828"><ele></ele><time>2013-7-24T1:2:0Z</time></trkpt>
<trkpt lat="46.19625197723508" lon="7.0275019481778145"><ele></ele><time>2013-7-24T1:2:3Z</time></trkpt>
<trkpt lat="46.196135971695185" lon="7.027538996189833"><ele></ele><time>2013-7-24T1:2:6Z</time></trkpt>
<trkpt lat="46.19602197781205" lon="7.027575960382819"><ele></ele><time>2013-7-24T1:2:9Z</time></trkpt>
<trkpt lat="46.195901948958635" lon="7.027613930404186"><ele></ele><time>2013-7-24T1:2:12Z</time></trkpt>
<trkpt lat="46.195752918720245" lon="7.027661958709359"><ele></ele><time>2013-7-24T1:2:15Z</time></trkpt>
<trkpt lat="46.19562794454396" lon="7.027700934559107"><ele></ele><time>2013-7-24T1:2:18Z</time></trkpt>
<trkpt lat="46.19555292651057" lon="7.02772599644959"><ele></ele><time>2013-7-24T1:2:21Z</time></trkpt>
<trkpt lat="46.195471957325935" lon="7.027799924835563"><ele></ele><time>2013-7-24T1:2:24Z</time></trkpt>
<trkpt lat="46.195514956489205" lon="7.027891958132386"><ele></ele><time>2013-7-24T1:2:27Z</time></trkpt>
<trkpt lat="46.19556399062276" lon="7.0279039442539215"><ele></ele><time>2013-7-24T1:2:30Z</time></trkpt>
<trkpt lat="46.19559198617935" lon="7.027904950082302"><ele></ele><time>2013-7-24T1:2:33Z</time></trkpt>
<trkpt lat="46.195618975907564" lon="7.027905955910683"><ele></ele><time>2013-7-24T1:2:36Z</time></trkpt>
<trkpt lat="46.195618975907564" lon="7.027905955910683"><ele></ele><time>2013-7-24T1:2:39Z</time></trkpt>
<trkpt lat="46.19571796618402" lon="7.027909979224205"><ele></ele><time>2013-7-24T1:2:42Z</time></trkpt>
<trkpt lat="46.19586599059403" lon="7.027914924547076"><ele></ele><time>2013-7-24T1:2:45Z</time></trkpt>
<trkpt lat="46.196007980033755" lon="7.02792095951736"><ele></ele><time>2013-7-24T1:2:48Z</time></trkpt>
<trkpt lat="46.19612398557365" lon="7.027918947860599"><ele></ele><time>2013-7-24T1:2:51Z</time></trkpt>
<trkpt lat="46.196244936436415" lon="7.027896987274289"><ele></ele><time>2013-7-24T1:2:54Z</time></trkpt>
<trkpt lat="46.1963339522481" lon="7.027883995324373"><ele></ele><time>2013-7-24T1:2:57Z</time></trkpt>
<trkpt lat="46.196353984996676" lon="7.027896987274289"><ele></ele><time>2013-7-24T1:3:0Z</time></trkpt>
<trkpt lat="46.196394972503185" lon="7.027973933145404"><ele></ele><time>2013-7-24T1:3:3Z</time></trkpt>
<trkpt lat="46.19632791727781" lon="7.028040988370776"><ele></ele><time>2013-7-24T1:3:6Z</time></trkpt>
<trkpt lat="46.19619992561638" lon="7.028081975877285"><ele></ele><time>2013-7-24T1:3:9Z</time></trkpt>
<trkpt lat="46.1961629614234" lon="7.028087927028537"><ele></ele><time>2013-7-24T1:3:12Z</time></trkpt>
<trkpt lat="46.19604092091322" lon="7.028107959777117"><ele></ele><time>2013-7-24T1:3:15Z</time></trkpt>
<trkpt lat="46.19593396782875" lon="7.028125980868936"><ele></ele><time>2013-7-24T1:3:18Z</time></trkpt>
<trkpt lat="46.19586196728051" lon="7.0283059403300285"><ele></ele><time>2013-7-24T1:3:21Z</time></trkpt>
<trkpt lat="46.1957519967109" lon="7.028316920623183"><ele></ele><time>2013-7-24T1:3:24Z</time></trkpt>
<trkpt lat="46.195640936493874" lon="7.02832798473537"><ele></ele><time>2013-7-24T1:3:27Z</time></trkpt>
<trkpt lat="46.195535995066166" lon="7.028261935338378"><ele></ele><time>2013-7-24T1:3:30Z</time></trkpt>
<trkpt lat="46.19562995620072" lon="7.0281769428402185"><ele></ele><time>2013-7-24T1:3:33Z</time></trkpt>
<trkpt lat="46.19574193842709" lon="7.028157999739051"><ele></ele><time>2013-7-24T1:3:36Z</time></trkpt>
<trkpt lat="46.19589096866548" lon="7.028132937848568"><ele></ele><time>2013-7-24T1:3:39Z</time></trkpt>
<trkpt lat="46.19603496976197" lon="7.0282909367233515"><ele></ele><time>2013-7-24T1:3:42Z</time></trkpt>
<trkpt lat="46.19606891646981" lon="7.02830795198679"><ele></ele><time>2013-7-24T1:3:45Z</time></trkpt>
<trkpt lat="46.196072939783335" lon="7.02837492339313"><ele></ele><time>2013-7-24T1:3:48Z</time></trkpt>
<trkpt lat="46.19600496254861" lon="7.028447929769754"><ele></ele><time>2013-7-24T1:3:51Z</time></trkpt>
<trkpt lat="46.19588895700872" lon="7.028470980003476"><ele></ele><time>2013-7-24T1:3:54Z</time></trkpt>
<trkpt lat="46.195789966732264" lon="7.028490928933024"><ele></ele><time>2013-7-24T1:3:57Z</time></trkpt>
<trkpt lat="46.195680918172" lon="7.028511967509985"><ele></ele><time>2013-7-24T1:4:0Z</time></trkpt>
<trkpt lat="46.19555099867284" lon="7.028536945581436"><ele></ele><time>2013-7-24T1:4:3Z</time></trkpt>
<trkpt lat="46.1954409442842" lon="7.028557984158397"><ele></ele><time>2013-7-24T1:4:6Z</time></trkpt>
<trkpt lat="46.19533591903746" lon="7.028577933087945"><ele></ele><time>2013-7-24T1:4:9Z</time></trkpt>
<trkpt lat="46.19518395513296" lon="7.028588997200131"><ele></ele><time>2013-7-24T1:4:12Z</time></trkpt>
<trkpt lat="46.19507398456335" lon="7.028599977493286"><ele></ele><time>2013-7-24T1:4:15Z</time></trkpt>
<trkpt lat="46.19500491768122" lon="7.028622943907976"><ele></ele><time>2013-7-24T1:4:18Z</time></trkpt>
<trkpt lat="46.19500491768122" lon="7.028622943907976"><ele></ele><time>2013-7-24T1:4:21Z</time></trkpt>
<trkpt lat="46.19500491768122" lon="7.028622943907976"><ele></ele><time>2013-7-24T1:4:24Z</time></trkpt>
<trkpt lat="46.19494993239641" lon="7.0286499336361885"><ele></ele><time>2013-7-24T1:4:27Z</time></trkpt>
<trkpt lat="46.19493895210326" lon="7.028656974434853"><ele></ele><time>2013-7-24T1:4:30Z</time></trkpt>
<trkpt lat="46.19481598958373" lon="7.0287359319627285"><ele></ele><time>2013-7-24T1:4:33Z</time></trkpt>
<trkpt lat="46.194738959893584" lon="7.028784966096282"><ele></ele><time>2013-7-24T1:4:36Z</time></trkpt>
<trkpt lat="46.19464399293065" lon="7.028850931674242"><ele></ele><time>2013-7-24T1:4:39Z</time></trkpt>
<trkpt lat="46.19451792910695" lon="7.028937935829163"><ele></ele><time>2013-7-24T1:4:42Z</time></trkpt>
<trkpt lat="46.19440292939544" lon="7.028998956084251"><ele></ele><time>2013-7-24T1:4:45Z</time></trkpt>
<trkpt lat="46.194268986582756" lon="7.0290719624608755"><ele></ele><time>2013-7-24T1:4:48Z</time></trkpt>
<trkpt lat="46.194141916930676" lon="7.029147986322641"><ele></ele><time>2013-7-24T1:4:51Z</time></trkpt>
<trkpt lat="46.19399992749095" lon="7.0292359963059425"><ele></ele><time>2013-7-24T1:4:54Z</time></trkpt>
<trkpt lat="46.193901943042874" lon="7.029348984360695"><ele></ele><time>2013-7-24T1:4:57Z</time></trkpt>
<trkpt lat="46.193883921951056" lon="7.029404975473881"><ele></ele><time>2013-7-24T1:5:0Z</time></trkpt>
<trkpt lat="46.193883921951056" lon="7.029419979080558"><ele></ele><time>2013-7-24T1:5:3Z</time></trkpt>
<trkpt lat="46.193927926942706" lon="7.0293099246919155"><ele></ele><time>2013-7-24T1:5:6Z</time></trkpt>
<trkpt lat="46.19403798133135" lon="7.02921194024384"><ele></ele><time>2013-7-24T1:5:9Z</time></trkpt>
<trkpt lat="46.194162955507636" lon="7.029361976310611"><ele></ele><time>2013-7-24T1:5:12Z</time></trkpt>
<trkpt lat="46.19425993412733" lon="7.029363987967372"><ele></ele><time>2013-7-24T1:5:15Z</time></trkpt>
<trkpt lat="46.19437895715237" lon="7.0293879602104425"><ele></ele><time>2013-7-24T1:5:18Z</time></trkpt>
<trkpt lat="46.194500997662544" lon="7.029411932453513"><ele></ele><time>2013-7-24T1:5:21Z</time></trkpt>
<trkpt lat="46.19461993686855" lon="7.029436994343996"><ele></ele><time>2013-7-24T1:5:24Z</time></trkpt>
<trkpt lat="46.19474994018674" lon="7.02946599572897"><ele></ele><time>2013-7-24T1:5:27Z</time></trkpt>
<trkpt lat="46.1948729865253" lon="7.029480999335647"><ele></ele><time>2013-7-24T1:5:30Z</time></trkpt>
<trkpt lat="46.194996954873204" lon="7.029475970193744"><ele></ele><time>2013-7-24T1:5:33Z</time></trkpt>
<trkpt lat="46.1950989626348" lon="7.029439928010106"><ele></ele><time>2013-7-24T1:5:36Z</time></trkpt>
<trkpt lat="46.19513399899006" lon="7.029427941888571"><ele></ele><time>2013-7-24T1:5:39Z</time></trkpt>
<trkpt lat="46.19524497538805" lon="7.029388966038823"><ele></ele><time>2013-7-24T1:5:42Z</time></trkpt>
<trkpt lat="46.195321921259165" lon="7.029361976310611"><ele></ele><time>2013-7-24T1:5:45Z</time></trkpt>
<trkpt lat="46.19533793069422" lon="7.029385948553681"><ele></ele><time>2013-7-24T1:5:48Z</time></trkpt>
<trkpt lat="46.19535695761442" lon="7.029414949938655"><ele></ele><time>2013-7-24T1:5:51Z</time></trkpt>
<trkpt lat="46.195364920422435" lon="7.02942593023181"><ele></ele><time>2013-7-24T1:5:54Z</time></trkpt>
<trkpt lat="46.195364920422435" lon="7.02942593023181"><ele></ele><time>2013-7-24T1:5:57Z</time></trkpt>
<trkpt lat="46.195364920422435" lon="7.02942593023181"><ele></ele><time>2013-7-24T1:6:0Z</time></trkpt>
<trkpt lat="46.19517398066819" lon="7.0296459551900625"><ele></ele><time>2013-7-24T1:6:3Z</time></trkpt>
<trkpt lat="46.19510097429156" lon="7.0296969171613455"><ele></ele><time>2013-7-24T1:6:6Z</time></trkpt>
<trkpt lat="46.195015981793404" lon="7.029757937416434"><ele></ele><time>2013-7-24T1:6:9Z</time></trkpt>
<trkpt lat="46.19498195126653" lon="7.029781993478537"><ele></ele><time>2013-7-24T1:6:12Z</time></trkpt>
<trkpt lat="46.194887990131974" lon="7.029843935742974"><ele></ele><time>2013-7-24T1:6:15Z</time></trkpt>
<trkpt lat="46.194804925471544" lon="7.02989892102778"><ele></ele><time>2013-7-24T1:6:18Z</time></trkpt>
<trkpt lat="46.19472395628691" lon="7.029952984303236"><ele></ele><time>2013-7-24T1:6:21Z</time></trkpt>
<trkpt lat="46.19460392743349" lon="7.030026996508241"><ele></ele><time>2013-7-24T1:6:24Z</time></trkpt>
<trkpt lat="46.194502925500274" lon="7.030015932396054"><ele></ele><time>2013-7-24T1:6:27Z</time></trkpt>
<trkpt lat="46.19441198185086" lon="7.029972933232784"><ele></ele><time>2013-7-24T1:6:30Z</time></trkpt>
<trkpt lat="46.19434593245387" lon="7.029931945726275"><ele></ele><time>2013-7-24T1:6:33Z</time></trkpt>
<trkpt lat="46.19426194578409" lon="7.029897999018431"><ele></ele><time>2013-7-24T1:6:36Z</time></trkpt>
<trkpt lat="46.19420796632767" lon="7.029897999018431"><ele></ele><time>2013-7-24T1:6:39Z</time></trkpt>
<trkpt lat="46.1941839940846" lon="7.029953990131617"><ele></ele><time>2013-7-24T1:6:42Z</time></trkpt>
<trkpt lat="46.194205954670906" lon="7.0300479512661695"><ele></ele><time>2013-7-24T1:6:45Z</time></trkpt>
<trkpt lat="46.19432891719043" lon="7.03015498816967"><ele></ele><time>2013-7-24T1:6:48Z</time></trkpt>
<trkpt lat="46.19439295493066" lon="7.030205950140953"><ele></ele><time>2013-7-24T1:6:51Z</time></trkpt>
<trkpt lat="46.19443394243717" lon="7.030238974839449"><ele></ele><time>2013-7-24T1:6:54Z</time></trkpt>
<trkpt lat="46.1945759318769" lon="7.030273927375674"><ele></ele><time>2013-7-24T1:6:57Z</time></trkpt>
<trkpt lat="46.19466695934534" lon="7.0302829798310995"><ele></ele><time>2013-7-24T1:7:0Z</time></trkpt>
<trkpt lat="46.194781959056854" lon="7.030249955132604"><ele></ele><time>2013-7-24T1:7:3Z</time></trkpt>
<trkpt lat="46.19486393406987" lon="7.030231934040785"><ele></ele><time>2013-7-24T1:7:6Z</time></trkpt>
<trkpt lat="46.19495194405317" lon="7.030227994546294"><ele></ele><time>2013-7-24T1:7:9Z</time></trkpt>
<trkpt lat="46.19497197680175" lon="7.030237969011068"><ele></ele><time>2013-7-24T1:7:12Z</time></trkpt>
<trkpt lat="46.194977927953005" lon="7.030241992324591"><ele></ele><time>2013-7-24T1:7:15Z</time></trkpt>
<trkpt lat="46.19495194405317" lon="7.030227994546294"><ele></ele><time>2013-7-24T1:7:18Z</time></trkpt>
<trkpt lat="46.194869969040155" lon="7.030230928212404"><ele></ele><time>2013-7-24T1:7:21Z</time></trkpt>
<trkpt lat="46.194824958220124" lon="7.030238974839449"><ele></ele><time>2013-7-24T1:7:24Z</time></trkpt>
<trkpt lat="46.19477299042046" lon="7.030464950948954"><ele></ele><time>2013-7-24T1:7:27Z</time></trkpt>
<trkpt lat="46.194717921316624" lon="7.030479954555631"><ele></ele><time>2013-7-24T1:7:30Z</time></trkpt>
<trkpt lat="46.194674922153354" lon="7.030491940677166"><ele></ele><time>2013-7-24T1:7:33Z</time></trkpt>
<trkpt lat="46.1946309171617" lon="7.030503926798701"><ele></ele><time>2013-7-24T1:7:36Z</time></trkpt>
<trkpt lat="46.19455397129059" lon="7.03052194789052"><ele></ele><time>2013-7-24T1:7:39Z</time></trkpt>
<trkpt lat="46.194543996825814" lon="7.030522953718901"><ele></ele><time>2013-7-24T1:7:42Z</time></trkpt>
<trkpt lat="46.194461937993765" lon="7.030528988689184"><ele></ele><time>2013-7-24T1:7:45Z</time></trkpt>
<trkpt lat="46.19439999572933" lon="7.030533934012055"><ele></ele><time>2013-7-24T1:7:48Z</time></trkpt>
<trkpt lat="46.19428692385554" lon="7.0305419806391"><ele></ele><time>2013-7-24T1:7:51Z</time></trkpt>
<trkpt lat="46.19421894662082" lon="7.0305419806391"><ele></ele><time>2013-7-24T1:7:54Z</time></trkpt>
<trkpt lat="46.19414795190096" lon="7.030528988689184"><ele></ele><time>2013-7-24T1:7:57Z</time></trkpt>
<trkpt lat="46.19406597688794" lon="7.03049898147583"><ele></ele><time>2013-7-24T1:8:0Z</time></trkpt>
<trkpt lat="46.19393798522651" lon="7.030456988140941"><ele></ele><time>2013-7-24T1:8:3Z</time></trkpt>
<trkpt lat="46.19382499717176" lon="7.030467968434095"><ele></ele><time>2013-7-24T1:8:6Z</time></trkpt>
<trkpt lat="46.19374193251133" lon="7.030476937070489"><ele></ele><time>2013-7-24T1:8:9Z</time></trkpt>
<trkpt lat="46.193624921143055" lon="7.030525971204042"><ele></ele><time>2013-7-24T1:8:12Z</time></trkpt>
<trkpt lat="46.193534983322024" lon="7.030573999509215"><ele></ele><time>2013-7-24T1:8:15Z</time></trkpt>
<trkpt lat="46.19346792809665" lon="7.0306939445436"><ele></ele><time>2013-7-24T1:8:18Z</time></trkpt>
<trkpt lat="46.193406991660595" lon="7.0308219362050295"><ele></ele><time>2013-7-24T1:8:21Z</time></trkpt>
<trkpt lat="46.19337296113372" lon="7.030903995037079"><ele></ele><time>2013-7-24T1:8:24Z</time></trkpt>
<trkpt lat="46.193362986668944" lon="7.030930984765291"><ele></ele><time>2013-7-24T1:8:27Z</time></trkpt>
<trkpt lat="46.19333398528397" lon="7.031000973656774"><ele></ele><time>2013-7-24T1:8:30Z</time></trkpt>
<trkpt lat="46.19326399639249" lon="7.031173976138234"><ele></ele><time>2013-7-24T1:8:33Z</time></trkpt>
<trkpt lat="46.19324597530067" lon="7.031217981129885"><ele></ele><time>2013-7-24T1:8:36Z</time></trkpt>
<trkpt lat="46.193189984187484" lon="7.031355947256088"><ele></ele><time>2013-7-24T1:8:39Z</time></trkpt>
<trkpt lat="46.19314095005393" lon="7.031468935310841"><ele></ele><time>2013-7-24T1:8:42Z</time></trkpt>
<trkpt lat="46.19307992979884" lon="7.031583935022354"><ele></ele><time>2013-7-24T1:8:45Z</time></trkpt>
<trkpt lat="46.19303491897881" lon="7.0316689275205135"><ele></ele><time>2013-7-24T1:8:48Z</time></trkpt>
<trkpt lat="46.19301396422088" lon="7.031709998846054"><ele></ele><time>2013-7-24T1:8:51Z</time></trkpt>
<trkpt lat="46.19297197088599" lon="7.031789962202311"><ele></ele><time>2013-7-24T1:8:54Z</time></trkpt>
<trkpt lat="46.19292696006596" lon="7.031864980235696"><ele></ele><time>2013-7-24T1:8:57Z</time></trkpt>
<trkpt lat="46.19290198199451" lon="7.031891969963908"><ele></ele><time>2013-7-24T1:9:0Z</time></trkpt>
<trkpt lat="46.19280491955578" lon="7.031995989382267"><ele></ele><time>2013-7-24T1:9:3Z</time></trkpt>
<trkpt lat="46.19272696785629" lon="7.032079976052046"><ele></ele><time>2013-7-24T1:9:6Z</time></trkpt>
<trkpt lat="46.192655973136425" lon="7.032157927751541"><ele></ele><time>2013-7-24T1:9:9Z</time></trkpt>
<trkpt lat="46.19264792650938" lon="7.032169997692108"><ele></ele><time>2013-7-24T1:9:12Z</time></trkpt>
<trkpt lat="46.192617919296026" lon="7.032264964655042"><ele></ele><time>2013-7-24T1:9:15Z</time></trkpt>
<trkpt lat="46.192633928731084" lon="7.032312992960215"><ele></ele><time>2013-7-24T1:9:18Z</time></trkpt>
<trkpt lat="46.19266494177282" lon="7.032335959374905"><ele></ele><time>2013-7-24T1:9:21Z</time></trkpt>
<trkpt lat="46.19281598366797" lon="7.0322479493916035"><ele></ele><time>2013-7-24T1:9:24Z</time></trkpt>
<trkpt lat="46.19290499947965" lon="7.032150970771909"><ele></ele><time>2013-7-24T1:9:27Z</time></trkpt>
<trkpt lat="46.19297691620886" lon="7.032073941081762"><ele></ele><time>2013-7-24T1:9:30Z</time></trkpt>
<trkpt lat="46.19307096116245" lon="7.0319899544119835"><ele></ele><time>2013-7-24T1:9:33Z</time></trkpt>
<trkpt lat="46.19308093562722" lon="7.0319819916039705"><ele></ele><time>2013-7-24T1:9:36Z</time></trkpt>
<trkpt lat="46.193106919527054" lon="7.0319619588553905"><ele></ele><time>2013-7-24T1:9:39Z</time></trkpt>
<trkpt lat="46.193106919527054" lon="7.0319619588553905"><ele></ele><time>2013-7-24T1:9:42Z</time></trkpt>
<trkpt lat="46.1931889783591" lon="7.0318959932774305"><ele></ele><time>2013-7-24T1:9:45Z</time></trkpt>
<trkpt lat="46.193281933665276" lon="7.03180898912251"><ele></ele><time>2013-7-24T1:9:48Z</time></trkpt>
<trkpt lat="46.19339793920517" lon="7.031692983582616"><ele></ele><time>2013-7-24T1:9:51Z</time></trkpt>
<trkpt lat="46.193473963066936" lon="7.03159399330616"><ele></ele><time>2013-7-24T1:9:54Z</time></trkpt>
<trkpt lat="46.193540934473276" lon="7.03148796223104"><ele></ele><time>2013-7-24T1:9:57Z</time></trkpt>
<trkpt lat="46.193621987476945" lon="7.03135896474123"><ele></ele><time>2013-7-24T1:10:0Z</time></trkpt>
<trkpt lat="46.19369298219681" lon="7.031248994171619"><ele></ele><time>2013-7-24T1:10:3Z</time></trkpt>
<trkpt lat="46.193798929452896" lon="7.031159978359938"><ele></ele><time>2013-7-24T1:10:6Z</time></trkpt>
<trkpt lat="46.193900937214494" lon="7.031159978359938"><ele></ele><time>2013-7-24T1:10:9Z</time></trkpt>
<trkpt lat="46.19395399466157" lon="7.031212951987982"><ele></ele><time>2013-7-24T1:10:12Z</time></trkpt>
<trkpt lat="46.19402599520981" lon="7.031288975849748"><ele></ele><time>2013-7-24T1:10:15Z</time></trkpt>
<trkpt lat="46.194099923595786" lon="7.031370950862765"><ele></ele><time>2013-7-24T1:10:18Z</time></trkpt>
<trkpt lat="46.194180976599455" lon="7.031460972502828"><ele></ele><time>2013-7-24T1:10:21Z</time></trkpt>
<trkpt lat="46.194241996854544" lon="7.031502965837717"><ele></ele><time>2013-7-24T1:10:24Z</time></trkpt>
<trkpt lat="46.194350961595774" lon="7.031492991372943"><ele></ele><time>2013-7-24T1:10:27Z</time></trkpt>
<trkpt lat="46.19441592134535" lon="7.031476981937885"><ele></ele><time>2013-7-24T1:10:30Z</time></trkpt>
<trkpt lat="46.194438971579075" lon="7.031462984159589"><ele></ele><time>2013-7-24T1:10:33Z</time></trkpt>
<trkpt lat="46.194463949650526" lon="7.031448986381292"><ele></ele><time>2013-7-24T1:10:36Z</time></trkpt>
<trkpt lat="46.19460493326187" lon="7.031385954469442"><ele></ele><time>2013-7-24T1:10:39Z</time></trkpt>
<trkpt lat="46.19464499875903" lon="7.031388971954584"><ele></ele><time>2013-7-24T1:10:42Z</time></trkpt>
<trkpt lat="46.194655979052186" lon="7.031452925875783"><ele></ele><time>2013-7-24T1:10:45Z</time></trkpt>
<trkpt lat="46.19462697766721" lon="7.031523920595646"><ele></ele><time>2013-7-24T1:10:48Z</time></trkpt>
<trkpt lat="46.19455296546221" lon="7.031599944457412"><ele></ele><time>2013-7-24T1:10:51Z</time></trkpt>
<trkpt lat="46.19448892772198" lon="7.031651996076107"><ele></ele><time>2013-7-24T1:10:54Z</time></trkpt>
<trkpt lat="46.194479959085584" lon="7.03165995888412"><ele></ele><time>2013-7-24T1:10:57Z</time></trkpt>
<trkpt lat="46.19440393522382" lon="7.031721984967589"><ele></ele><time>2013-7-24T1:11:0Z</time></trkpt>
<trkpt lat="46.19433796964586" lon="7.03176598995924"><ele></ele><time>2013-7-24T1:11:3Z</time></trkpt>
<trkpt lat="46.19424291886389" lon="7.031819969415665"><ele></ele><time>2013-7-24T1:11:6Z</time></trkpt>
<trkpt lat="46.19415499269962" lon="7.031828938052058"><ele></ele><time>2013-7-24T1:11:9Z</time></trkpt>
<trkpt lat="46.19412297382951" lon="7.031828938052058"><ele></ele><time>2013-7-24T1:11:12Z</time></trkpt>
<trkpt lat="46.194092966616154" lon="7.031814940273762"><ele></ele><time>2013-7-24T1:11:15Z</time></trkpt>
<trkpt lat="46.19398391805589" lon="7.031755931675434"><ele></ele><time>2013-7-24T1:11:18Z</time></trkpt>
<trkpt lat="46.19386992417276" lon="7.031700946390629"><ele></ele><time>2013-7-24T1:11:21Z</time></trkpt>
<trkpt lat="46.19384595192969" lon="7.031700946390629"><ele></ele><time>2013-7-24T1:11:24Z</time></trkpt>
<trkpt lat="46.19378694333136" lon="7.031738916411996"><ele></ele><time>2013-7-24T1:11:27Z</time></trkpt>
<trkpt lat="46.1936969216913" lon="7.031865986064076"><ele></ele><time>2013-7-24T1:11:30Z</time></trkpt>
<trkpt lat="46.19363699108362" lon="7.0320099871605635"><ele></ele><time>2013-7-24T1:11:33Z</time></trkpt>
<trkpt lat="46.19359097443521" lon="7.032158933579922"><ele></ele><time>2013-7-24T1:11:36Z</time></trkpt>
<trkpt lat="46.193534983322024" lon="7.032274939119816"><ele></ele><time>2013-7-24T1:11:39Z</time></trkpt>
<trkpt lat="46.19351897388697" lon="7.032326990738511"><ele></ele><time>2013-7-24T1:11:42Z</time></trkpt>
<trkpt lat="46.19351897388697" lon="7.032326990738511"><ele></ele><time>2013-7-24T1:11:45Z</time></trkpt>
<trkpt lat="46.193583933636546" lon="7.032385999336839"><ele></ele><time>2013-7-24T1:11:48Z</time></trkpt>
<trkpt lat="46.19368392974138" lon="7.032363954931498"><ele></ele><time>2013-7-24T1:11:51Z</time></trkpt>
<trkpt lat="46.19376297108829" lon="7.032302934676409"><ele></ele><time>2013-7-24T1:11:54Z</time></trkpt>
<trkpt lat="46.193840922787786" lon="7.032251972705126"><ele></ele><time>2013-7-24T1:11:57Z</time></trkpt>
<trkpt lat="46.19388895109296" lon="7.032237974926829"><ele></ele><time>2013-7-24T1:12:0Z</time></trkpt>
<trkpt lat="46.19397394359112" lon="7.032252978533506"><ele></ele><time>2013-7-24T1:12:3Z</time></trkpt>
<trkpt lat="46.194032952189445" lon="7.0322629529982805"><ele></ele><time>2013-7-24T1:12:6Z</time></trkpt>
<trkpt lat="46.194049967452884" lon="7.032265970483422"><ele></ele><time>2013-7-24T1:12:9Z</time></trkpt>
<trkpt lat="46.19410294108093" lon="7.032275944948196"><ele></ele><time>2013-7-24T1:12:12Z</time></trkpt>
<trkpt lat="46.19419396854937" lon="7.032291954383254"><ele></ele><time>2013-7-24T1:12:15Z</time></trkpt>
<trkpt lat="46.194288935512304" lon="7.032291954383254"><ele></ele><time>2013-7-24T1:12:18Z</time></trkpt>
<trkpt lat="46.194373928010464" lon="7.032272927463055"><ele></ele><time>2013-7-24T1:12:21Z</time></trkpt>
<trkpt lat="46.19449496269226" lon="7.032244931906462"><ele></ele><time>2013-7-24T1:12:24Z</time></trkpt>
<trkpt lat="46.19455992244184" lon="7.03221894800663"><ele></ele><time>2013-7-24T1:12:27Z</time></trkpt>
<trkpt lat="46.194634940475225" lon="7.03217594884336"><ele></ele><time>2013-7-24T1:12:30Z</time></trkpt>
<trkpt lat="46.19467391632497" lon="7.0321539882570505"><ele></ele><time>2013-7-24T1:12:33Z</time></trkpt>
<trkpt lat="46.19476997293532" lon="7.032099924981594"><ele></ele><time>2013-7-24T1:12:36Z</time></trkpt>
<trkpt lat="46.194807942956686" lon="7.032078970223665"><ele></ele><time>2013-7-24T1:12:39Z</time></trkpt>
<trkpt lat="46.19489997625351" lon="7.03202691860497"><ele></ele><time>2013-7-24T1:12:42Z</time></trkpt>
<trkpt lat="46.19500491768122" lon="7.0319669879972935"><ele></ele><time>2013-7-24T1:12:45Z</time></trkpt>
<trkpt lat="46.195061998441815" lon="7.031955923885107"><ele></ele><time>2013-7-24T1:12:48Z</time></trkpt>
<trkpt lat="46.19515897706151" lon="7.031951984390616"><ele></ele><time>2013-7-24T1:12:51Z</time></trkpt>
<trkpt lat="46.195168951526284" lon="7.031951984390616"><ele></ele><time>2013-7-24T1:12:54Z</time></trkpt>
<trkpt lat="46.19524296373129" lon="7.031947961077094"><ele></ele><time>2013-7-24T1:12:57Z</time></trkpt>
<trkpt lat="46.1952699534595" lon="7.0319469552487135"><ele></ele><time>2013-7-24T1:13:0Z</time></trkpt>
<trkpt lat="46.195298954844475" lon="7.031945949420333"><ele></ele><time>2013-7-24T1:13:3Z</time></trkpt>
<trkpt lat="46.19541797786951" lon="7.031939998269081"><ele></ele><time>2013-7-24T1:13:6Z</time></trkpt>
<trkpt lat="46.195511939004064" lon="7.031933963298798"><ele></ele><time>2013-7-24T1:13:9Z</time></trkpt>
<trkpt lat="46.195511939004064" lon="7.031933963298798"><ele></ele><time>2013-7-24T1:13:12Z</time></trkpt>
<trkpt lat="46.195511939004064" lon="7.031933963298798"><ele></ele><time>2013-7-24T1:13:15Z</time></trkpt>
<trkpt lat="46.19569499976933" lon="7.031907979398966"><ele></ele><time>2013-7-24T1:13:18Z</time></trkpt>
<trkpt lat="46.19581896811724" lon="7.031879983842373"><ele></ele><time>2013-7-24T1:13:21Z</time></trkpt>
<trkpt lat="46.19591393508017" lon="7.031826926395297"><ele></ele><time>2013-7-24T1:13:24Z</time></trkpt>
<trkpt lat="46.19597998447716" lon="7.031789962202311"><ele></ele><time>2013-7-24T1:13:27Z</time></trkpt>
<trkpt lat="46.196049973368645" lon="7.0317089930176735"><ele></ele><time>2013-7-24T1:13:30Z</time></trkpt>
<trkpt lat="46.196079980582" lon="7.031671945005655"><ele></ele><time>2013-7-24T1:13:33Z</time></trkpt>
<trkpt lat="46.196154998615384" lon="7.031580917537212"><ele></ele><time>2013-7-24T1:13:36Z</time></trkpt>
<trkpt lat="46.19621895253658" lon="7.0315019600093365"><ele></ele><time>2013-7-24T1:13:39Z</time></trkpt>
<trkpt lat="46.19627796113491" lon="7.0314309652894735"><ele></ele><time>2013-7-24T1:13:42Z</time></trkpt>
<trkpt lat="46.19632297195494" lon="7.031375980004668"><ele></ele><time>2013-7-24T1:13:45Z</time></trkpt>
<trkpt lat="46.196352979168296" lon="7.031339937821031"><ele></ele><time>2013-7-24T1:13:48Z</time></trkpt>
<trkpt lat="46.1964409891516" lon="7.031280929222703"><ele></ele><time>2013-7-24T1:13:51Z</time></trkpt>
<trkpt lat="46.196522964164615" lon="7.0312519278377295"><ele></ele><time>2013-7-24T1:13:54Z</time></trkpt>
<trkpt lat="46.19659597054124" lon="7.0312589686363935"><ele></ele><time>2013-7-24T1:13:57Z</time></trkpt>
<trkpt lat="46.19668699800968" lon="7.0312669314444065"><ele></ele><time>2013-7-24T1:14:0Z</time></trkpt>
<trkpt lat="46.19669898413122" lon="7.031267937272787"><ele></ele><time>2013-7-24T1:14:3Z</time></trkpt>
<trkpt lat="46.19674198329449" lon="7.031270954757929"><ele></ele><time>2013-7-24T1:14:6Z</time></trkpt>
<trkpt lat="46.19682194665074" lon="7.031259974464774"><ele></ele><time>2013-7-24T1:14:9Z</time></trkpt>
<trkpt lat="46.19682194665074" lon="7.031259974464774"><ele></ele><time>2013-7-24T1:14:12Z</time></trkpt>
<trkpt lat="46.19700592942536" lon="7.031235918402672"><ele></ele><time>2013-7-24T1:14:15Z</time></trkpt>
<trkpt lat="46.19700592942536" lon="7.031235918402672"><ele></ele><time>2013-7-24T1:14:18Z</time></trkpt>
<trkpt lat="46.19711296632886" lon="7.031168946996331"><ele></ele><time>2013-7-24T1:14:21Z</time></trkpt>
<trkpt lat="46.1971299815923" lon="7.031149920076132"><ele></ele><time>2013-7-24T1:14:24Z</time></trkpt>
<trkpt lat="46.19720592163503" lon="7.031063921749592"><ele></ele><time>2013-7-24T1:14:27Z</time></trkpt>
<trkpt lat="46.197338942438364" lon="7.031066939234734"><ele></ele><time>2013-7-24T1:14:30Z</time></trkpt>
<trkpt lat="46.19736894965172" lon="7.031023940071464"><ele></ele><time>2013-7-24T1:14:33Z</time></trkpt>
<trkpt lat="46.197365932166576" lon="7.031024945899844"><ele></ele><time>2013-7-24T1:14:36Z</time></trkpt>
<trkpt lat="46.197338942438364" lon="7.031035926192999"><ele></ele><time>2013-7-24T1:14:39Z</time></trkpt>
<trkpt lat="46.197338942438364" lon="7.031035926192999"><ele></ele><time>2013-7-24T1:14:42Z</time></trkpt>
<trkpt lat="46.197338942438364" lon="7.031035926192999"><ele></ele><time>2013-7-24T1:14:45Z</time></trkpt>
<trkpt lat="46.19711296632886" lon="7.031167941167951"><ele></ele><time>2013-7-24T1:14:48Z</time></trkpt>
<trkpt lat="46.197059992700815" lon="7.031228961423039"><ele></ele><time>2013-7-24T1:14:51Z</time></trkpt>
<trkpt lat="46.19707994163036" lon="7.031466923654079"><ele></ele><time>2013-7-24T1:14:54Z</time></trkpt>
<trkpt lat="46.19701095856726" lon="7.031234996393323"><ele></ele><time>2013-7-24T1:14:57Z</time></trkpt>
<trkpt lat="46.196935940533876" lon="7.031505983322859"><ele></ele><time>2013-7-24T1:15:0Z</time></trkpt>
<trkpt lat="46.19686494581401" lon="7.031515957787633"><ele></ele><time>2013-7-24T1:15:3Z</time></trkpt>
<trkpt lat="46.19679696857929" lon="7.031523920595646"><ele></ele><time>2013-7-24T1:15:6Z</time></trkpt>
<trkpt lat="46.1967689730227" lon="7.031527943909168"><ele></ele><time>2013-7-24T1:15:9Z</time></trkpt>
<trkpt lat="46.1967499461025" lon="7.031533978879452"><ele></ele><time>2013-7-24T1:15:12Z</time></trkpt>
<trkpt lat="46.1967499461025" lon="7.031533978879452"><ele></ele><time>2013-7-24T1:15:15Z</time></trkpt>
<trkpt lat="46.19677894748747" lon="7.031713938340545"><ele></ele><time>2013-7-24T1:15:18Z</time></trkpt>
<trkpt lat="46.19687793776393" lon="7.031513946130872"><ele></ele><time>2013-7-24T1:15:21Z</time></trkpt>
<trkpt lat="46.19687793776393" lon="7.031513946130872"><ele></ele><time>2013-7-24T1:15:24Z</time></trkpt>
<trkpt lat="46.196952955797315" lon="7.0315019600093365"><ele></ele><time>2013-7-24T1:15:27Z</time></trkpt>
<trkpt lat="46.19697097688913" lon="7.0314969308674335"><ele></ele><time>2013-7-24T1:15:30Z</time></trkpt>
<trkpt lat="46.19697097688913" lon="7.0314969308674335"><ele></ele><time>2013-7-24T1:15:33Z</time></trkpt>
<trkpt lat="46.1970919277519" lon="7.031462984159589"><ele></ele><time>2013-7-24T1:15:36Z</time></trkpt>
<trkpt lat="46.1970919277519" lon="7.031462984159589"><ele></ele><time>2013-7-24T1:15:39Z</time></trkpt>
<trkpt lat="46.19725797325373" lon="7.0316659938544035"><ele></ele><time>2013-7-24T1:15:42Z</time></trkpt>
<trkpt lat="46.19730499573052" lon="7.031642943620682"><ele></ele><time>2013-7-24T1:15:45Z</time></trkpt>
<trkpt lat="46.1973699554801" lon="7.031609918922186"><ele></ele><time>2013-7-24T1:15:48Z</time></trkpt>
<trkpt lat="46.19743793271482" lon="7.031575972214341"><ele></ele><time>2013-7-24T1:15:51Z</time></trkpt>
<trkpt lat="46.1974629946053" lon="7.031562980264425"><ele></ele><time>2013-7-24T1:15:54Z</time></trkpt>
<trkpt lat="46.19754195213318" lon="7.031523920595646"><ele></ele><time>2013-7-24T1:15:57Z</time></trkpt>
<trkpt lat="46.19761294685304" lon="7.03148796223104"><ele></ele><time>2013-7-24T1:16:0Z</time></trkpt>
<trkpt lat="46.19767195545137" lon="7.0314589608460665"><ele></ele><time>2013-7-24T1:16:3Z</time></trkpt>
<trkpt lat="46.19768997654319" lon="7.031449992209673"><ele></ele><time>2013-7-24T1:16:6Z</time></trkpt>
<trkpt lat="46.197745967656374" lon="7.03142199665308"><ele></ele><time>2013-7-24T1:16:9Z</time></trkpt>
<trkpt lat="46.197790978476405" lon="7.031398946419358"><ele></ele><time>2013-7-24T1:16:12Z</time></trkpt>
<trkpt lat="46.19789097458124" lon="7.031320994719863"><ele></ele><time>2013-7-24T1:16:15Z</time></trkpt>
<trkpt lat="46.19793699122965" lon="7.031284952536225"><ele></ele><time>2013-7-24T1:16:18Z</time></trkpt>
<trkpt lat="46.1979949939996" lon="7.031239941716194"><ele></ele><time>2013-7-24T1:16:21Z</time></trkpt>
<trkpt lat="46.19806297123432" lon="7.03118696808815"><ele></ele><time>2013-7-24T1:16:24Z</time></trkpt>
<trkpt lat="46.198134971782565" lon="7.031130976974964"><ele></ele><time>2013-7-24T1:16:27Z</time></trkpt>
<trkpt lat="46.198202949017286" lon="7.031078925356269"><ele></ele><time>2013-7-24T1:16:30Z</time></trkpt>
<trkpt lat="46.198287941515446" lon="7.031011953949928"><ele></ele><time>2013-7-24T1:16:33Z</time></trkpt>
<trkpt lat="46.19840294122696" lon="7.030929978936911"><ele></ele><time>2013-7-24T1:16:36Z</time></trkpt>
<trkpt lat="46.19847594760358" lon="7.030887985602021"><ele></ele><time>2013-7-24T1:16:39Z</time></trkpt>
<trkpt lat="46.19855197146535" lon="7.030844986438751"><ele></ele><time>2013-7-24T1:16:42Z</time></trkpt>
<trkpt lat="46.198632940649986" lon="7.0307989697903395"><ele></ele><time>2013-7-24T1:16:45Z</time></trkpt>
<trkpt lat="46.19873092509806" lon="7.030771980062127"><ele></ele><time>2013-7-24T1:16:48Z</time></trkpt>
<trkpt lat="46.198820946738124" lon="7.030763933435082"><ele></ele><time>2013-7-24T1:16:51Z</time></trkpt>
<trkpt lat="46.19889294728637" lon="7.030757982283831"><ele></ele><time>2013-7-24T1:16:54Z</time></trkpt>
<trkpt lat="46.19892194867134" lon="7.030760999768972"><ele></ele><time>2013-7-24T1:16:57Z</time></trkpt>
<trkpt lat="46.198951955884695" lon="7.030792934820056"><ele></ele><time>2013-7-24T1:17:0Z</time></trkpt>
<trkpt lat="46.19889697059989" lon="7.03075697645545"><ele></ele><time>2013-7-24T1:17:3Z</time></trkpt>
<trkpt lat="46.198797980323434" lon="7.030765945091844"><ele></ele><time>2013-7-24T1:17:6Z</time></trkpt>
<trkpt lat="46.198715921491385" lon="7.030773991718888"><ele></ele><time>2013-7-24T1:17:9Z</time></trkpt>
<trkpt lat="46.198670994490385" lon="7.031003991141915"><ele></ele><time>2013-7-24T1:17:12Z</time></trkpt>
<trkpt lat="46.1985819786787" lon="7.031041961163282"><ele></ele><time>2013-7-24T1:17:15Z</time></trkpt>
<trkpt lat="46.198500925675035" lon="7.031076997518539"><ele></ele><time>2013-7-24T1:17:18Z</time></trkpt>
<trkpt lat="46.19844292290509" lon="7.03114396892488"><ele></ele><time>2013-7-24T1:17:21Z</time></trkpt>
<trkpt lat="46.198394978418946" lon="7.0312009658664465"><ele></ele><time>2013-7-24T1:17:24Z</time></trkpt>
<trkpt lat="46.19836497120559" lon="7.031248994171619"><ele></ele><time>2013-7-24T1:17:27Z</time></trkpt>
<trkpt lat="46.19835793040693" lon="7.031399952247739"><ele></ele><time>2013-7-24T1:17:30Z</time></trkpt>
<trkpt lat="46.19842892512679" lon="7.0313929952681065"><ele></ele><time>2013-7-24T1:17:33Z</time></trkpt>
<trkpt lat="46.19848793372512" lon="7.031369945034385"><ele></ele><time>2013-7-24T1:17:36Z</time></trkpt>
<trkpt lat="46.19857795536518" lon="7.031314959749579"><ele></ele><time>2013-7-24T1:17:39Z</time></trkpt>
<trkpt lat="46.198652973398566" lon="7.031260980293155"><ele></ele><time>2013-7-24T1:17:42Z</time></trkpt>
<trkpt lat="46.19873293675482" lon="7.031236924231052"><ele></ele><time>2013-7-24T1:17:45Z</time></trkpt>
<trkpt lat="46.19883293285966" lon="7.031216975301504"><ele></ele><time>2013-7-24T1:17:48Z</time></trkpt>
<trkpt lat="46.198908956721425" lon="7.031201971694827"><ele></ele><time>2013-7-24T1:17:51Z</time></trkpt>
<trkpt lat="46.1990119703114" lon="7.031178921461105"><ele></ele><time>2013-7-24T1:17:54Z</time></trkpt>
<trkpt lat="46.19914096780121" lon="7.031139945611358"><ele></ele><time>2013-7-24T1:17:57Z</time></trkpt>
<trkpt lat="46.19921397417784" lon="7.031116979196668"><ele></ele><time>2013-7-24T1:18:0Z</time></trkpt>
<trkpt lat="46.199231995269656" lon="7.031111950054765"><ele></ele><time>2013-7-24T1:18:3Z</time></trkpt>
<trkpt lat="46.199277928099036" lon="7.031107926741242"><ele></ele><time>2013-7-24T1:18:6Z</time></trkpt>
<trkpt lat="46.199295949190855" lon="7.031135922297835"><ele></ele><time>2013-7-24T1:18:9Z</time></trkpt>
<trkpt lat="46.199274994432926" lon="7.031222926452756"><ele></ele><time>2013-7-24T1:18:12Z</time></trkpt>
<trkpt lat="46.19915094226599" lon="7.031285958364606"><ele></ele><time>2013-7-24T1:18:15Z</time></trkpt>
<trkpt lat="46.19912697002292" lon="7.031296938657761"><ele></ele><time>2013-7-24T1:18:18Z</time></trkpt>
<trkpt lat="46.199057986959815" lon="7.031330969184637"><ele></ele><time>2013-7-24T1:18:21Z</time></trkpt>
<trkpt lat="46.19894893839955" lon="7.031382936984301"><ele></ele><time>2013-7-24T1:18:24Z</time></trkpt>
<trkpt lat="46.19883494451642" lon="7.031437922269106"><ele></ele><time>2013-7-24T1:18:27Z</time></trkpt>
<trkpt lat="46.198760932311416" lon="7.031472958624363"><ele></ele><time>2013-7-24T1:18:30Z</time></trkpt>
<trkpt lat="46.19875196367502" lon="7.031477987766266"><ele></ele><time>2013-7-24T1:18:33Z</time></trkpt>
<trkpt lat="46.19870795868337" lon="7.031498942524195"><ele></ele><time>2013-7-24T1:18:36Z</time></trkpt>
<trkpt lat="46.198694966733456" lon="7.031505983322859"><ele></ele><time>2013-7-24T1:18:39Z</time></trkpt>
<trkpt lat="46.198675939813256" lon="7.031529955565929"><ele></ele><time>2013-7-24T1:18:42Z</time></trkpt>
<trkpt lat="46.19870393536985" lon="7.031545965000987"><ele></ele><time>2013-7-24T1:18:45Z</time></trkpt>
<trkpt lat="46.198802925646305" lon="7.031660964712501"><ele></ele><time>2013-7-24T1:18:48Z</time></trkpt>
<trkpt lat="46.1989379581064" lon="7.031623916700482"><ele></ele><time>2013-7-24T1:18:51Z</time></trkpt>
<trkpt lat="46.19898992590606" lon="7.031362988054752"><ele></ele><time>2013-7-24T1:18:54Z</time></trkpt>
<trkpt lat="46.19907693006098" lon="7.031320994719863"><ele></ele><time>2013-7-24T1:18:57Z</time></trkpt>
<trkpt lat="46.199099980294704" lon="7.0313099306076765"><ele></ele><time>2013-7-24T1:19:0Z</time></trkpt>
<trkpt lat="46.199099980294704" lon="7.0313099306076765"><ele></ele><time>2013-7-24T1:19:3Z</time></trkpt>
<trkpt lat="46.199099980294704" lon="7.0313099306076765"><ele></ele><time>2013-7-24T1:19:6Z</time></trkpt>
<trkpt lat="46.19918195530772" lon="7.031270954757929"><ele></ele><time>2013-7-24T1:19:9Z</time></trkpt>
<trkpt lat="46.19926996529102" lon="7.031228961423039"><ele></ele><time>2013-7-24T1:19:12Z</time></trkpt>
<trkpt lat="46.1994419619441" lon="7.031488968059421"><ele></ele><time>2013-7-24T1:19:15Z</time></trkpt>
<trkpt lat="46.199467945843935" lon="7.0314819272607565"><ele></ele><time>2013-7-24T1:19:18Z</time></trkpt>
<trkpt lat="46.199555955827236" lon="7.0314589608460665"><ele></ele><time>2013-7-24T1:19:21Z</time></trkpt>
<trkpt lat="46.199596943333745" lon="7.031446974724531"><ele></ele><time>2013-7-24T1:19:24Z</time></trkpt>
<trkpt lat="46.19969492778182" lon="7.031393917277455"><ele></ele><time>2013-7-24T1:19:27Z</time></trkpt>
<trkpt lat="46.199793918058276" lon="7.031334992498159"><ele></ele><time>2013-7-24T1:19:30Z</time></trkpt>
<trkpt lat="46.19987899437547" lon="7.031283946707845"><ele></ele><time>2013-7-24T1:19:33Z</time></trkpt>
<trkpt lat="46.199958957731724" lon="7.031235918402672"><ele></ele><time>2013-7-24T1:19:36Z</time></trkpt>
<trkpt lat="46.1999929882586" lon="7.031214963644743"><ele></ele><time>2013-7-24T1:19:39Z</time></trkpt>
<trkpt lat="46.20012097992003" lon="7.031138939782977"><ele></ele><time>2013-7-24T1:19:42Z</time></trkpt>
<trkpt lat="46.2001639790833" lon="7.031120918691158"><ele></ele><time>2013-7-24T1:19:45Z</time></trkpt>
<trkpt lat="46.200279984623194" lon="7.031139945611358"><ele></ele><time>2013-7-24T1:19:48Z</time></trkpt>
<trkpt lat="46.20029197074473" lon="7.031142963096499"><ele></ele><time>2013-7-24T1:19:51Z</time></trkpt>
<trkpt lat="46.20023497380316" lon="7.0311579667031765"><ele></ele><time>2013-7-24T1:19:54Z</time></trkpt>
<trkpt lat="46.20022994466126" lon="7.031196942552924"><ele></ele><time>2013-7-24T1:19:57Z</time></trkpt>
<trkpt lat="46.20014193467796" lon="7.0313069969415665"><ele></ele><time>2013-7-24T1:20:0Z</time></trkpt>
<trkpt lat="46.200022995471954" lon="7.0313929952681065"><ele></ele><time>2013-7-24T1:20:3Z</time></trkpt>
<trkpt lat="46.19999692775309" lon="7.0314109325408936"><ele></ele><time>2013-7-24T1:20:6Z</time></trkpt>
<trkpt lat="46.19994596578181" lon="7.031447980552912"><ele></ele><time>2013-7-24T1:20:9Z</time></trkpt>
<trkpt lat="46.199898943305016" lon="7.031480921432376"><ele></ele><time>2013-7-24T1:20:12Z</time></trkpt>
<trkpt lat="46.1998669244349" lon="7.03151092864573"><ele></ele><time>2013-7-24T1:20:15Z</time></trkpt>
<trkpt lat="46.19988494552672" lon="7.031492991372943"><ele></ele><time>2013-7-24T1:20:18Z</time></trkpt>
<trkpt lat="46.199981924146414" lon="7.03142199665308"><ele></ele><time>2013-7-24T1:20:21Z</time></trkpt>
<trkpt lat="46.20008292607963" lon="7.0313499961048365"><ele></ele><time>2013-7-24T1:20:24Z</time></trkpt>
<trkpt lat="46.20022692717612" lon="7.031482933089137"><ele></ele><time>2013-7-24T1:20:27Z</time></trkpt>
<trkpt lat="46.200238997116685" lon="7.031479999423027"><ele></ele><time>2013-7-24T1:20:30Z</time></trkpt>
<trkpt lat="46.20031996630132" lon="7.031484944745898"><ele></ele><time>2013-7-24T1:20:33Z</time></trkpt>
<trkpt lat="46.20027294382453" lon="7.031470946967602"><ele></ele><time>2013-7-24T1:20:36Z</time></trkpt>
<trkpt lat="46.20022893883288" lon="7.0314819272607565"><ele></ele><time>2013-7-24T1:20:39Z</time></trkpt>
<trkpt lat="46.2001449521631" lon="7.031502965837717"><ele></ele><time>2013-7-24T1:20:42Z</time></trkpt>
<trkpt lat="46.200132966041565" lon="7.031505983322859"><ele></ele><time>2013-7-24T1:20:45Z</time></trkpt>
<trkpt lat="46.20007295161486" lon="7.031545965000987"><ele></ele><time>2013-7-24T1:20:48Z</time></trkpt>
<trkpt lat="46.20007295161486" lon="7.031545965000987"><ele></ele><time>2013-7-24T1:20:51Z</time></trkpt>
<trkpt lat="46.20005794800818" lon="7.031791973859072"><ele></ele><time>2013-7-24T1:20:54Z</time></trkpt>
<trkpt lat="46.19999198243022" lon="7.031858945265412"><ele></ele><time>2013-7-24T1:20:57Z</time></trkpt>
<trkpt lat="46.19994596578181" lon="7.031885934993625"><ele></ele><time>2013-7-24T1:21:0Z</time></trkpt>
<trkpt lat="46.19988293386996" lon="7.031912924721837"><ele></ele><time>2013-7-24T1:21:3Z</time></trkpt>
<trkpt lat="46.199763994663954" lon="7.031955923885107"><ele></ele><time>2013-7-24T1:21:6Z</time></trkpt>
<trkpt lat="46.19966994971037" lon="7.031984925270081"><ele></ele><time>2013-7-24T1:21:9Z</time></trkpt>
<trkpt lat="46.19956492446363" lon="7.032017949968576"><ele></ele><time>2013-7-24T1:21:12Z</time></trkpt>
<trkpt lat="46.1995389405638" lon="7.0320249907672405"><ele></ele><time>2013-7-24T1:21:15Z</time></trkpt>
<trkpt lat="46.199442967772484" lon="7.032054997980595"><ele></ele><time>2013-7-24T1:21:18Z</time></trkpt>
<trkpt lat="46.19936199858785" lon="7.032079976052046"><ele></ele><time>2013-7-24T1:21:21Z</time></trkpt>
<trkpt lat="46.19925797916949" lon="7.032111994922161"><ele></ele><time>2013-7-24T1:21:24Z</time></trkpt>
<trkpt lat="46.19917499832809" lon="7.0321339555084705"><ele></ele><time>2013-7-24T1:21:27Z</time></trkpt>
<trkpt lat="46.19907399639487" lon="7.0321619510650635"><ele></ele><time>2013-7-24T1:21:30Z</time></trkpt>
<trkpt lat="46.19898992590606" lon="7.032198999077082"><ele></ele><time>2013-7-24T1:21:33Z</time></trkpt>
<trkpt lat="46.198926977813244" lon="7.032268987968564"><ele></ele><time>2013-7-24T1:21:36Z</time></trkpt>
<trkpt lat="46.198926977813244" lon="7.0322829857468605"><ele></ele><time>2013-7-24T1:21:39Z</time></trkpt>
<trkpt lat="46.198953967541456" lon="7.032343922182918"><ele></ele><time>2013-7-24T1:21:42Z</time></trkpt>
<trkpt lat="46.19902898557484" lon="7.032343922182918"><ele></ele><time>2013-7-24T1:21:45Z</time></trkpt>
<trkpt lat="46.19910794310272" lon="7.032151976600289"><ele></ele><time>2013-7-24T1:21:48Z</time></trkpt>
<trkpt lat="46.19917499832809" lon="7.0321339555084705"><ele></ele><time>2013-7-24T1:21:51Z</time></trkpt>
<trkpt lat="46.199191929772496" lon="7.032129932194948"><ele></ele><time>2013-7-24T1:21:54Z</time></trkpt>
<trkpt lat="46.19926996529102" lon="7.032107971608639"><ele></ele><time>2013-7-24T1:21:57Z</time></trkpt>
<trkpt lat="46.19934992864728" lon="7.032369989901781"><ele></ele><time>2013-7-24T1:22:0Z</time></trkpt>
<trkpt lat="46.19943995028734" lon="7.0323839876800776"><ele></ele><time>2013-7-24T1:22:3Z</time></trkpt>
<trkpt lat="46.19951999746263" lon="7.032395973801613"><ele></ele><time>2013-7-24T1:22:6Z</time></trkpt>
<trkpt lat="46.199557967484" lon="7.032401924952865"><ele></ele><time>2013-7-24T1:22:9Z</time></trkpt>
<trkpt lat="46.19964497163892" lon="7.0324149169027805"><ele></ele><time>2013-7-24T1:22:12Z</time></trkpt>
<trkpt lat="46.19973096996546" lon="7.032427992671728"><ele></ele><time>2013-7-24T1:22:15Z</time></trkpt>
<trkpt lat="46.199816968292" lon="7.032429920509458"><ele></ele><time>2013-7-24T1:22:18Z</time></trkpt>
<trkpt lat="46.19985996745527" lon="7.032429920509458"><ele></ele><time>2013-7-24T1:22:21Z</time></trkpt>
<trkpt lat="46.199941942468286" lon="7.032429920509458"><ele></ele><time>2013-7-24T1:22:24Z</time></trkpt>
<trkpt lat="46.2000069860369" lon="7.032429920509458"><ele></ele><time>2013-7-24T1:22:27Z</time></trkpt>
<trkpt lat="46.200067922472954" lon="7.032423969358206"><ele></ele><time>2013-7-24T1:22:30Z</time></trkpt>
<trkpt lat="46.20016599074006" lon="7.032408965751529"><ele></ele><time>2013-7-24T1:22:33Z</time></trkpt>
<trkpt lat="46.200199937447906" lon="7.032404942438006"><ele></ele><time>2013-7-24T1:22:36Z</time></trkpt>
<trkpt lat="46.200241930782795" lon="7.032398991286755"><ele></ele><time>2013-7-24T1:22:39Z</time></trkpt>
<trkpt lat="46.20033396407962" lon="7.032393962144852"><ele></ele><time>2013-7-24T1:22:42Z</time></trkpt>
<trkpt lat="46.20037495158613" lon="7.032441990450025"><ele></ele><time>2013-7-24T1:22:45Z</time></trkpt>
<trkpt lat="46.20037394575775" lon="7.032494964078069"><ele></ele><time>2013-7-24T1:22:48Z</time></trkpt>
<trkpt lat="46.200263975188136" lon="7.032395973801613"><ele></ele><time>2013-7-24T1:22:51Z</time></trkpt>
<trkpt lat="46.200239919126034" lon="7.032599989324808"><ele></ele><time>2013-7-24T1:22:54Z</time></trkpt>
<trkpt lat="46.20016892440617" lon="7.032623961567879"><ele></ele><time>2013-7-24T1:22:57Z</time></trkpt>
<trkpt lat="46.20010195299983" lon="7.032636953517795"><ele></ele><time>2013-7-24T1:23:0Z</time></trkpt>
<trkpt lat="46.20001897215843" lon="7.032653968781233"><ele></ele><time>2013-7-24T1:23:3Z</time></trkpt>
<trkpt lat="46.199936997145414" lon="7.0326699782162905"><ele></ele><time>2013-7-24T1:23:6Z</time></trkpt>
<trkpt lat="46.19986893609166" lon="7.032683975994587"><ele></ele><time>2013-7-24T1:23:9Z</time></trkpt>
<trkpt lat="46.19982593692839" lon="7.032693950459361"><ele></ele><time>2013-7-24T1:23:12Z</time></trkpt>
<trkpt lat="46.19980598799884" lon="7.032697973772883"><ele></ele><time>2013-7-24T1:23:15Z</time></trkpt>
<trkpt lat="46.19986197911203" lon="7.0326849818229675"><ele></ele><time>2013-7-24T1:23:18Z</time></trkpt>
<trkpt lat="46.19990095496178" lon="7.032676935195923"><ele></ele><time>2013-7-24T1:23:21Z</time></trkpt>
<trkpt lat="46.200022995471954" lon="7.032652962952852"><ele></ele><time>2013-7-24T1:23:24Z</time></trkpt>
<trkpt lat="46.200088961049914" lon="7.032844992354512"><ele></ele><time>2013-7-24T1:23:27Z</time></trkpt>
<trkpt lat="46.20020194910467" lon="7.032838957384229"><ele></ele><time>2013-7-24T1:23:30Z</time></trkpt>
<trkpt lat="46.20029498822987" lon="7.032810961827636"><ele></ele><time>2013-7-24T1:23:33Z</time></trkpt>
<trkpt lat="46.200324995443225" lon="7.032800987362862"><ele></ele><time>2013-7-24T1:23:36Z</time></trkpt>
<trkpt lat="46.20042691938579" lon="7.032779948785901"><ele></ele><time>2013-7-24T1:23:39Z</time></trkpt>
<trkpt lat="46.200458938255906" lon="7.032790929079056"><ele></ele><time>2013-7-24T1:23:42Z</time></trkpt>
<trkpt lat="46.200432954356074" lon="7.032897965982556"><ele></ele><time>2013-7-24T1:23:45Z</time></trkpt>
<trkpt lat="46.20042499154806" lon="7.032905928790569"><ele></ele><time>2013-7-24T1:23:48Z</time></trkpt>
<trkpt lat="46.200323989614844" lon="7.0329859759658575"><ele></ele><time>2013-7-24T1:23:51Z</time></trkpt>
<trkpt lat="46.200260957702994" lon="7.033017994835973"><ele></ele><time>2013-7-24T1:23:54Z</time></trkpt>
<trkpt lat="46.200243942439556" lon="7.033026963472366"><ele></ele><time>2013-7-24T1:23:57Z</time></trkpt>
<trkpt lat="46.20020496658981" lon="7.033038949593902"><ele></ele><time>2013-7-24T1:24:0Z</time></trkpt>
<trkpt lat="46.20011695660651" lon="7.032842980697751"><ele></ele><time>2013-7-24T1:24:3Z</time></trkpt>
<trkpt lat="46.20003598742187" lon="7.032846920192242"><ele></ele><time>2013-7-24T1:24:6Z</time></trkpt>
<trkpt lat="46.19999499991536" lon="7.032849937677383"><ele></ele><time>2013-7-24T1:24:9Z</time></trkpt>
<trkpt lat="46.199917970225215" lon="7.032853960990906"><ele></ele><time>2013-7-24T1:24:12Z</time></trkpt>
<trkpt lat="46.19986197911203" lon="7.033104998990893"><ele></ele><time>2013-7-24T1:24:15Z</time></trkpt>
<trkpt lat="46.1998219974339" lon="7.033107932657003"><ele></ele><time>2013-7-24T1:24:18Z</time></trkpt>
<trkpt lat="46.19975896552205" lon="7.033113967627287"><ele></ele><time>2013-7-24T1:24:21Z</time></trkpt>
<trkpt lat="46.19966399855912" lon="7.0331149734556675"><ele></ele><time>2013-7-24T1:24:24Z</time></trkpt>
<trkpt lat="46.199595937505364" lon="7.033112961798906"><ele></ele><time>2013-7-24T1:24:27Z</time></trkpt>
<trkpt lat="46.199530977755785" lon="7.033110950142145"><ele></ele><time>2013-7-24T1:24:30Z</time></trkpt>
<trkpt lat="46.199444979429245" lon="7.033107932657003"><ele></ele><time>2013-7-24T1:24:33Z</time></trkpt>
<trkpt lat="46.19936199858785" lon="7.033104998990893"><ele></ele><time>2013-7-24T1:24:36Z</time></trkpt>
<trkpt lat="46.1992659419775" lon="7.033101981505752"><ele></ele><time>2013-7-24T1:24:39Z</time></trkpt>
<trkpt lat="46.19921799749136" lon="7.03309996984899"><ele></ele><time>2013-7-24T1:24:42Z</time></trkpt>
<trkpt lat="46.1991779319942" lon="7.03309896402061"><ele></ele><time>2013-7-24T1:24:45Z</time></trkpt>
<trkpt lat="46.199113978073" lon="7.033096952363849"><ele></ele><time>2013-7-24T1:24:48Z</time></trkpt>
<trkpt lat="46.19902395643294" lon="7.0331379398703575"><ele></ele><time>2013-7-24T1:24:51Z</time></trkpt>
<trkpt lat="46.19893594644964" lon="7.03320792876184"><ele></ele><time>2013-7-24T1:24:54Z</time></trkpt>
<trkpt lat="46.198843996971846" lon="7.033281940966845"><ele></ele><time>2013-7-24T1:24:57Z</time></trkpt>
<trkpt lat="46.198736960068345" lon="7.033366933465004"><ele></ele><time>2013-7-24T1:25:0Z</time></trkpt>
<trkpt lat="46.19865699671209" lon="7.0334309712052345"><ele></ele><time>2013-7-24T1:25:3Z</time></trkpt>
<trkpt lat="46.19857996702194" lon="7.03352996148169"><ele></ele><time>2013-7-24T1:25:6Z</time></trkpt>
<trkpt lat="46.19850997813046" lon="7.033621994778514"><ele></ele><time>2013-7-24T1:25:9Z</time></trkpt>
<trkpt lat="46.19842397980392" lon="7.03372391872108"><ele></ele><time>2013-7-24T1:25:12Z</time></trkpt>
<trkpt lat="46.19833496399224" lon="7.033808995038271"><ele></ele><time>2013-7-24T1:25:15Z</time></trkpt>
<trkpt lat="46.19824795983732" lon="7.033889964222908"><ele></ele><time>2013-7-24T1:25:18Z</time></trkpt>
<trkpt lat="46.198151987046" lon="7.033980991691351"><ele></ele><time>2013-7-24T1:25:21Z</time></trkpt>
<trkpt lat="46.19811192154884" lon="7.034017955884337"><ele></ele><time>2013-7-24T1:25:24Z</time></trkpt>
<trkpt lat="46.198089960962534" lon="7.034038994461298"><ele></ele><time>2013-7-24T1:25:27Z</time></trkpt>
<trkpt lat="46.19808392599225" lon="7.03404494561255"><ele></ele><time>2013-7-24T1:25:30Z</time></trkpt>
<trkpt lat="46.198050985112786" lon="7.0340759586542845"><ele></ele><time>2013-7-24T1:25:33Z</time></trkpt>
<trkpt lat="46.198050985112786" lon="7.0340759586542845"><ele></ele><time>2013-7-24T1:25:36Z</time></trkpt>
<trkpt lat="46.19792399927974" lon="7.034195987507701"><ele></ele><time>2013-7-24T1:25:39Z</time></trkpt>
<trkpt lat="46.19784294627607" lon="7.034271927550435"><ele></ele><time>2013-7-24T1:25:42Z</time></trkpt>
<trkpt lat="46.19775594212115" lon="7.034352980554104"><ele></ele><time>2013-7-24T1:25:45Z</time></trkpt>
<trkpt lat="46.197703974321485" lon="7.034435961395502"><ele></ele><time>2013-7-24T1:25:48Z</time></trkpt>
<trkpt lat="46.19769492186606" lon="7.034456999972463"><ele></ele><time>2013-7-24T1:25:51Z</time></trkpt>
<trkpt lat="46.197686959058046" lon="7.03447594307363"><ele></ele><time>2013-7-24T1:25:54Z</time></trkpt>
<trkpt lat="46.197771951556206" lon="7.034545931965113"><ele></ele><time>2013-7-24T1:25:57Z</time></trkpt>
<trkpt lat="46.197835989296436" lon="7.034513996914029"><ele></ele><time>2013-7-24T1:26:0Z</time></trkpt>
<trkpt lat="46.19792995043099" lon="7.0344549883157015"><ele></ele><time>2013-7-24T1:26:3Z</time></trkpt>
<trkpt lat="46.19802298955619" lon="7.034417940303683"><ele></ele><time>2013-7-24T1:26:6Z</time></trkpt>
<trkpt lat="46.19811192154884" lon="7.034382987767458"><ele></ele><time>2013-7-24T1:26:9Z</time></trkpt>
<trkpt lat="46.19820998981595" lon="7.034342922270298"><ele></ele><time>2013-7-24T1:26:12Z</time></trkpt>
<trkpt lat="46.19829498231411" lon="7.034286931157112"><ele></ele><time>2013-7-24T1:26:15Z</time></trkpt>
<trkpt lat="46.19838399812579" lon="7.034226916730404"><ele></ele><time>2013-7-24T1:26:18Z</time></trkpt>
<trkpt lat="46.198457926511765" lon="7.034175954759121"><ele></ele><time>2013-7-24T1:26:21Z</time></trkpt>
<trkpt lat="46.19852799922228" lon="7.034127926453948"><ele></ele><time>2013-7-24T1:26:24Z</time></trkpt>
<trkpt lat="46.19855398312211" lon="7.0341109950095415"><ele></ele><time>2013-7-24T1:26:27Z</time></trkpt>
<trkpt lat="46.19863394647837" lon="7.034058943390846"><ele></ele><time>2013-7-24T1:26:30Z</time></trkpt>
<trkpt lat="46.19868792593479" lon="7.03404595144093"><ele></ele><time>2013-7-24T1:26:33Z</time></trkpt>
<trkpt lat="46.198714999482036" lon="7.034040922299027"><ele></ele><time>2013-7-24T1:26:36Z</time></trkpt>
<trkpt lat="46.19874299503863" lon="7.034152988344431"><ele></ele><time>2013-7-24T1:26:39Z</time></trkpt>
<trkpt lat="46.1986599303782" lon="7.034255918115377"><ele></ele><time>2013-7-24T1:26:42Z</time></trkpt>
<trkpt lat="46.198605950921774" lon="7.034304952248931"><ele></ele><time>2013-7-24T1:26:45Z</time></trkpt>
<trkpt lat="46.19848491623998" lon="7.0341569278389215"><ele></ele><time>2013-7-24T1:26:48Z</time></trkpt>
<trkpt lat="46.198502937331796" lon="7.034406960010529"><ele></ele><time>2013-7-24T1:26:51Z</time></trkpt>
<trkpt lat="46.198454992845654" lon="7.034480972215533"><ele></ele><time>2013-7-24T1:26:54Z</time></trkpt>
<trkpt lat="46.19840897619724" lon="7.034551966935396"><ele></ele><time>2013-7-24T1:26:57Z</time></trkpt>
<trkpt lat="46.198329934850335" lon="7.034673923626542"><ele></ele><time>2013-7-24T1:27:0Z</time></trkpt>
<trkpt lat="46.198263969272375" lon="7.034758999943733"><ele></ele><time>2013-7-24T1:27:3Z</time></trkpt>
<trkpt lat="46.19821694679558" lon="7.034786995500326"><ele></ele><time>2013-7-24T1:27:6Z</time></trkpt>
<trkpt lat="46.19814796373248" lon="7.034827983006835"><ele></ele><time>2013-7-24T1:27:9Z</time></trkpt>
<trkpt lat="46.198093984276056" lon="7.034860923886299"><ele></ele><time>2013-7-24T1:27:12Z</time></trkpt>
<trkpt lat="46.19801796041429" lon="7.034913981333375"><ele></ele><time>2013-7-24T1:27:15Z</time></trkpt>
<trkpt lat="46.19799993932247" lon="7.0349279791116714"><ele></ele><time>2013-7-24T1:27:18Z</time></trkpt>
<trkpt lat="46.198028940707445" lon="7.035038955509663"><ele></ele><time>2013-7-24T1:27:21Z</time></trkpt>
<trkpt lat="46.19805693626404" lon="7.035045996308327"><ele></ele><time>2013-7-24T1:27:24Z</time></trkpt>
<trkpt lat="46.198156932368875" lon="7.035016994923353"><ele></ele><time>2013-7-24T1:27:27Z</time></trkpt>
<trkpt lat="46.19823597371578" lon="7.034984976053238"><ele></ele><time>2013-7-24T1:27:30Z</time></trkpt>
<trkpt lat="46.198264975100756" lon="7.034757994115353"><ele></ele><time>2013-7-24T1:27:33Z</time></trkpt>
<trkpt lat="46.198282996192575" lon="7.034747935831547"><ele></ele><time>2013-7-24T1:27:36Z</time></trkpt>
<trkpt lat="46.198348961770535" lon="7.034644922241569"><ele></ele><time>2013-7-24T1:27:39Z</time></trkpt>
<trkpt lat="46.19837896898389" lon="7.0345989894121885"><ele></ele><time>2013-7-24T1:27:42Z</time></trkpt>
<trkpt lat="46.19838894344866" lon="7.034582979977131"><ele></ele><time>2013-7-24T1:27:45Z</time></trkpt>
<trkpt lat="46.19853797368705" lon="7.034843992441893"><ele></ele><time>2013-7-24T1:27:48Z</time></trkpt>
<trkpt lat="46.19860393926501" lon="7.034809961915016"><ele></ele><time>2013-7-24T1:27:51Z</time></trkpt>
<trkpt lat="46.19870695285499" lon="7.034756988286972"><ele></ele><time>2013-7-24T1:27:54Z</time></trkpt>
<trkpt lat="46.19878892786801" lon="7.0347159169614315"><ele></ele><time>2013-7-24T1:27:57Z</time></trkpt>
<trkpt lat="46.19878892786801" lon="7.0347159169614315"><ele></ele><time>2013-7-24T1:28:0Z</time></trkpt>
<trkpt lat="46.1989239603281" lon="7.03464693389833"><ele></ele><time>2013-7-24T1:28:3Z</time></trkpt>
<trkpt lat="46.198953967541456" lon="7.034631930291653"><ele></ele><time>2013-7-24T1:28:6Z</time></trkpt>
<trkpt lat="46.19903493672609" lon="7.034590942785144"><ele></ele><time>2013-7-24T1:28:9Z</time></trkpt>
<trkpt lat="46.19915999472141" lon="7.034526988863945"><ele></ele><time>2013-7-24T1:28:12Z</time></trkpt>
<trkpt lat="46.19924196973443" lon="7.034484995529056"><ele></ele><time>2013-7-24T1:28:15Z</time></trkpt>
<trkpt lat="46.19927893392742" lon="7.034465968608856"><ele></ele><time>2013-7-24T1:28:18Z</time></trkpt>
<trkpt lat="46.199363926425576" lon="7.034422969445586"><ele></ele><time>2013-7-24T1:28:21Z</time></trkpt>
<trkpt lat="46.199363926425576" lon="7.034422969445586"><ele></ele><time>2013-7-24T1:28:24Z</time></trkpt>
<trkpt lat="46.19941991753876" lon="7.034393968060613"><ele></ele><time>2013-7-24T1:28:27Z</time></trkpt>
<trkpt lat="46.19941991753876" lon="7.034393968060613"><ele></ele><time>2013-7-24T1:28:30Z</time></trkpt>
<trkpt lat="46.19941991753876" lon="7.034393968060613"><ele></ele><time>2013-7-24T1:28:33Z</time></trkpt>
<trkpt lat="46.19961395859718" lon="7.034276956692338"><ele></ele><time>2013-7-24T1:28:36Z</time></trkpt>
<trkpt lat="46.199637930840254" lon="7.0342599414289"><ele></ele><time>2013-7-24T1:28:39Z</time></trkpt>
<trkpt lat="46.19967598468065" lon="7.034231945872307"><ele></ele><time>2013-7-24T1:28:42Z</time></trkpt>
<trkpt lat="46.199789978563786" lon="7.0341569278389215"><ele></ele><time>2013-7-24T1:28:45Z</time></trkpt>
<trkpt lat="46.19984194636345" lon="7.034134967252612"><ele></ele><time>2013-7-24T1:28:48Z</time></trkpt>
<trkpt lat="46.19992593303323" lon="7.034106971696019"><ele></ele><time>2013-7-24T1:28:51Z</time></trkpt>
<trkpt lat="46.199942948296666" lon="7.034109989181161"><ele></ele><time>2013-7-24T1:28:54Z</time></trkpt>
<trkpt lat="46.2000069860369" lon="7.034124992787838"><ele></ele><time>2013-7-24T1:28:57Z</time></trkpt>
<trkpt lat="46.20008694939315" lon="7.0341419242322445"><ele></ele><time>2013-7-24T1:29:0Z</time></trkpt>
<trkpt lat="46.200157944113016" lon="7.03419397585094"><ele></ele><time>2013-7-24T1:29:3Z</time></trkpt>
<trkpt lat="46.20026699267328" lon="7.034254996106029"><ele></ele><time>2013-7-24T1:29:6Z</time></trkpt>
<trkpt lat="46.20037696324289" lon="7.03430294059217"><ele></ele><time>2013-7-24T1:29:9Z</time></trkpt>
<trkpt lat="46.20048592798412" lon="7.034321967512369"><ele></ele><time>2013-7-24T1:29:12Z</time></trkpt>
<trkpt lat="46.20064493268728" lon="7.034349963068962"><ele></ele><time>2013-7-24T1:29:15Z</time></trkpt>
<trkpt lat="46.200776947662234" lon="7.034373935312033"><ele></ele><time>2013-7-24T1:29:18Z</time></trkpt>
<trkpt lat="46.20089697651565" lon="7.034394973888993"><ele></ele><time>2013-7-24T1:29:21Z</time></trkpt>
<trkpt lat="46.20106193237007" lon="7.034423975273967"><ele></ele><time>2013-7-24T1:29:24Z</time></trkpt>
<trkpt lat="46.201208950951695" lon="7.0344149228185415"><ele></ele><time>2013-7-24T1:29:27Z</time></trkpt>
<trkpt lat="46.201357981190085" lon="7.034377958625555"><ele></ele><time>2013-7-24T1:29:30Z</time></trkpt>
<trkpt lat="46.20147096924484" lon="7.034275950863957"><ele></ele><time>2013-7-24T1:29:33Z</time></trkpt>
<trkpt lat="46.201555961743" lon="7.034198921173811"><ele></ele><time>2013-7-24T1:29:36Z</time></trkpt>
<trkpt lat="46.20162192732096" lon="7.03417394310236"><ele></ele><time>2013-7-24T1:29:39Z</time></trkpt>
<trkpt lat="46.201701974496245" lon="7.034152988344431"><ele></ele><time>2013-7-24T1:29:42Z</time></trkpt>
<trkpt lat="46.20182292535901" lon="7.03408794477582"><ele></ele><time>2013-7-24T1:29:45Z</time></trkpt>
<trkpt lat="46.20186693035066" lon="7.034011920914054"><ele></ele><time>2013-7-24T1:29:48Z</time></trkpt>
<trkpt lat="46.201894925907254" lon="7.033956935629249"><ele></ele><time>2013-7-24T1:29:51Z</time></trkpt>
<trkpt lat="46.20196592062712" lon="7.03376499004662"><ele></ele><time>2013-7-24T1:29:54Z</time></trkpt>
<trkpt lat="46.20201897807419" lon="7.033628951758146"><ele></ele><time>2013-7-24T1:29:57Z</time></trkpt>
<trkpt lat="46.202073963359" lon="7.033573966473341"><ele></ele><time>2013-7-24T1:30:0Z</time></trkpt>
<trkpt lat="46.2021239195019" lon="7.0335249323397875"><ele></ele><time>2013-7-24T1:30:3Z</time></trkpt>
<trkpt lat="46.20219994336367" lon="7.033447986468673"><ele></ele><time>2013-7-24T1:30:6Z</time></trkpt>
<trkpt lat="46.2022449541837" lon="7.033360982313752"><ele></ele><time>2013-7-24T1:30:9Z</time></trkpt>
<trkpt lat="46.20225694030523" lon="7.033335920423269"><ele></ele><time>2013-7-24T1:30:12Z</time></trkpt>
<trkpt lat="46.202302956953645" lon="7.033236930146813"><ele></ele><time>2013-7-24T1:30:15Z</time></trkpt>
<trkpt lat="46.202366994693875" lon="7.033130982890725"><ele></ele><time>2013-7-24T1:30:18Z</time></trkpt>
<trkpt lat="46.20243597775698" lon="7.03307599760592"><ele></ele><time>2013-7-24T1:30:21Z</time></trkpt>
<trkpt lat="46.202498925849795" lon="7.033039955422282"><ele></ele><time>2013-7-24T1:30:24Z</time></trkpt>
<trkpt lat="46.20257595553994" lon="7.033007936552167"><ele></ele><time>2013-7-24T1:30:27Z</time></trkpt>
<trkpt lat="46.20267695747316" lon="7.033000979572535"><ele></ele><time>2013-7-24T1:30:30Z</time></trkpt>
<trkpt lat="46.20277293026447" lon="7.032994944602251"><ele></ele><time>2013-7-24T1:30:33Z</time></trkpt>
<trkpt lat="46.20284694246948" lon="7.03298999927938"><ele></ele><time>2013-7-24T1:30:36Z</time></trkpt>
<trkpt lat="46.2028649635613" lon="7.032988993450999"><ele></ele><time>2013-7-24T1:30:39Z</time></trkpt>
<trkpt lat="46.20295498520136" lon="7.033016989007592"><ele></ele><time>2013-7-24T1:30:42Z</time></trkpt>
<trkpt lat="46.20303897187114" lon="7.033047918230295"><ele></ele><time>2013-7-24T1:30:45Z</time></trkpt>
<trkpt lat="46.20311398990452" lon="7.03307893127203"><ele></ele><time>2013-7-24T1:30:48Z</time></trkpt>
<trkpt lat="46.20316696353257" lon="7.033158978447318"><ele></ele><time>2013-7-24T1:30:51Z</time></trkpt>
<trkpt lat="46.20317199267447" lon="7.0331659354269505"><ele></ele><time>2013-7-24T1:30:54Z</time></trkpt>
<trkpt lat="46.20319998823106" lon="7.03320792876184"><ele></ele><time>2013-7-24T1:30:57Z</time></trkpt>
<trkpt lat="46.20325396768749" lon="7.033306919038296"><ele></ele><time>2013-7-24T1:31:0Z</time></trkpt>
<trkpt lat="46.2032859865576" lon="7.033393923193216"><ele></ele><time>2013-7-24T1:31:3Z</time></trkpt>
<trkpt lat="46.20332093909383" lon="7.033490985631943"><ele></ele><time>2013-7-24T1:31:6Z</time></trkpt>
<trkpt lat="46.20335094630718" lon="7.033543959259987"><ele></ele><time>2013-7-24T1:31:9Z</time></trkpt>
<trkpt lat="46.20335094630718" lon="7.033543959259987"><ele></ele><time>2013-7-24T1:31:12Z</time></trkpt>
<trkpt lat="46.20335094630718" lon="7.033543959259987"><ele></ele><time>2013-7-24T1:31:15Z</time></trkpt>
<trkpt lat="46.20335094630718" lon="7.033543959259987"><ele></ele><time>2013-7-24T1:31:18Z</time></trkpt>
<trkpt lat="46.20356795378029" lon="7.033819975331426"><ele></ele><time>2013-7-24T1:31:21Z</time></trkpt>
<trkpt lat="46.203575916588306" lon="7.033828943967819"><ele></ele><time>2013-7-24T1:31:24Z</time></trkpt>
<trkpt lat="46.203575916588306" lon="7.033828943967819"><ele></ele><time>2013-7-24T1:31:27Z</time></trkpt>
<trkpt lat="46.20362495072186" lon="7.033881917595863"><ele></ele><time>2013-7-24T1:31:30Z</time></trkpt>
<trkpt lat="46.20364892296493" lon="7.033906979486346"><ele></ele><time>2013-7-24T1:31:33Z</time></trkpt>
<trkpt lat="46.203846987336874" lon="7.034019967541099"><ele></ele><time>2013-7-24T1:31:36Z</time></trkpt>
<trkpt lat="46.20400699786842" lon="7.034060955047607"><ele></ele><time>2013-7-24T1:31:39Z</time></trkpt>
<trkpt lat="46.20405695401132" lon="7.034060955047607"><ele></ele><time>2013-7-24T1:31:42Z</time></trkpt>
<trkpt lat="46.20411596260965" lon="7.034060955047607"><ele></ele><time>2013-7-24T1:31:45Z</time></trkpt>
<trkpt lat="46.20424998924136" lon="7.034060955047607"><ele></ele><time>2013-7-24T1:31:48Z</time></trkpt>
<trkpt lat="46.20433397591114" lon="7.034060955047607"><ele></ele><time>2013-7-24T1:31:51Z</time></trkpt>
<trkpt lat="46.204409999772906" lon="7.034079981967807"><ele></ele><time>2013-7-24T1:31:54Z</time></trkpt>
<trkpt lat="46.20450094342232" lon="7.034112922847271"><ele></ele><time>2013-7-24T1:31:57Z</time></trkpt>
<trkpt lat="46.204577973112464" lon="7.034139996394515"><ele></ele><time>2013-7-24T1:32:0Z</time></trkpt>
<trkpt lat="46.20466296561062" lon="7.034170925617218"><ele></ele><time>2013-7-24T1:32:3Z</time></trkpt>
<trkpt lat="46.20476497337222" lon="7.034206967800856"><ele></ele><time>2013-7-24T1:32:6Z</time></trkpt>
<trkpt lat="46.20484795421362" lon="7.034235969185829"><ele></ele><time>2013-7-24T1:32:9Z</time></trkpt>
<trkpt lat="46.20496194809675" lon="7.034275950863957"><ele></ele><time>2013-7-24T1:32:12Z</time></trkpt>
<trkpt lat="46.20502196252346" lon="7.034298917278647"><ele></ele><time>2013-7-24T1:32:15Z</time></trkpt>
<trkpt lat="46.20509094558656" lon="7.034387933090329"><ele></ele><time>2013-7-24T1:32:18Z</time></trkpt>
<trkpt lat="46.205160934478045" lon="7.034476948902011"><ele></ele><time>2013-7-24T1:32:21Z</time></trkpt>
<trkpt lat="46.20525095611811" lon="7.034592954441905"><ele></ele><time>2013-7-24T1:32:24Z</time></trkpt>
<trkpt lat="46.20531893335283" lon="7.034680964425206"><ele></ele><time>2013-7-24T1:32:27Z</time></trkpt>
<trkpt lat="46.20536293834448" lon="7.034742990508676"><ele></ele><time>2013-7-24T1:32:30Z</time></trkpt>
<trkpt lat="46.205394957214594" lon="7.034786995500326"><ele></ele><time>2013-7-24T1:32:33Z</time></trkpt>
<trkpt lat="46.20547098107636" lon="7.034892942756414"><ele></ele><time>2013-7-24T1:32:36Z</time></trkpt>
<trkpt lat="46.20553996413946" lon="7.034989921376109"><ele></ele><time>2013-7-24T1:32:39Z</time></trkpt>
<trkpt lat="46.205591931939125" lon="7.035062927752733"><ele></ele><time>2013-7-24T1:32:42Z</time></trkpt>
<trkpt lat="46.20564297772944" lon="7.035134928300977"><ele></ele><time>2013-7-24T1:32:45Z</time></trkpt>
<trkpt lat="46.20573392137885" lon="7.035262919962406"><ele></ele><time>2013-7-24T1:32:48Z</time></trkpt>
<trkpt lat="46.20582092553377" lon="7.035386972129345"><ele></ele><time>2013-7-24T1:32:51Z</time></trkpt>
<trkpt lat="46.20588395744562" lon="7.035475987941027"><ele></ele><time>2013-7-24T1:32:54Z</time></trkpt>
<trkpt lat="46.20592695660889" lon="7.035534996539354"><ele></ele><time>2013-7-24T1:32:57Z</time></trkpt>
<trkpt lat="46.20600893162191" lon="7.035649996250868"><ele></ele><time>2013-7-24T1:33:0Z</time></trkpt>
<trkpt lat="46.20606894604862" lon="7.035733982920647"><ele></ele><time>2013-7-24T1:33:3Z</time></trkpt>
<trkpt lat="46.20610096491873" lon="7.035776982083917"><ele></ele><time>2013-7-24T1:33:6Z</time></trkpt>
<trkpt lat="46.20619995519519" lon="7.03591494821012"><ele></ele><time>2013-7-24T1:33:9Z</time></trkpt>
<trkpt lat="46.20627195574343" lon="7.036014944314957"><ele></ele><time>2013-7-24T1:33:12Z</time></trkpt>
<trkpt lat="46.20630699209869" lon="7.036064984276891"><ele></ele><time>2013-7-24T1:33:15Z</time></trkpt>
<trkpt lat="46.20632794685662" lon="7.036093985661864"><ele></ele><time>2013-7-24T1:33:18Z</time></trkpt>
<trkpt lat="46.20638896711171" lon="7.036177972331643"><ele></ele><time>2013-7-24T1:33:21Z</time></trkpt>
<trkpt lat="46.2064859457314" lon="7.036323985084891"><ele></ele><time>2013-7-24T1:33:24Z</time></trkpt>
<trkpt lat="46.206556940451264" lon="7.03642993234098"><ele></ele><time>2013-7-24T1:33:27Z</time></trkpt>
<trkpt lat="46.20656699873507" lon="7.036443930119276"><ele></ele><time>2013-7-24T1:33:30Z</time></trkpt>
<trkpt lat="46.2066569365561" lon="7.036588937044144"><ele></ele><time>2013-7-24T1:33:33Z</time></trkpt>
<trkpt lat="46.20667495764792" lon="7.036619950085878"><ele></ele><time>2013-7-24T1:33:36Z</time></trkpt>
<trkpt lat="46.20677595958114" lon="7.036789935082197"><ele></ele><time>2013-7-24T1:33:39Z</time></trkpt>
<trkpt lat="46.20688894763589" lon="7.036980958655477"><ele></ele><time>2013-7-24T1:33:42Z</time></trkpt>
<trkpt lat="46.206966983154416" lon="7.037096964195371"><ele></ele><time>2013-7-24T1:33:45Z</time></trkpt>
<trkpt lat="46.20704292319715" lon="7.037151949480176"><ele></ele><time>2013-7-24T1:33:48Z</time></trkpt>
<trkpt lat="46.207177955657244" lon="7.0372669491916895"><ele></ele><time>2013-7-24T1:33:51Z</time></trkpt>
<trkpt lat="46.20729496702552" lon="7.037365939468145"><ele></ele><time>2013-7-24T1:33:54Z</time></trkpt>
<trkpt lat="46.207309970632195" lon="7.037397958338261"><ele></ele><time>2013-7-24T1:33:57Z</time></trkpt>
<trkpt lat="46.207395968958735" lon="7.037574984133244"><ele></ele><time>2013-7-24T1:34:0Z</time></trkpt>
<trkpt lat="46.20745397172868" lon="7.037695934996009"><ele></ele><time>2013-7-24T1:34:3Z</time></trkpt>
<trkpt lat="46.20745397172868" lon="7.037695934996009"><ele></ele><time>2013-7-24T1:34:6Z</time></trkpt>
<trkpt lat="46.20747794397175" lon="7.037745974957943"><ele></ele><time>2013-7-24T1:34:9Z</time></trkpt>
<trkpt lat="46.207568971440196" lon="7.037924928590655"><ele></ele><time>2013-7-24T1:34:12Z</time></trkpt>
<trkpt lat="46.20760392397642" lon="7.03797597438097"><ele></ele><time>2013-7-24T1:34:15Z</time></trkpt>
<trkpt lat="46.20766595005989" lon="7.038063984364271"><ele></ele><time>2013-7-24T1:34:18Z</time></trkpt>
<trkpt lat="46.20769897475839" lon="7.038110923022032"><ele></ele><time>2013-7-24T1:34:21Z</time></trkpt>
<trkpt lat="46.20769897475839" lon="7.038110923022032"><ele></ele><time>2013-7-24T1:34:24Z</time></trkpt>
<trkpt lat="46.20769897475839" lon="7.038110923022032"><ele></ele><time>2013-7-24T1:34:27Z</time></trkpt>
<trkpt lat="46.20773493312299" lon="7.038162974640727"><ele></ele><time>2013-7-24T1:34:30Z</time></trkpt>
<trkpt lat="46.20773493312299" lon="7.038162974640727"><ele></ele><time>2013-7-24T1:34:33Z</time></trkpt>
<trkpt lat="46.207932997494936" lon="7.037959964945912"><ele></ele><time>2013-7-24T1:34:36Z</time></trkpt>
<trkpt lat="46.207975996658206" lon="7.038048980757594"><ele></ele><time>2013-7-24T1:34:39Z</time></trkpt>
<trkpt lat="46.20793794281781" lon="7.038080999627709"><ele></ele><time>2013-7-24T1:34:42Z</time></trkpt>
<trkpt lat="46.20794892311096" lon="7.038071947172284"><ele></ele><time>2013-7-24T1:34:45Z</time></trkpt>
<trkpt lat="46.2079709675163" lon="7.038072953000665"><ele></ele><time>2013-7-24T1:34:48Z</time></trkpt>
<trkpt lat="46.208058977499604" lon="7.0380049757659435"><ele></ele><time>2013-7-24T1:34:51Z</time></trkpt>
<trkpt lat="46.208059983327985" lon="7.037987960502505"><ele></ele><time>2013-7-24T1:34:54Z</time></trkpt>
<trkpt lat="46.208059983327985" lon="7.037990977987647"><ele></ele><time>2013-7-24T1:34:57Z</time></trkpt>
<trkpt lat="46.20806694030762" lon="7.037856951355934"><ele></ele><time>2013-7-24T1:35:0Z</time></trkpt>
<trkpt lat="46.20806694030762" lon="7.0377039816230536"><ele></ele><time>2013-7-24T1:35:3Z</time></trkpt>
<trkpt lat="46.20806593447924" lon="7.037564925849438"><ele></ele><time>2013-7-24T1:35:6Z</time></trkpt>
<trkpt lat="46.2080539483577" lon="7.037426959723234"><ele></ele><time>2013-7-24T1:35:9Z</time></trkpt>
<trkpt lat="46.20804598554969" lon="7.037343978881836"><ele></ele><time>2013-7-24T1:35:12Z</time></trkpt>
<trkpt lat="46.20803399942815" lon="7.037213975563645"><ele></ele><time>2013-7-24T1:35:15Z</time></trkpt>
<trkpt lat="46.20803098194301" lon="7.037176927551627"><ele></ele><time>2013-7-24T1:35:18Z</time></trkpt>
<trkpt lat="46.20802494697273" lon="7.037096964195371"><ele></ele><time>2013-7-24T1:35:21Z</time></trkpt>
<trkpt lat="46.20802494697273" lon="7.036980958655477"><ele></ele><time>2013-7-24T1:35:24Z</time></trkpt>
<trkpt lat="46.20802494697273" lon="7.036929996684194"><ele></ele><time>2013-7-24T1:35:27Z</time></trkpt>
<trkpt lat="46.20802494697273" lon="7.036802927032113"><ele></ele><time>2013-7-24T1:35:30Z</time></trkpt>
<trkpt lat="46.20802494697273" lon="7.036702930927277"><ele></ele><time>2013-7-24T1:35:33Z</time></trkpt>
<trkpt lat="46.20802494697273" lon="7.03664492815733"><ele></ele><time>2013-7-24T1:35:36Z</time></trkpt>
<trkpt lat="46.20802494697273" lon="7.036585919559002"><ele></ele><time>2013-7-24T1:35:39Z</time></trkpt>
<trkpt lat="46.20802494697273" lon="7.036513919010758"><ele></ele><time>2013-7-24T1:35:42Z</time></trkpt>
<trkpt lat="46.20802494697273" lon="7.036372935399413"><ele></ele><time>2013-7-24T1:35:45Z</time></trkpt>
<trkpt lat="46.20804992504418" lon="7.036232957616448"><ele></ele><time>2013-7-24T1:35:48Z</time></trkpt>
<trkpt lat="46.208058977499604" lon="7.036197921261191"><ele></ele><time>2013-7-24T1:35:51Z</time></trkpt>
<trkpt lat="46.20806995779276" lon="7.036153916269541"><ele></ele><time>2013-7-24T1:35:54Z</time></trkpt>
<trkpt lat="46.208102982491255" lon="7.036060960963368"><ele></ele><time>2013-7-24T1:35:57Z</time></trkpt>
<trkpt lat="46.20813793502748" lon="7.03601997345686"><ele></ele><time>2013-7-24T1:36:0Z</time></trkpt>
<trkpt lat="46.208167942240834" lon="7.0359849371016026"><ele></ele><time>2013-7-24T1:36:3Z</time></trkpt>
<trkpt lat="46.208167942240834" lon="7.0359849371016026"><ele></ele><time>2013-7-24T1:36:6Z</time></trkpt>
<trkpt lat="46.208167942240834" lon="7.0359849371016026"><ele></ele><time>2013-7-24T1:36:9Z</time></trkpt>
<trkpt lat="46.20821798220277" lon="7.035927940160036"><ele></ele><time>2013-7-24T1:36:12Z</time></trkpt>
<trkpt lat="46.20825997553766" lon="7.035799948498607"><ele></ele><time>2013-7-24T1:36:15Z</time></trkpt>
<trkpt lat="46.20831093750894" lon="7.035665921866894"><ele></ele><time>2013-7-24T1:36:18Z</time></trkpt>
<trkpt lat="46.20838696137071" lon="7.035497948527336"><ele></ele><time>2013-7-24T1:36:21Z</time></trkpt>
<trkpt lat="46.208383943885565" lon="7.035488979890943"><ele></ele><time>2013-7-24T1:36:24Z</time></trkpt>
<trkpt lat="46.20841093361378" lon="7.035562992095947"><ele></ele><time>2013-7-24T1:36:27Z</time></trkpt>
<trkpt lat="46.20841696858406" lon="7.035565925762057"><ele></ele><time>2013-7-24T1:36:30Z</time></trkpt>
<trkpt lat="46.20841093361378" lon="7.035562992095947"><ele></ele><time>2013-7-24T1:36:33Z</time></trkpt>
<trkpt lat="46.20841093361378" lon="7.035562992095947"><ele></ele><time>2013-7-24T1:36:36Z</time></trkpt>
<trkpt lat="46.20841093361378" lon="7.035562992095947"><ele></ele><time>2013-7-24T1:36:39Z</time></trkpt>
<trkpt lat="46.20849894359708" lon="7.035864992067218"><ele></ele><time>2013-7-24T1:36:42Z</time></trkpt>
<trkpt lat="46.20850598439574" lon="7.035985942929983"><ele></ele><time>2013-7-24T1:36:45Z</time></trkpt>
<trkpt lat="46.208513947203755" lon="7.036122987046838"><ele></ele><time>2013-7-24T1:36:48Z</time></trkpt>
<trkpt lat="46.20841093361378" lon="7.035562992095947"><ele></ele><time>2013-7-24T1:36:51Z</time></trkpt>
<trkpt lat="46.208510929718614" lon="7.036065990105271"><ele></ele><time>2013-7-24T1:36:54Z</time></trkpt>
<trkpt lat="46.20848695747554" lon="7.035777987912297"><ele></ele><time>2013-7-24T1:36:57Z</time></trkpt>
<trkpt lat="46.20832392945886" lon="7.035637926310301"><ele></ele><time>2013-7-24T1:37:0Z</time></trkpt>
<trkpt lat="46.20851797051728" lon="7.0362279284745455"><ele></ele><time>2013-7-24T1:37:3Z</time></trkpt>
<trkpt lat="46.20823994278908" lon="7.035861974582076"><ele></ele><time>2013-7-24T1:37:6Z</time></trkpt>
<trkpt lat="46.20807699859142" lon="7.036126926541328"><ele></ele><time>2013-7-24T1:37:9Z</time></trkpt>
<trkpt lat="46.20802494697273" lon="7.036514924839139"><ele></ele><time>2013-7-24T1:37:12Z</time></trkpt>
<trkpt lat="46.20802494697273" lon="7.036832934245467"><ele></ele><time>2013-7-24T1:37:15Z</time></trkpt>
<trkpt lat="46.20805093087256" lon="7.037393935024738"><ele></ele><time>2013-7-24T1:37:18Z</time></trkpt>
<trkpt lat="46.20805093087256" lon="7.038125926628709"><ele></ele><time>2013-7-24T1:37:21Z</time></trkpt>
<trkpt lat="46.208018995821476" lon="7.038327930495143"><ele></ele><time>2013-7-24T1:37:24Z</time></trkpt>
<trkpt lat="46.20781699195504" lon="7.038279986009002"><ele></ele><time>2013-7-24T1:37:27Z</time></trkpt>
<trkpt lat="46.20775396004319" lon="7.038189964368939"><ele></ele><time>2013-7-24T1:37:30Z</time></trkpt>
<trkpt lat="46.20762596838176" lon="7.038005981594324"><ele></ele><time>2013-7-24T1:37:33Z</time></trkpt>
<trkpt lat="46.207351963967085" lon="7.037484962493181"><ele></ele><time>2013-7-24T1:37:36Z</time></trkpt>
<trkpt lat="46.2070369720459" lon="7.037147926166654"><ele></ele><time>2013-7-24T1:37:39Z</time></trkpt>
<trkpt lat="46.20691694319248" lon="7.037026975303888"><ele></ele><time>2013-7-24T1:37:42Z</time></trkpt>
<trkpt lat="46.20652995072305" lon="7.036389950662851"><ele></ele><time>2013-7-24T1:37:45Z</time></trkpt>
<trkpt lat="46.206190986558795" lon="7.035902962088585"><ele></ele><time>2013-7-24T1:37:48Z</time></trkpt>
<trkpt lat="46.20589996688068" lon="7.035497948527336"><ele></ele><time>2013-7-24T1:37:51Z</time></trkpt>
<trkpt lat="46.20568295940757" lon="7.035190919414163"><ele></ele><time>2013-7-24T1:37:54Z</time></trkpt>
<trkpt lat="46.20560391806066" lon="7.035078937187791"><ele></ele><time>2013-7-24T1:37:57Z</time></trkpt>
<trkpt lat="46.20551699772477" lon="7.034957986325026"><ele></ele><time>2013-7-24T1:38:0Z</time></trkpt>
<trkpt lat="46.20549093000591" lon="7.034921944141388"><ele></ele><time>2013-7-24T1:38:3Z</time></trkpt>
<trkpt lat="46.20531499385834" lon="7.034675935283303"><ele></ele><time>2013-7-24T1:38:6Z</time></trkpt>
<trkpt lat="46.20518499054015" lon="7.034507961943746"><ele></ele><time>2013-7-24T1:38:9Z</time></trkpt>
<trkpt lat="46.204923978075385" lon="7.0342629589140415"><ele></ele><time>2013-7-24T1:38:12Z</time></trkpt>
<trkpt lat="46.20456397533417" lon="7.034134967252612"><ele></ele><time>2013-7-24T1:38:15Z</time></trkpt>
<trkpt lat="46.204148987308145" lon="7.034060955047607"><ele></ele><time>2013-7-24T1:38:18Z</time></trkpt>
<trkpt lat="46.20368798263371" lon="7.033949978649616"><ele></ele><time>2013-7-24T1:38:21Z</time></trkpt>
<trkpt lat="46.203354969620705" lon="7.033550916239619"><ele></ele><time>2013-7-24T1:38:24Z</time></trkpt>
<trkpt lat="46.20301499962807" lon="7.033038949593902"><ele></ele><time>2013-7-24T1:38:27Z</time></trkpt>
<trkpt lat="46.20291793718934" lon="7.033003997057676"><ele></ele><time>2013-7-24T1:38:30Z</time></trkpt>
<trkpt lat="46.202708976343274" lon="7.032998967915773"><ele></ele><time>2013-7-24T1:38:33Z</time></trkpt>
<trkpt lat="46.20244595222175" lon="7.033070968464017"><ele></ele><time>2013-7-24T1:38:36Z</time></trkpt>
<trkpt lat="46.20227294974029" lon="7.0333019737154245"><ele></ele><time>2013-7-24T1:38:39Z</time></trkpt>
<trkpt lat="46.202218970283866" lon="7.033417979255319"><ele></ele><time>2013-7-24T1:38:42Z</time></trkpt>
<trkpt lat="46.201890986412764" lon="7.033964982256293"><ele></ele><time>2013-7-24T1:38:45Z</time></trkpt>
<trkpt lat="46.20170499198139" lon="7.03415198251605"><ele></ele><time>2013-7-24T1:38:48Z</time></trkpt>
<trkpt lat="46.20138295926154" lon="7.034355998039246"><ele></ele><time>2013-7-24T1:38:51Z</time></trkpt>
<trkpt lat="46.20113292708993" lon="7.034420957788825"><ele></ele><time>2013-7-24T1:38:54Z</time></trkpt>
<trkpt lat="46.20046899653971" lon="7.034318950027227"><ele></ele><time>2013-7-24T1:38:57Z</time></trkpt>
<trkpt lat="46.20022994466126" lon="7.034233957529068"><ele></ele><time>2013-7-24T1:39:0Z</time></trkpt>
<trkpt lat="46.1997649166733" lon="7.034167991951108"><ele></ele><time>2013-7-24T1:39:3Z</time></trkpt>
<trkpt lat="46.19965494610369" lon="7.034246949478984"><ele></ele><time>2013-7-24T1:39:6Z</time></trkpt>
<trkpt lat="46.19896494783461" lon="7.034625979140401"><ele></ele><time>2013-7-24T1:39:9Z</time></trkpt>
<trkpt lat="46.19835893623531" lon="7.034934936091304"><ele></ele><time>2013-7-24T1:39:12Z</time></trkpt>
<trkpt lat="46.19811996817589" lon="7.035029986873269"><ele></ele><time>2013-7-24T1:39:15Z</time></trkpt>
<trkpt lat="46.19804293848574" lon="7.035045996308327"><ele></ele><time>2013-7-24T1:39:18Z</time></trkpt>
<trkpt lat="46.19834695011377" lon="7.036099936813116"><ele></ele><time>2013-7-24T1:39:21Z</time></trkpt>
<trkpt lat="46.19812097400427" lon="7.034844998270273"><ele></ele><time>2013-7-24T1:39:24Z</time></trkpt>
<trkpt lat="46.198336975649" lon="7.034662943333387"><ele></ele><time>2013-7-24T1:39:27Z</time></trkpt>
<trkpt lat="46.19870594702661" lon="7.034213924780488"><ele></ele><time>2013-7-24T1:39:30Z</time></trkpt>
<trkpt lat="46.19941991753876" lon="7.034918926656246"><ele></ele><time>2013-7-24T1:39:33Z</time></trkpt>
<trkpt lat="46.19866395369172" lon="7.034251978620887"><ele></ele><time>2013-7-24T1:39:36Z</time></trkpt>
<trkpt lat="46.19851894676685" lon="7.034382987767458"><ele></ele><time>2013-7-24T1:39:39Z</time></trkpt>
<trkpt lat="46.19831895455718" lon="7.034691944718361"><ele></ele><time>2013-7-24T1:39:42Z</time></trkpt>
<trkpt lat="46.19775393046439" lon="7.034341916441917"><ele></ele><time>2013-7-24T1:39:45Z</time></trkpt>
<trkpt lat="46.19787999428809" lon="7.034480972215533"><ele></ele><time>2013-7-24T1:39:48Z</time></trkpt>
<trkpt lat="46.19802491739392" lon="7.034416934475303"><ele></ele><time>2013-7-24T1:39:51Z</time></trkpt>
<trkpt lat="46.19820898398757" lon="7.0339269284158945"><ele></ele><time>2013-7-24T1:39:54Z</time></trkpt>
<trkpt lat="46.19838198646903" lon="7.03376398421824"><ele></ele><time>2013-7-24T1:39:57Z</time></trkpt>
<trkpt lat="46.19855096563697" lon="7.0335679315030575"><ele></ele><time>2013-7-24T1:40:0Z</time></trkpt>
<trkpt lat="46.198953967541456" lon="7.033193930983543"><ele></ele><time>2013-7-24T1:40:3Z</time></trkpt>
<trkpt lat="46.19905195198953" lon="7.0331149734556675"><ele></ele><time>2013-7-24T1:40:6Z</time></trkpt>
<trkpt lat="46.19940499775112" lon="7.033105921000242"><ele></ele><time>2013-7-24T1:40:9Z</time></trkpt>
<trkpt lat="46.19950792752206" lon="7.033109944313765"><ele></ele><time>2013-7-24T1:40:12Z</time></trkpt>
<trkpt lat="46.20018593966961" lon="7.033042972907424"><ele></ele><time>2013-7-24T1:40:15Z</time></trkpt>
<trkpt lat="46.200411999598145" lon="7.032917998731136"><ele></ele><time>2013-7-24T1:40:18Z</time></trkpt>
<trkpt lat="46.200454998761415" lon="7.032674923539162"><ele></ele><time>2013-7-24T1:40:21Z</time></trkpt>
<trkpt lat="46.20040495879948" lon="7.032773997634649"><ele></ele><time>2013-7-24T1:40:24Z</time></trkpt>
<trkpt lat="46.200279984623194" lon="7.032815990969539"><ele></ele><time>2013-7-24T1:40:27Z</time></trkpt>
<trkpt lat="46.20003699325025" lon="7.032846920192242"><ele></ele><time>2013-7-24T1:40:30Z</time></trkpt>
<trkpt lat="46.199855944141746" lon="7.0328569784760475"><ele></ele><time>2013-7-24T1:40:33Z</time></trkpt>
<trkpt lat="46.19997798465192" lon="7.032550955191255"><ele></ele><time>2013-7-24T1:40:36Z</time></trkpt>
<trkpt lat="46.200064988806844" lon="7.032643994316459"><ele></ele><time>2013-7-24T1:40:39Z</time></trkpt>
<trkpt lat="46.200151992961764" lon="7.0326269790530205"><ele></ele><time>2013-7-24T1:40:42Z</time></trkpt>
<trkpt lat="46.20031099766493" lon="7.032388933002949"><ele></ele><time>2013-7-24T1:40:45Z</time></trkpt>
<trkpt lat="46.20012693107128" lon="7.0324149169027805"><ele></ele><time>2013-7-24T1:40:48Z</time></trkpt>
<trkpt lat="46.19960297830403" lon="7.032408965751529"><ele></ele><time>2013-7-24T1:40:51Z</time></trkpt>
<trkpt lat="46.19913493283093" lon="7.032343922182918"><ele></ele><time>2013-7-24T1:40:54Z</time></trkpt>
<trkpt lat="46.19894198141992" lon="7.032343922182918"><ele></ele><time>2013-7-24T1:40:57Z</time></trkpt>
<trkpt lat="46.199012976139784" lon="7.0321849174797535"><ele></ele><time>2013-7-24T1:41:0Z</time></trkpt>
<trkpt lat="46.19928597472608" lon="7.032102942466736"><ele></ele><time>2013-7-24T1:41:3Z</time></trkpt>
<trkpt lat="46.19964698329568" lon="7.031991966068745"><ele></ele><time>2013-7-24T1:41:6Z</time></trkpt>
<trkpt lat="46.19988796301186" lon="7.031910996884108"><ele></ele><time>2013-7-24T1:41:9Z</time></trkpt>
<trkpt lat="46.20021292939782" lon="7.031670939177275"><ele></ele><time>2013-7-24T1:41:12Z</time></trkpt>
<trkpt lat="46.20033798739314" lon="7.031597932800651"><ele></ele><time>2013-7-24T1:41:15Z</time></trkpt>
<trkpt lat="46.20029993355274" lon="7.03146499581635"><ele></ele><time>2013-7-24T1:41:18Z</time></trkpt>
<trkpt lat="46.20003397576511" lon="7.031572954729199"><ele></ele><time>2013-7-24T1:41:21Z</time></trkpt>
<trkpt lat="46.199918976053596" lon="7.031433982774615"><ele></ele><time>2013-7-24T1:41:24Z</time></trkpt>
<trkpt lat="46.20000899769366" lon="7.0314019639045"><ele></ele><time>2013-7-24T1:41:27Z</time></trkpt>
<trkpt lat="46.200197925791144" lon="7.031260980293155"><ele></ele><time>2013-7-24T1:41:30Z</time></trkpt>
<trkpt lat="46.20023497380316" lon="7.031142963096499"><ele></ele><time>2013-7-24T1:41:33Z</time></trkpt>
<trkpt lat="46.200154926627874" lon="7.031120918691158"><ele></ele><time>2013-7-24T1:41:36Z</time></trkpt>
<trkpt lat="46.199727952480316" lon="7.031373968347907"><ele></ele><time>2013-7-24T1:41:39Z</time></trkpt>
<trkpt lat="46.19929293170571" lon="7.031528949737549"><ele></ele><time>2013-7-24T1:41:42Z</time></trkpt>
<trkpt lat="46.19893896393478" lon="7.031623916700482"><ele></ele><time>2013-7-24T1:41:45Z</time></trkpt>
<trkpt lat="46.198841985315084" lon="7.031649984419346"><ele></ele><time>2013-7-24T1:41:48Z</time></trkpt>
<trkpt lat="46.198110999539495" lon="7.03075697645545"><ele></ele><time>2013-7-24T1:41:51Z</time></trkpt>
<trkpt lat="46.198110999539495" lon="7.03075697645545"><ele></ele><time>2013-7-24T1:41:54Z</time></trkpt>
<trkpt lat="46.19895799085498" lon="7.031191997230053"><ele></ele><time>2013-7-24T1:41:57Z</time></trkpt>
<trkpt lat="46.19919897057116" lon="7.031121924519539"><ele></ele><time>2013-7-24T1:42:0Z</time></trkpt>
<trkpt lat="46.199189918115735" lon="7.0311239361763"><ele></ele><time>2013-7-24T1:42:3Z</time></trkpt>
<trkpt lat="46.19898196309805" lon="7.031187973916531"><ele></ele><time>2013-7-24T1:42:6Z</time></trkpt>
<trkpt lat="46.19870393536985" lon="7.031242959201336"><ele></ele><time>2013-7-24T1:42:9Z</time></trkpt>
<trkpt lat="46.198453987017274" lon="7.031383942812681"><ele></ele><time>2013-7-24T1:42:12Z</time></trkpt>
<trkpt lat="46.198374945670366" lon="7.031189985573292"><ele></ele><time>2013-7-24T1:42:15Z</time></trkpt>
<trkpt lat="46.198437977582216" lon="7.031149920076132"><ele></ele><time>2013-7-24T1:42:18Z</time></trkpt>
<trkpt lat="46.19855691678822" lon="7.031052941456437"><ele></ele><time>2013-7-24T1:42:21Z</time></trkpt>
<trkpt lat="46.19889596477151" lon="7.030962919816375"><ele></ele><time>2013-7-24T1:42:24Z</time></trkpt>
<trkpt lat="46.198239997029305" lon="7.0305209420621395"><ele></ele><time>2013-7-24T1:42:27Z</time></trkpt>
<trkpt lat="46.198884984478354" lon="7.030757982283831"><ele></ele><time>2013-7-24T1:42:30Z</time></trkpt>
<trkpt lat="46.19872296229005" lon="7.030772985890508"><ele></ele><time>2013-7-24T1:42:33Z</time></trkpt>
<trkpt lat="46.19836295954883" lon="7.030953951179981"><ele></ele><time>2013-7-24T1:42:36Z</time></trkpt>
<trkpt lat="46.19794595986605" lon="7.031277995556593"><ele></ele><time>2013-7-24T1:42:39Z</time></trkpt>
<trkpt lat="46.197446985170245" lon="7.031571948900819"><ele></ele><time>2013-7-24T1:42:42Z</time></trkpt>
<trkpt lat="46.19702696800232" lon="7.031743945553899"><ele></ele><time>2013-7-24T1:42:45Z</time></trkpt>
<trkpt lat="46.19690492749214" lon="7.03151092864573"><ele></ele><time>2013-7-24T1:42:48Z</time></trkpt>
<trkpt lat="46.19674399495125" lon="7.031689966097474"><ele></ele><time>2013-7-24T1:42:51Z</time></trkpt>
<trkpt lat="46.196694960817695" lon="7.031657947227359"><ele></ele><time>2013-7-24T1:42:54Z</time></trkpt>
<trkpt lat="46.196694960817695" lon="7.031657947227359"><ele></ele><time>2013-7-24T1:42:57Z</time></trkpt>
<trkpt lat="46.19727096520364" lon="7.031303979456425"><ele></ele><time>2013-7-24T1:43:0Z</time></trkpt>
<trkpt lat="46.196694960817695" lon="7.031657947227359"><ele></ele><time>2013-7-24T1:43:3Z</time></trkpt>
<trkpt lat="46.19722696021199" lon="7.031039949506521"><ele></ele><time>2013-7-24T1:43:6Z</time></trkpt>
<trkpt lat="46.19707499630749" lon="7.03146792948246"><ele></ele><time>2013-7-24T1:43:9Z</time></trkpt>
<trkpt lat="46.19676595553756" lon="7.031527943909168"><ele></ele><time>2013-7-24T1:43:12Z</time></trkpt>
<trkpt lat="46.196392960846424" lon="7.031304985284805"><ele></ele><time>2013-7-24T1:43:15Z</time></trkpt>
<trkpt lat="46.196180982515216" lon="7.031548982486129"><ele></ele><time>2013-7-24T1:43:18Z</time></trkpt>
<trkpt lat="46.19596196338534" lon="7.031799936667085"><ele></ele><time>2013-7-24T1:43:21Z</time></trkpt>
<trkpt lat="46.195429963991046" lon="7.031939998269081"><ele></ele><time>2013-7-24T1:43:24Z</time></trkpt>
<trkpt lat="46.19529392570257" lon="7.031945949420333"><ele></ele><time>2013-7-24T1:43:27Z</time></trkpt>
<trkpt lat="46.19505194015801" lon="7.031956929713488"><ele></ele><time>2013-7-24T1:43:30Z</time></trkpt>
<trkpt lat="46.19443394243717" lon="7.032258929684758"><ele></ele><time>2013-7-24T1:43:33Z</time></trkpt>
<trkpt lat="46.194029934704304" lon="7.0322629529982805"><ele></ele><time>2013-7-24T1:43:36Z</time></trkpt>
<trkpt lat="46.19367999024689" lon="7.032366972416639"><ele></ele><time>2013-7-24T1:43:39Z</time></trkpt>
<trkpt lat="46.19351897388697" lon="7.032355992123485"><ele></ele><time>2013-7-24T1:43:42Z</time></trkpt>
<trkpt lat="46.19358594529331" lon="7.0321819838136435"><ele></ele><time>2013-7-24T1:43:45Z</time></trkpt>
<trkpt lat="46.19361192919314" lon="7.032070923596621"><ele></ele><time>2013-7-24T1:43:48Z</time></trkpt>
<trkpt lat="46.19370496831834" lon="7.031846959143877"><ele></ele><time>2013-7-24T1:43:51Z</time></trkpt>
<trkpt lat="46.19391795247793" lon="7.031718967482448"><ele></ele><time>2013-7-24T1:43:54Z</time></trkpt>
<trkpt lat="46.19430393911898" lon="7.031784933060408"><ele></ele><time>2013-7-24T1:43:57Z</time></trkpt>
<trkpt lat="46.1946139857173" lon="7.031549988314509"><ele></ele><time>2013-7-24T1:44:0Z</time></trkpt>
<trkpt lat="46.194655979052186" lon="7.031419984996319"><ele></ele><time>2013-7-24T1:44:3Z</time></trkpt>
<trkpt lat="46.19458196684718" lon="7.031391989439726"><ele></ele><time>2013-7-24T1:44:6Z</time></trkpt>
<trkpt lat="46.19416899047792" lon="7.031446974724531"><ele></ele><time>2013-7-24T1:44:9Z</time></trkpt>
<trkpt lat="46.1939109954983" lon="7.031168946996331"><ele></ele><time>2013-7-24T1:44:12Z</time></trkpt>
<trkpt lat="46.19376892223954" lon="7.031184956431389"><ele></ele><time>2013-7-24T1:44:15Z</time></trkpt>
<trkpt lat="46.193560967221856" lon="7.031454937532544"><ele></ele><time>2013-7-24T1:44:18Z</time></trkpt>
<trkpt lat="46.19339894503355" lon="7.031691977754235"><ele></ele><time>2013-7-24T1:44:21Z</time></trkpt>
<trkpt lat="46.19285998865962" lon="7.0321999210864305"><ele></ele><time>2013-7-24T1:44:24Z</time></trkpt>
<trkpt lat="46.19277792982757" lon="7.032288936898112"><ele></ele><time>2013-7-24T1:44:27Z</time></trkpt>
<trkpt lat="46.19264993816614" lon="7.032167986035347"><ele></ele><time>2013-7-24T1:44:30Z</time></trkpt>
<trkpt lat="46.192698972299695" lon="7.0321099832654"><ele></ele><time>2013-7-24T1:44:33Z</time></trkpt>
<trkpt lat="46.19293995201588" lon="7.031850982457399"><ele></ele><time>2013-7-24T1:44:36Z</time></trkpt>
<trkpt lat="46.19322594255209" lon="7.0312669314444065"><ele></ele><time>2013-7-24T1:44:39Z</time></trkpt>
<trkpt lat="46.19346298277378" lon="7.030702996999025"><ele></ele><time>2013-7-24T1:44:42Z</time></trkpt>
<trkpt lat="46.19368493556976" lon="7.03049898147583"><ele></ele><time>2013-7-24T1:44:45Z</time></trkpt>
<trkpt lat="46.193967992439866" lon="7.030463945120573"><ele></ele><time>2013-7-24T1:44:48Z</time></trkpt>
<trkpt lat="46.1943269893527" lon="7.030538963153958"><ele></ele><time>2013-7-24T1:44:51Z</time></trkpt>
<trkpt lat="46.194956973195076" lon="7.029490973800421"><ele></ele><time>2013-7-24T1:44:54Z</time></trkpt>
<trkpt lat="46.19498798623681" lon="7.030269987881184"><ele></ele><time>2013-7-24T1:44:57Z</time></trkpt>
<trkpt lat="46.194977927953005" lon="7.030241992324591"><ele></ele><time>2013-7-24T1:45:0Z</time></trkpt>
<trkpt lat="46.19485798291862" lon="7.030232939869165"><ele></ele><time>2013-7-24T1:45:3Z</time></trkpt>
<trkpt lat="46.19453192688525" lon="7.030269987881184"><ele></ele><time>2013-7-24T1:45:6Z</time></trkpt>
<trkpt lat="46.194440983235836" lon="7.030244925990701"><ele></ele><time>2013-7-24T1:45:9Z</time></trkpt>
<trkpt lat="46.1941839940846" lon="7.029990954324603"><ele></ele><time>2013-7-24T1:45:12Z</time></trkpt>
<trkpt lat="46.19434593245387" lon="7.029931945726275"><ele></ele><time>2013-7-24T1:45:15Z</time></trkpt>
<trkpt lat="46.19456394575536" lon="7.030026996508241"><ele></ele><time>2013-7-24T1:45:18Z</time></trkpt>
<trkpt lat="46.194737954065204" lon="7.029943931847811"><ele></ele><time>2013-7-24T1:45:21Z</time></trkpt>
<trkpt lat="46.19494096376002" lon="7.029808983206749"><ele></ele><time>2013-7-24T1:45:24Z</time></trkpt>
<trkpt lat="46.1952509265393" lon="7.02959499321878"><ele></ele><time>2013-7-24T1:45:27Z</time></trkpt>
<trkpt lat="46.195408925414085" lon="7.029436994343996"><ele></ele><time>2013-7-24T1:45:30Z</time></trkpt>
<trkpt lat="46.195364920422435" lon="7.02942593023181"><ele></ele><time>2013-7-24T1:45:33Z</time></trkpt>
<trkpt lat="46.195364920422435" lon="7.02942593023181"><ele></ele><time>2013-7-24T1:45:36Z</time></trkpt>
<trkpt lat="46.19474398903549" lon="7.029463984072208"><ele></ele><time>2013-7-24T1:45:39Z</time></trkpt>
<trkpt lat="46.194370994344354" lon="7.029385948553681"><ele></ele><time>2013-7-24T1:45:42Z</time></trkpt>
<trkpt lat="46.19416899047792" lon="7.029361976310611"><ele></ele><time>2013-7-24T1:45:45Z</time></trkpt>
<trkpt lat="46.1939749494195" lon="7.02948896214366"><ele></ele><time>2013-7-24T1:45:48Z</time></trkpt>
<trkpt lat="46.1934759747237" lon="7.02878194861114"><ele></ele><time>2013-7-24T1:45:51Z</time></trkpt>
<trkpt lat="46.19372793473303" lon="7.02849998138845"><ele></ele><time>2013-7-24T1:45:54Z</time></trkpt>
<trkpt lat="46.19410495273769" lon="7.029170952737331"><ele></ele><time>2013-7-24T1:45:57Z</time></trkpt>
<trkpt lat="46.194264963269234" lon="7.029073974117637"><ele></ele><time>2013-7-24T1:46:0Z</time></trkpt>
<trkpt lat="46.194741977378726" lon="7.02878194861114"><ele></ele><time>2013-7-24T1:46:3Z</time></trkpt>
<trkpt lat="46.195062920451164" lon="7.028603916987777"><ele></ele><time>2013-7-24T1:46:6Z</time></trkpt>
<trkpt lat="46.195254949852824" lon="7.028588997200131"><ele></ele><time>2013-7-24T1:46:9Z</time></trkpt>
<trkpt lat="46.19573598727584" lon="7.02850098721683"><ele></ele><time>2013-7-24T1:46:12Z</time></trkpt>
<trkpt lat="46.19600999169052" lon="7.02811298891902"><ele></ele><time>2013-7-24T1:46:15Z</time></trkpt>
<trkpt lat="46.196072939783335" lon="7.028309963643551"><ele></ele><time>2013-7-24T1:46:18Z</time></trkpt>
<trkpt lat="46.19596095755696" lon="7.028295965865254"><ele></ele><time>2013-7-24T1:46:21Z</time></trkpt>
<trkpt lat="46.19567697867751" lon="7.028168980032206"><ele></ele><time>2013-7-24T1:46:24Z</time></trkpt>
<trkpt lat="46.195684941485524" lon="7.028322955593467"><ele></ele><time>2013-7-24T1:46:27Z</time></trkpt>
<trkpt lat="46.19573992677033" lon="7.028317926451564"><ele></ele><time>2013-7-24T1:46:30Z</time></trkpt>
<trkpt lat="46.195876970887184" lon="7.028303928673267"><ele></ele><time>2013-7-24T1:46:33Z</time></trkpt>
<trkpt lat="46.196029940620065" lon="7.028109971433878"><ele></ele><time>2013-7-24T1:46:36Z</time></trkpt>
<trkpt lat="46.19637091644108" lon="7.028011986985803"><ele></ele><time>2013-7-24T1:46:39Z</time></trkpt>
<trkpt lat="46.196394972503185" lon="7.02794199809432"><ele></ele><time>2013-7-24T1:46:42Z</time></trkpt>
<trkpt lat="46.196220964193344" lon="7.02790092676878"><ele></ele><time>2013-7-24T1:46:45Z</time></trkpt>
<trkpt lat="46.1961439345032" lon="7.027914924547076"><ele></ele><time>2013-7-24T1:46:48Z</time></trkpt>
<trkpt lat="46.19569592177868" lon="7.027908973395824"><ele></ele><time>2013-7-24T1:46:51Z</time></trkpt>
<trkpt lat="46.1955239251256" lon="7.027896987274289"><ele></ele><time>2013-7-24T1:46:54Z</time></trkpt>
<trkpt lat="46.19561092928052" lon="7.02770696952939"><ele></ele><time>2013-7-24T1:46:57Z</time></trkpt>
<trkpt lat="46.19602298364043" lon="7.027574954554439"><ele></ele><time>2013-7-24T1:47:0Z</time></trkpt>
<trkpt lat="46.19658297859132" lon="7.027396922931075"><ele></ele><time>2013-7-24T1:47:3Z</time></trkpt>
<trkpt lat="46.197103997692466" lon="7.0272239204496145"><ele></ele><time>2013-7-24T1:47:6Z</time></trkpt>
<trkpt lat="46.19749794714153" lon="7.026986964046955"><ele></ele><time>2013-7-24T1:47:9Z</time></trkpt>
<trkpt lat="46.198005974292755" lon="7.026578933000565"><ele></ele><time>2013-7-24T1:47:12Z</time></trkpt>
<trkpt lat="46.19812298566103" lon="7.026437949389219"><ele></ele><time>2013-7-24T1:47:15Z</time></trkpt>
<trkpt lat="46.198780965059996" lon="7.025944925844669"><ele></ele><time>2013-7-24T1:47:18Z</time></trkpt>
<trkpt lat="46.198889929801226" lon="7.025835961103439"><ele></ele><time>2013-7-24T1:47:21Z</time></trkpt>
<trkpt lat="46.19934397749603" lon="7.025288958102465"><ele></ele><time>2013-7-24T1:47:24Z</time></trkpt>
<trkpt lat="46.199664920568466" lon="7.024717982858419"><ele></ele><time>2013-7-24T1:47:27Z</time></trkpt>
<trkpt lat="46.20003799907863" lon="7.024136949330568"><ele></ele><time>2013-7-24T1:47:30Z</time></trkpt>
<trkpt lat="46.20022592134774" lon="7.023606961593032"><ele></ele><time>2013-7-24T1:47:33Z</time></trkpt>
<trkpt lat="46.20043999515474" lon="7.022885950282216"><ele></ele><time>2013-7-24T1:47:36Z</time></trkpt>
<trkpt lat="46.20087996125221" lon="7.022180948406458"><ele></ele><time>2013-7-24T1:47:39Z</time></trkpt>
<trkpt lat="46.20126192457974" lon="7.02171097509563"><ele></ele><time>2013-7-24T1:47:42Z</time></trkpt>
<trkpt lat="46.20175997726619" lon="7.021113932132721"><ele></ele><time>2013-7-24T1:47:45Z</time></trkpt>
<trkpt lat="46.20214093476534" lon="7.020624931901693"><ele></ele><time>2013-7-24T1:47:48Z</time></trkpt>
<trkpt lat="46.20255298912525" lon="7.020193934440613"><ele></ele><time>2013-7-24T1:47:51Z</time></trkpt>
<trkpt lat="46.202906956896186" lon="7.019929988309741"><ele></ele><time>2013-7-24T1:47:54Z</time></trkpt>
<trkpt lat="46.20341297239065" lon="7.019603932276368"><ele></ele><time>2013-7-24T1:47:57Z</time></trkpt>
<trkpt lat="46.20348094962537" lon="7.01954391784966"><ele></ele><time>2013-7-24T1:48:0Z</time></trkpt>
<trkpt lat="46.204065922647715" lon="7.018903959542513"><ele></ele><time>2013-7-24T1:48:3Z</time></trkpt>
<trkpt lat="46.204320983961225" lon="7.018630960956216"><ele></ele><time>2013-7-24T1:48:6Z</time></trkpt>
<trkpt lat="46.20473999530077" lon="7.018248997628689"><ele></ele><time>2013-7-24T1:48:9Z</time></trkpt>
<trkpt lat="46.20493495836854" lon="7.018016986548901"><ele></ele><time>2013-7-24T1:48:12Z</time></trkpt>
<trkpt lat="46.205097986385226" lon="7.017600992694497"><ele></ele><time>2013-7-24T1:48:15Z</time></trkpt>
<trkpt lat="46.205183984711766" lon="7.017146944999695"><ele></ele><time>2013-7-24T1:48:18Z</time></trkpt>
<trkpt lat="46.20538397692144" lon="7.016671942546964"><ele></ele><time>2013-7-24T1:48:21Z</time></trkpt>
<trkpt lat="46.205894937738776" lon="7.016312945634127"><ele></ele><time>2013-7-24T1:48:24Z</time></trkpt>
<trkpt lat="46.206341944634914" lon="7.016018992289901"><ele></ele><time>2013-7-24T1:48:27Z</time></trkpt>
<trkpt lat="46.20678492821753" lon="7.015744987875223"><ele></ele><time>2013-7-24T1:48:30Z</time></trkpt>
<trkpt lat="46.20727996341884" lon="7.015452962368727"><ele></ele><time>2013-7-24T1:48:33Z</time></trkpt>
<trkpt lat="46.207714984193444" lon="7.015147944912314"><ele></ele><time>2013-7-24T1:48:36Z</time></trkpt>
<trkpt lat="46.20794196613133" lon="7.01498894020915"><ele></ele><time>2013-7-24T1:48:39Z</time></trkpt>
<trkpt lat="46.208400959149" lon="7.014667997136712"><ele></ele><time>2013-7-24T1:48:42Z</time></trkpt>
<trkpt lat="46.208876967430115" lon="7.014372954145074"><ele></ele><time>2013-7-24T1:48:45Z</time></trkpt>
<trkpt lat="46.20946294628084" lon="7.014034995809197"><ele></ele><time>2013-7-24T1:48:48Z</time></trkpt>
<trkpt lat="46.20978891849518" lon="7.013769960030913"><ele></ele><time>2013-7-24T1:48:51Z</time></trkpt>
<trkpt lat="46.210273979231715" lon="7.013256987556815"><ele></ele><time>2013-7-24T1:48:54Z</time></trkpt>
<trkpt lat="46.21083799749613" lon="7.012721970677376"><ele></ele><time>2013-7-24T1:48:57Z</time></trkpt>
<trkpt lat="46.211369996890426" lon="7.012323997914791"><ele></ele><time>2013-7-24T1:49:0Z</time></trkpt>
<trkpt lat="46.21187693439424" lon="7.012073965743184"><ele></ele><time>2013-7-24T1:49:3Z</time></trkpt>
<trkpt lat="46.21265393681824" lon="7.011758973821998"><ele></ele><time>2013-7-24T1:49:6Z</time></trkpt>
<trkpt lat="46.21343596838415" lon="7.011442976072431"><ele></ele><time>2013-7-24T1:49:9Z</time></trkpt>
<trkpt lat="46.21404197998345" lon="7.011196967214346"><ele></ele><time>2013-7-24T1:49:12Z</time></trkpt>
<trkpt lat="46.214548917487264" lon="7.010987922549248"><ele></ele><time>2013-7-24T1:49:15Z</time></trkpt>
<trkpt lat="46.2150339782238" lon="7.010802933946252"><ele></ele><time>2013-7-24T1:49:18Z</time></trkpt>
<trkpt lat="46.215620962902904" lon="7.010576957836747"><ele></ele><time>2013-7-24T1:49:21Z</time></trkpt>
<trkpt lat="46.21617391705513" lon="7.010353999212384"><ele></ele><time>2013-7-24T1:49:24Z</time></trkpt>
<trkpt lat="46.216679932549596" lon="7.010148977860808"><ele></ele><time>2013-7-24T1:49:27Z</time></trkpt>
<trkpt lat="46.21731192804873" lon="7.009893916547298"><ele></ele><time>2013-7-24T1:49:30Z</time></trkpt>
<trkpt lat="46.21779698878527" lon="7.009698953479528"><ele></ele><time>2013-7-24T1:49:33Z</time></trkpt>
<trkpt lat="46.2179989926517" lon="7.009632987901568"><ele></ele><time>2013-7-24T1:49:36Z</time></trkpt>
<trkpt lat="46.21810996904969" lon="7.009598957374692"><ele></ele><time>2013-7-24T1:49:39Z</time></trkpt>
<trkpt lat="46.218247935175896" lon="7.0098199881613255"><ele></ele><time>2013-7-24T1:49:42Z</time></trkpt>
<trkpt lat="46.218585977330804" lon="7.010443937033415"><ele></ele><time>2013-7-24T1:49:45Z</time></trkpt>
<trkpt lat="46.21866191737354" lon="7.010583998635411"><ele></ele><time>2013-7-24T1:49:48Z</time></trkpt>
<trkpt lat="46.21886492706835" lon="7.010998986661434"><ele></ele><time>2013-7-24T1:49:51Z</time></trkpt>
<trkpt lat="46.21915594674647" lon="7.0109679736196995"><ele></ele><time>2013-7-24T1:49:54Z</time></trkpt>
<trkpt lat="46.21965299360454" lon="7.0107529778033495"><ele></ele><time>2013-7-24T1:49:57Z</time></trkpt>
<trkpt lat="46.22021893970668" lon="7.0105229783803225"><ele></ele><time>2013-7-24T1:50:0Z</time></trkpt>
<trkpt lat="46.22073492966592" lon="7.010313933715224"><ele></ele><time>2013-7-24T1:50:3Z</time></trkpt>
<trkpt lat="46.221230970695615" lon="7.010076977312565"><ele></ele><time>2013-7-24T1:50:6Z</time></trkpt>
<trkpt lat="46.22152794152498" lon="7.0099289529025555"><ele></ele><time>2013-7-24T1:50:9Z</time></trkpt>
<trkpt lat="46.22175894677639" lon="7.009784951806068"><ele></ele><time>2013-7-24T1:50:12Z</time></trkpt>
<trkpt lat="46.22203798033297" lon="7.0095929224044085"><ele></ele><time>2013-7-24T1:50:15Z</time></trkpt>
<trkpt lat="46.22220595367253" lon="7.009430984035134"><ele></ele><time>2013-7-24T1:50:18Z</time></trkpt>
<trkpt lat="46.22231491841376" lon="7.009276924654841"><ele></ele><time>2013-7-24T1:50:21Z</time></trkpt>
<trkpt lat="46.22216898947954" lon="7.008874928578734"><ele></ele><time>2013-7-24T1:50:24Z</time></trkpt>
<trkpt lat="46.222072932869196" lon="7.008555997163057"><ele></ele><time>2013-7-24T1:50:27Z</time></trkpt>
<trkpt lat="46.22200797311962" lon="7.008329937234521"><ele></ele><time>2013-7-24T1:50:30Z</time></trkpt>
<trkpt lat="46.22197193093598" lon="7.008045958355069"><ele></ele><time>2013-7-24T1:50:33Z</time></trkpt>
<trkpt lat="46.222005961462855" lon="7.007766924798489"><ele></ele><time>2013-7-24T1:50:36Z</time></trkpt>
<trkpt lat="46.222065975889564" lon="7.0074019767344"><ele></ele><time>2013-7-24T1:50:39Z</time></trkpt>
<trkpt lat="46.22212992981076" lon="7.007020935416222"><ele></ele><time>2013-7-24T1:50:42Z</time></trkpt>
<trkpt lat="46.2222159281373" lon="7.006664955988526"><ele></ele><time>2013-7-24T1:50:45Z</time></trkpt>
<trkpt lat="46.22236093506217" lon="7.006375947967172"><ele></ele><time>2013-7-24T1:50:48Z</time></trkpt>
<trkpt lat="46.22253092005849" lon="7.006087945774198"><ele></ele><time>2013-7-24T1:50:51Z</time></trkpt>
<trkpt lat="46.22270694002509" lon="7.005796926096082"><ele></ele><time>2013-7-24T1:50:54Z</time></trkpt>
<trkpt lat="46.22292595915496" lon="7.005380932241678"><ele></ele><time>2013-7-24T1:50:57Z</time></trkpt>
<trkpt lat="46.22317196801305" lon="7.004940966144204"><ele></ele><time>2013-7-24T1:51:0Z</time></trkpt>
<trkpt lat="46.223466927185655" lon="7.004606947302818"><ele></ele><time>2013-7-24T1:51:3Z</time></trkpt>
<trkpt lat="46.22390395961702" lon="7.004243927076459"><ele></ele><time>2013-7-24T1:51:6Z</time></trkpt>
<trkpt lat="46.22420394793153" lon="7.004066985100508"><ele></ele><time>2013-7-24T1:51:9Z</time></trkpt>
<trkpt lat="46.224476946517825" lon="7.003972940146923"><ele></ele><time>2013-7-24T1:51:12Z</time></trkpt>
<trkpt lat="46.22452396899462" lon="7.003962965682149"><ele></ele><time>2013-7-24T1:51:15Z</time></trkpt>
<trkpt lat="46.2246959656477" lon="7.003926923498511"><ele></ele><time>2013-7-24T1:51:18Z</time></trkpt>
<trkpt lat="46.22485497035086" lon="7.003788957372308"><ele></ele><time>2013-7-24T1:51:21Z</time></trkpt>
<trkpt lat="46.225053956732154" lon="7.003626935184002"><ele></ele><time>2013-7-24T1:51:24Z</time></trkpt>
<trkpt lat="46.22524498030543" lon="7.003676975145936"><ele></ele><time>2013-7-24T1:51:27Z</time></trkpt>
<trkpt lat="46.22562694363296" lon="7.003868920728564"><ele></ele><time>2013-7-24T1:51:30Z</time></trkpt>
<trkpt lat="46.226065987721086" lon="7.00411694124341"><ele></ele><time>2013-7-24T1:51:33Z</time></trkpt>
<trkpt lat="46.22655498795211" lon="7.004427993670106"><ele></ele><time>2013-7-24T1:51:36Z</time></trkpt>
<trkpt lat="46.22713099233806" lon="7.004878940060735"><ele></ele><time>2013-7-24T1:51:39Z</time></trkpt>
<trkpt lat="46.22772593982518" lon="7.005333993583918"><ele></ele><time>2013-7-24T1:51:42Z</time></trkpt>
<trkpt lat="46.22813891619444" lon="7.005543960258365"><ele></ele><time>2013-7-24T1:51:45Z</time></trkpt>
<trkpt lat="46.22861693613231" lon="7.005570949986577"><ele></ele><time>2013-7-24T1:51:48Z</time></trkpt>
<trkpt lat="46.22913594357669" lon="7.005458967760205"><ele></ele><time>2013-7-24T1:51:51Z</time></trkpt>
<trkpt lat="46.22960792854428" lon="7.005199966952205"><ele></ele><time>2013-7-24T1:51:54Z</time></trkpt>
<trkpt lat="46.229974972084165" lon="7.004857985302806"><ele></ele><time>2013-7-24T1:51:57Z</time></trkpt>
<trkpt lat="46.2304029520601" lon="7.004407960921526"><ele></ele><time>2013-7-24T1:52:0Z</time></trkpt>
<trkpt lat="46.230922965332866" lon="7.004064973443747"><ele></ele><time>2013-7-24T1:52:3Z</time></trkpt>
<trkpt lat="46.23142395168543" lon="7.00387897901237"><ele></ele><time>2013-7-24T1:52:6Z</time></trkpt>
<trkpt lat="46.232274966314435" lon="7.003607992082834"><ele></ele><time>2013-7-24T1:52:9Z</time></trkpt>
<trkpt lat="46.23279598541558" lon="7.003392996266484"><ele></ele><time>2013-7-24T1:52:12Z</time></trkpt>
<trkpt lat="46.23351599089801" lon="7.003032993525267"><ele></ele><time>2013-7-24T1:52:15Z</time></trkpt>
<trkpt lat="46.23404991813004" lon="7.002705931663513"><ele></ele><time>2013-7-24T1:52:18Z</time></trkpt>
<trkpt lat="46.234766989946365" lon="7.002292955294251"><ele></ele><time>2013-7-24T1:52:21Z</time></trkpt>
<trkpt lat="46.23523495160043" lon="7.002066979184747"><ele></ele><time>2013-7-24T1:52:24Z</time></trkpt>
<trkpt lat="46.235843980684876" lon="7.001825999468565"><ele></ele><time>2013-7-24T1:52:27Z</time></trkpt>
<trkpt lat="46.23646994121373" lon="7.001583930104971"><ele></ele><time>2013-7-24T1:52:30Z</time></trkpt>
<trkpt lat="46.23711492866278" lon="7.001295927911997"><ele></ele><time>2013-7-24T1:52:33Z</time></trkpt>
<trkpt lat="46.2376179266721" lon="7.001178916543722"><ele></ele><time>2013-7-24T1:52:36Z</time></trkpt>
<trkpt lat="46.23809393495321" lon="7.001101970672607"><ele></ele><time>2013-7-24T1:52:39Z</time></trkpt>
<trkpt lat="46.23858192935586" lon="7.001101970672607"><ele></ele><time>2013-7-24T1:52:42Z</time></trkpt>
<trkpt lat="46.23926597647369" lon="7.0011599734425545"><ele></ele><time>2013-7-24T1:52:45Z</time></trkpt>
<trkpt lat="46.24002395197749" lon="7.001362983137369"><ele></ele><time>2013-7-24T1:52:48Z</time></trkpt>
<trkpt lat="46.240674974396825" lon="7.001554928719997"><ele></ele><time>2013-7-24T1:52:51Z</time></trkpt>
<trkpt lat="46.2407869566232" lon="7.001588959246874"><ele></ele><time>2013-7-24T1:52:54Z</time></trkpt>
<trkpt lat="46.24089592136443" lon="7.00162198394537"><ele></ele><time>2013-7-24T1:52:57Z</time></trkpt>
<trkpt lat="46.241043945774436" lon="7.001666994765401"><ele></ele><time>2013-7-24T1:53:0Z</time></trkpt>
<trkpt lat="46.24118098989129" lon="7.001706976443529"><ele></ele><time>2013-7-24T1:53:3Z</time></trkpt>
<trkpt lat="46.24114394187927" lon="7.002281975001097"><ele></ele><time>2013-7-24T1:53:6Z</time></trkpt>
<trkpt lat="46.24120596796274" lon="7.002526978030801"><ele></ele><time>2013-7-24T1:53:9Z</time></trkpt>
<trkpt lat="46.24127394519746" lon="7.002801988273859"><ele></ele><time>2013-7-24T1:53:12Z</time></trkpt>
<trkpt lat="46.24133194796741" lon="7.003168947994709"><ele></ele><time>2013-7-24T1:53:15Z</time></trkpt>
<trkpt lat="46.241427920758724" lon="7.003251928836107"><ele></ele><time>2013-7-24T1:53:18Z</time></trkpt>
<trkpt lat="46.24158793129027" lon="7.003300962969661"><ele></ele><time>2013-7-24T1:53:21Z</time></trkpt>
<trkpt lat="46.24174098484218" lon="7.003400959074497"><ele></ele><time>2013-7-24T1:53:24Z</time></trkpt>
<trkpt lat="46.24180795624852" lon="7.003571949899197"><ele></ele><time>2013-7-24T1:53:27Z</time></trkpt>
<trkpt lat="46.241897977888584" lon="7.003805972635746"><ele></ele><time>2013-7-24T1:53:30Z</time></trkpt>
<trkpt lat="46.24201398342848" lon="7.004046952351928"><ele></ele><time>2013-7-24T1:53:33Z</time></trkpt>
<trkpt lat="46.242071986198425" lon="7.004138985648751"><ele></ele><time>2013-7-24T1:53:36Z</time></trkpt>
<trkpt lat="46.24193795956671" lon="7.004275945946574"><ele></ele><time>2013-7-24T1:53:39Z</time></trkpt>
<trkpt lat="46.24175791628659" lon="7.004438973963261"><ele></ele><time>2013-7-24T1:53:42Z</time></trkpt>
<trkpt lat="46.24149598181248" lon="7.004677942022681"><ele></ele><time>2013-7-24T1:53:45Z</time></trkpt>
<trkpt lat="46.24124896712601" lon="7.0049019902944565"><ele></ele><time>2013-7-24T1:53:48Z</time></trkpt>
<trkpt lat="46.240953924134374" lon="7.005146993324161"><ele></ele><time>2013-7-24T1:53:51Z</time></trkpt>
<trkpt lat="46.240864992141724" lon="7.0052459836006165"><ele></ele><time>2013-7-24T1:53:54Z</time></trkpt>
<trkpt lat="46.24094797298312" lon="7.005470953881741"><ele></ele><time>2013-7-24T1:53:57Z</time></trkpt>
<trkpt lat="46.241081999614835" lon="7.005894994363189"><ele></ele><time>2013-7-24T1:54:0Z</time></trkpt>
<trkpt lat="46.24119993299246" lon="7.006266983225942"><ele></ele><time>2013-7-24T1:54:3Z</time></trkpt>
<trkpt lat="46.241339994594455" lon="7.006708960980177"><ele></ele><time>2013-7-24T1:54:6Z</time></trkpt>
<trkpt lat="46.24146496877074" lon="7.007106933742762"><ele></ele><time>2013-7-24T1:54:9Z</time></trkpt>
<trkpt lat="46.24161399900913" lon="7.0075769908726215"><ele></ele><time>2013-7-24T1:54:12Z</time></trkpt>
<trkpt lat="46.24176395125687" lon="7.008051993325353"><ele></ele><time>2013-7-24T1:54:15Z</time></trkpt>
<trkpt lat="46.24193293042481" lon="7.00858399271965"><ele></ele><time>2013-7-24T1:54:18Z</time></trkpt>
<trkpt lat="46.24205597676337" lon="7.0089759305119514"><ele></ele><time>2013-7-24T1:54:21Z</time></trkpt>
<trkpt lat="46.242201989516616" lon="7.009436935186386"><ele></ele><time>2013-7-24T1:54:24Z</time></trkpt>
<trkpt lat="46.242328975349665" lon="7.0098379254341125"><ele></ele><time>2013-7-24T1:54:27Z</time></trkpt>
<trkpt lat="46.24243198893964" lon="7.010163981467485"><ele></ele><time>2013-7-24T1:54:30Z</time></trkpt>
<trkpt lat="46.24257699586451" lon="7.010621968656778"><ele></ele><time>2013-7-24T1:54:33Z</time></trkpt>
<trkpt lat="46.242673974484205" lon="7.010929919779301"><ele></ele><time>2013-7-24T1:54:36Z</time></trkpt>
<trkpt lat="46.24272393062711" lon="7.011086996644735"><ele></ele><time>2013-7-24T1:54:39Z</time></trkpt>
<trkpt lat="46.24281797558069" lon="7.011325964704156"><ele></ele><time>2013-7-24T1:54:42Z</time></trkpt>
<trkpt lat="46.242954935878515" lon="7.011674987152219"><ele></ele><time>2013-7-24T1:54:45Z</time></trkpt>
<trkpt lat="46.24315593391657" lon="7.0121789909899235"><ele></ele><time>2013-7-24T1:54:48Z</time></trkpt>
<trkpt lat="46.24336891807616" lon="7.012675954028964"><ele></ele><time>2013-7-24T1:54:51Z</time></trkpt>
<trkpt lat="46.24344494193792" lon="7.012886926531792"><ele></ele><time>2013-7-24T1:54:54Z</time></trkpt>
<trkpt lat="46.24360897578299" lon="7.013270985335112"><ele></ele><time>2013-7-24T1:54:57Z</time></trkpt>
<trkpt lat="46.24369597993791" lon="7.013475922867656"><ele></ele><time>2013-7-24T1:55:0Z</time></trkpt>
<trkpt lat="46.243706960231066" lon="7.013500984758139"><ele></ele><time>2013-7-24T1:55:3Z</time></trkpt>
<trkpt lat="46.24382296577096" lon="7.013372993096709"><ele></ele><time>2013-7-24T1:55:6Z</time></trkpt>
<trkpt lat="46.244007954373956" lon="7.013151962310076"><ele></ele><time>2013-7-24T1:55:9Z</time></trkpt>
<trkpt lat="46.2441729940474" lon="7.012975942343473"><ele></ele><time>2013-7-24T1:55:12Z</time></trkpt>
<trkpt lat="46.24434691853821" lon="7.0128189492970705"><ele></ele><time>2013-7-24T1:55:15Z</time></trkpt>
<trkpt lat="46.244518999010324" lon="7.012668997049332"><ele></ele><time>2013-7-24T1:55:18Z</time></trkpt>
<trkpt lat="46.244673980399966" lon="7.012556931003928"><ele></ele><time>2013-7-24T1:55:21Z</time></trkpt>
<trkpt lat="46.244950918480754" lon="7.012449977919459"><ele></ele><time>2013-7-24T1:55:24Z</time></trkpt>
<trkpt lat="46.245404966175556" lon="7.012255936861038"><ele></ele><time>2013-7-24T1:55:27Z</time></trkpt>
<trkpt lat="46.24551896005869" lon="7.012194916605949"><ele></ele><time>2013-7-24T1:55:30Z</time></trkpt>
<trkpt lat="46.245771925896406" lon="7.012217966839671"><ele></ele><time>2013-7-24T1:55:33Z</time></trkpt>
<trkpt lat="46.245920956134796" lon="7.0124829187989235"><ele></ele><time>2013-7-24T1:55:36Z</time></trkpt>
<trkpt lat="46.24602095223963" lon="7.012610994279385"><ele></ele><time>2013-7-24T1:55:39Z</time></trkpt>
<trkpt lat="46.246047941967845" lon="7.01264594681561"><ele></ele><time>2013-7-24T1:55:42Z</time></trkpt>
<trkpt lat="46.246047941967845" lon="7.01264594681561"><ele></ele><time>2013-7-24T1:55:45Z</time></trkpt>
<trkpt lat="46.246047941967845" lon="7.01264594681561"><ele></ele><time>2013-7-24T1:55:48Z</time></trkpt>
</trkseg></trk></gpx>